<?xml version="1.0" encoding="UTF-8" standalone="no" ?>
<gpx xmlns="http://www.topografix.com/GPX/1/1" xmlns:xsi="http://www.w3.org/2001/XMLSchema-instance" xsi:schemaLocation="http://www.topografix.com/GPX/1/1 http://www.topografix.com/GPX/1/1/gpx.xsd" version="1.1" creator="VisuGPX - https://www.visugpx.com">
  <metadata>
    <name>Sciecq c2 (autour du bourg) 8km</name>
    <desc><![CDATA[Départ Crématorium]]></desc>
  </metadata>
  <wpt lat="46.37335" lon="-0.47019">
    <ele>47.6</ele>
  </wpt>
  <wpt lat="46.36911" lon="-0.47611">
    <ele>51.2</ele>
  </wpt>
  <wpt lat="46.36894" lon="-0.47636">
    <ele>51.8</ele>
  </wpt>
  <trk>
    <name><![CDATA[Sciecq c2 (autour du bourg) 8km_1]]></name>
    <trkseg>
      <trkpt lat="46.35761" lon="-0.48211">
        <ele>57</ele>
        <time>2013-01-03T14:19:12Z</time>
      </trkpt>
      <trkpt lat="46.3576" lon="-0.48211">
        <ele>57</ele>
        <time>2013-01-03T14:19:22Z</time>
      </trkpt>
      <trkpt lat="46.35761" lon="-0.48211">
        <ele>57</ele>
        <time>2013-01-03T14:19:27Z</time>
      </trkpt>
      <trkpt lat="46.3576" lon="-0.48212">
        <ele>57</ele>
        <time>2013-01-03T14:19:42Z</time>
      </trkpt>
      <trkpt lat="46.35759" lon="-0.48213">
        <ele>57</ele>
        <time>2013-01-03T14:19:47Z</time>
      </trkpt>
      <trkpt lat="46.35759" lon="-0.48213">
        <ele>57</ele>
        <time>2013-01-03T14:19:52Z</time>
      </trkpt>
      <trkpt lat="46.35758" lon="-0.48213">
        <ele>57</ele>
        <time>2013-01-03T14:19:57Z</time>
      </trkpt>
      <trkpt lat="46.3576" lon="-0.48212">
        <ele>57</ele>
        <time>2013-01-03T14:20:17Z</time>
      </trkpt>
      <trkpt lat="46.3576" lon="-0.48213">
        <ele>57</ele>
        <time>2013-01-03T14:20:22Z</time>
      </trkpt>
      <trkpt lat="46.35761" lon="-0.48213">
        <ele>57</ele>
        <time>2013-01-03T14:20:27Z</time>
      </trkpt>
      <trkpt lat="46.35761" lon="-0.48214">
        <ele>57</ele>
        <time>2013-01-03T14:20:57Z</time>
      </trkpt>
      <trkpt lat="46.35761" lon="-0.48214">
        <ele>57</ele>
        <time>2013-01-03T14:21:02Z</time>
      </trkpt>
      <trkpt lat="46.35762" lon="-0.48215">
        <ele>56.817005</ele>
        <time>2013-01-03T14:21:07Z</time>
      </trkpt>
      <trkpt lat="46.35758" lon="-0.48208">
        <ele>56.817005</ele>
        <time>2013-01-03T14:21:12Z</time>
      </trkpt>
      <trkpt lat="46.35754" lon="-0.48205">
        <ele>59.082832</ele>
        <time>2013-01-03T14:21:17Z</time>
      </trkpt>
      <trkpt lat="46.35749" lon="-0.48206">
        <ele>59.082832</ele>
        <time>2013-01-03T14:21:22Z</time>
      </trkpt>
      <trkpt lat="46.35744" lon="-0.48205">
        <ele>61.326675</ele>
        <time>2013-01-03T14:21:27Z</time>
      </trkpt>
      <trkpt lat="46.35739" lon="-0.48204">
        <ele>61.326675</ele>
        <time>2013-01-03T14:21:32Z</time>
      </trkpt>
      <trkpt lat="46.35735" lon="-0.48198">
        <ele>62.813557</ele>
        <time>2013-01-03T14:21:37Z</time>
      </trkpt>
      <trkpt lat="46.3573" lon="-0.48196">
        <ele>62.813557</ele>
        <time>2013-01-03T14:21:42Z</time>
      </trkpt>
      <trkpt lat="46.35726" lon="-0.48191">
        <ele>64.032104</ele>
        <time>2013-01-03T14:21:47Z</time>
      </trkpt>
      <trkpt lat="46.35722" lon="-0.48183">
        <ele>64.032104</ele>
        <time>2013-01-03T14:21:52Z</time>
      </trkpt>
      <trkpt lat="46.35718" lon="-0.48176">
        <ele>65.321365</ele>
        <time>2013-01-03T14:21:57Z</time>
      </trkpt>
      <trkpt lat="46.35715" lon="-0.48167">
        <ele>65.321365</ele>
        <time>2013-01-03T14:22:02Z</time>
      </trkpt>
      <trkpt lat="46.35712" lon="-0.48163">
        <ele>65.85142</ele>
        <time>2013-01-03T14:22:07Z</time>
      </trkpt>
      <trkpt lat="46.35706" lon="-0.48161">
        <ele>65.85142</ele>
        <time>2013-01-03T14:22:12Z</time>
      </trkpt>
      <trkpt lat="46.35702" lon="-0.48156">
        <ele>66.01918</ele>
        <time>2013-01-03T14:22:17Z</time>
      </trkpt>
      <trkpt lat="46.35697" lon="-0.48153">
        <ele>66.01918</ele>
        <time>2013-01-03T14:22:22Z</time>
      </trkpt>
      <trkpt lat="46.35691" lon="-0.48149">
        <ele>65.83768</ele>
        <time>2013-01-03T14:22:27Z</time>
      </trkpt>
      <trkpt lat="46.35687" lon="-0.48146">
        <ele>65.83768</ele>
        <time>2013-01-03T14:22:32Z</time>
      </trkpt>
      <trkpt lat="46.35681" lon="-0.48142">
        <ele>65.65322</ele>
        <time>2013-01-03T14:22:37Z</time>
      </trkpt>
      <trkpt lat="46.35676" lon="-0.48138">
        <ele>65.65322</ele>
        <time>2013-01-03T14:22:42Z</time>
      </trkpt>
      <trkpt lat="46.3567" lon="-0.48134">
        <ele>65.11253</ele>
        <time>2013-01-03T14:22:47Z</time>
      </trkpt>
      <trkpt lat="46.35663" lon="-0.48131">
        <ele>65.11253</ele>
        <time>2013-01-03T14:22:52Z</time>
      </trkpt>
      <trkpt lat="46.35658" lon="-0.48124">
        <ele>64.83205</ele>
        <time>2013-01-03T14:22:57Z</time>
      </trkpt>
      <trkpt lat="46.35654" lon="-0.48117">
        <ele>64.83205</ele>
        <time>2013-01-03T14:23:02Z</time>
      </trkpt>
      <trkpt lat="46.35652" lon="-0.4811">
        <ele>64.14548</ele>
        <time>2013-01-03T14:23:07Z</time>
      </trkpt>
      <trkpt lat="46.35656" lon="-0.481">
        <ele>64.14548</ele>
        <time>2013-01-03T14:23:12Z</time>
      </trkpt>
      <trkpt lat="46.35655" lon="-0.4809">
        <ele>63.297085</ele>
        <time>2013-01-03T14:23:17Z</time>
      </trkpt>
      <trkpt lat="46.35653" lon="-0.48087">
        <ele>63.297085</ele>
        <time>2013-01-03T14:23:22Z</time>
      </trkpt>
      <trkpt lat="46.35648" lon="-0.48081">
        <ele>62.080845</ele>
        <time>2013-01-03T14:23:27Z</time>
      </trkpt>
      <trkpt lat="46.35643" lon="-0.48076">
        <ele>62.080845</ele>
        <time>2013-01-03T14:23:32Z</time>
      </trkpt>
      <trkpt lat="46.35637" lon="-0.48072">
        <ele>61.51897</ele>
        <time>2013-01-03T14:23:37Z</time>
      </trkpt>
      <trkpt lat="46.35631" lon="-0.48068">
        <ele>61.51897</ele>
        <time>2013-01-03T14:23:42Z</time>
      </trkpt>
      <trkpt lat="46.35625" lon="-0.48062">
        <ele>61.25715</ele>
        <time>2013-01-03T14:23:47Z</time>
      </trkpt>
      <trkpt lat="46.35621" lon="-0.48058">
        <ele>61.25715</ele>
        <time>2013-01-03T14:23:52Z</time>
      </trkpt>
      <trkpt lat="46.35615" lon="-0.48053">
        <ele>61.394703</ele>
        <time>2013-01-03T14:23:57Z</time>
      </trkpt>
      <trkpt lat="46.3561" lon="-0.4805">
        <ele>61.394703</ele>
        <time>2013-01-03T14:24:02Z</time>
      </trkpt>
      <trkpt lat="46.35604" lon="-0.48047">
        <ele>61.361004</ele>
        <time>2013-01-03T14:24:07Z</time>
      </trkpt>
      <trkpt lat="46.35599" lon="-0.48042">
        <ele>61.361004</ele>
        <time>2013-01-03T14:24:12Z</time>
      </trkpt>
      <trkpt lat="46.35594" lon="-0.48038">
        <ele>61.489365</ele>
        <time>2013-01-03T14:24:17Z</time>
      </trkpt>
      <trkpt lat="46.35589" lon="-0.48033">
        <ele>61.489365</ele>
        <time>2013-01-03T14:24:22Z</time>
      </trkpt>
      <trkpt lat="46.35584" lon="-0.4803">
        <ele>61.714214</ele>
        <time>2013-01-03T14:24:27Z</time>
      </trkpt>
      <trkpt lat="46.35579" lon="-0.48026">
        <ele>61.714214</ele>
        <time>2013-01-03T14:24:32Z</time>
      </trkpt>
      <trkpt lat="46.35574" lon="-0.48022">
        <ele>62.175762</ele>
        <time>2013-01-03T14:24:37Z</time>
      </trkpt>
      <trkpt lat="46.3557" lon="-0.48019">
        <ele>62.175762</ele>
        <time>2013-01-03T14:24:42Z</time>
      </trkpt>
      <trkpt lat="46.35566" lon="-0.48015">
        <ele>62.18648</ele>
        <time>2013-01-03T14:24:47Z</time>
      </trkpt>
      <trkpt lat="46.35565" lon="-0.48009">
        <ele>62.18648</ele>
        <time>2013-01-03T14:24:52Z</time>
      </trkpt>
      <trkpt lat="46.35564" lon="-0.48002">
        <ele>61.693268</ele>
        <time>2013-01-03T14:24:57Z</time>
      </trkpt>
      <trkpt lat="46.35562" lon="-0.47996">
        <ele>61.693268</ele>
        <time>2013-01-03T14:25:02Z</time>
      </trkpt>
      <trkpt lat="46.35559" lon="-0.47987">
        <ele>61.20333</ele>
        <time>2013-01-03T14:25:07Z</time>
      </trkpt>
      <trkpt lat="46.35556" lon="-0.47982">
        <ele>61.20333</ele>
        <time>2013-01-03T14:25:12Z</time>
      </trkpt>
      <trkpt lat="46.35554" lon="-0.47973">
        <ele>60.990208</ele>
        <time>2013-01-03T14:25:17Z</time>
      </trkpt>
      <trkpt lat="46.35555" lon="-0.47963">
        <ele>60.990208</ele>
        <time>2013-01-03T14:25:22Z</time>
      </trkpt>
      <trkpt lat="46.35558" lon="-0.47961">
        <ele>60.3992</ele>
        <time>2013-01-03T14:25:27Z</time>
      </trkpt>
      <trkpt lat="46.35564" lon="-0.47959">
        <ele>60.3992</ele>
        <time>2013-01-03T14:25:32Z</time>
      </trkpt>
      <trkpt lat="46.35569" lon="-0.47956">
        <ele>59.89033</ele>
        <time>2013-01-03T14:25:37Z</time>
      </trkpt>
      <trkpt lat="46.35575" lon="-0.47956">
        <ele>59.89033</ele>
        <time>2013-01-03T14:25:42Z</time>
      </trkpt>
      <trkpt lat="46.35581" lon="-0.47955">
        <ele>59.35784</ele>
        <time>2013-01-03T14:25:47Z</time>
      </trkpt>
      <trkpt lat="46.35587" lon="-0.47952">
        <ele>59.35784</ele>
        <time>2013-01-03T14:25:52Z</time>
      </trkpt>
      <trkpt lat="46.35591" lon="-0.47951">
        <ele>58.706097</ele>
        <time>2013-01-03T14:25:57Z</time>
      </trkpt>
      <trkpt lat="46.35596" lon="-0.4795">
        <ele>58.706097</ele>
        <time>2013-01-03T14:26:02Z</time>
      </trkpt>
      <trkpt lat="46.35604" lon="-0.4795">
        <ele>58.34787</ele>
        <time>2013-01-03T14:26:07Z</time>
      </trkpt>
      <trkpt lat="46.35607" lon="-0.47948">
        <ele>58.34787</ele>
        <time>2013-01-03T14:26:12Z</time>
      </trkpt>
      <trkpt lat="46.35612" lon="-0.47946">
        <ele>58.19116</ele>
        <time>2013-01-03T14:26:17Z</time>
      </trkpt>
      <trkpt lat="46.35619" lon="-0.47943">
        <ele>58.19116</ele>
        <time>2013-01-03T14:26:22Z</time>
      </trkpt>
      <trkpt lat="46.35624" lon="-0.47943">
        <ele>58.05488</ele>
        <time>2013-01-03T14:26:27Z</time>
      </trkpt>
      <trkpt lat="46.35631" lon="-0.47943">
        <ele>58.05488</ele>
        <time>2013-01-03T14:26:32Z</time>
      </trkpt>
      <trkpt lat="46.35634" lon="-0.4794">
        <ele>57.78484</ele>
        <time>2013-01-03T14:26:37Z</time>
      </trkpt>
      <trkpt lat="46.35641" lon="-0.47938">
        <ele>57.78484</ele>
        <time>2013-01-03T14:26:42Z</time>
      </trkpt>
      <trkpt lat="46.35645" lon="-0.47938">
        <ele>57.892326</ele>
        <time>2013-01-03T14:26:47Z</time>
      </trkpt>
      <trkpt lat="46.35651" lon="-0.47935">
        <ele>57.892326</ele>
        <time>2013-01-03T14:26:52Z</time>
      </trkpt>
      <trkpt lat="46.35656" lon="-0.47933">
        <ele>58.28365</ele>
        <time>2013-01-03T14:26:57Z</time>
      </trkpt>
      <trkpt lat="46.35661" lon="-0.47931">
        <ele>58.28365</ele>
        <time>2013-01-03T14:27:02Z</time>
      </trkpt>
      <trkpt lat="46.35667" lon="-0.47929">
        <ele>58.57461</ele>
        <time>2013-01-03T14:27:07Z</time>
      </trkpt>
      <trkpt lat="46.35673" lon="-0.47927">
        <ele>58.57461</ele>
        <time>2013-01-03T14:27:12Z</time>
      </trkpt>
      <trkpt lat="46.35679" lon="-0.47927">
        <ele>58.911873</ele>
        <time>2013-01-03T14:27:17Z</time>
      </trkpt>
      <trkpt lat="46.35685" lon="-0.47925">
        <ele>58.911873</ele>
        <time>2013-01-03T14:27:22Z</time>
      </trkpt>
      <trkpt lat="46.3569" lon="-0.47924">
        <ele>59.205864</ele>
        <time>2013-01-03T14:27:27Z</time>
      </trkpt>
      <trkpt lat="46.35697" lon="-0.47924">
        <ele>59.205864</ele>
        <time>2013-01-03T14:27:32Z</time>
      </trkpt>
      <trkpt lat="46.35703" lon="-0.47923">
        <ele>59.32832</ele>
        <time>2013-01-03T14:27:37Z</time>
      </trkpt>
      <trkpt lat="46.35707" lon="-0.47922">
        <ele>59.32832</ele>
        <time>2013-01-03T14:27:42Z</time>
      </trkpt>
      <trkpt lat="46.35713" lon="-0.4792">
        <ele>59.38936</ele>
        <time>2013-01-03T14:27:47Z</time>
      </trkpt>
      <trkpt lat="46.35719" lon="-0.47918">
        <ele>59.38936</ele>
        <time>2013-01-03T14:27:52Z</time>
      </trkpt>
      <trkpt lat="46.35723" lon="-0.47916">
        <ele>59.24615</ele>
        <time>2013-01-03T14:27:57Z</time>
      </trkpt>
      <trkpt lat="46.35729" lon="-0.47914">
        <ele>59.24615</ele>
        <time>2013-01-03T14:28:02Z</time>
      </trkpt>
      <trkpt lat="46.35733" lon="-0.47913">
        <ele>59.306717</ele>
        <time>2013-01-03T14:28:07Z</time>
      </trkpt>
      <trkpt lat="46.35739" lon="-0.47911">
        <ele>59.306717</ele>
        <time>2013-01-03T14:28:12Z</time>
      </trkpt>
      <trkpt lat="46.35744" lon="-0.4791">
        <ele>59.425594</ele>
        <time>2013-01-03T14:28:17Z</time>
      </trkpt>
      <trkpt lat="46.35749" lon="-0.47907">
        <ele>59.425594</ele>
        <time>2013-01-03T14:28:22Z</time>
      </trkpt>
      <trkpt lat="46.35754" lon="-0.47905">
        <ele>59.909763</ele>
        <time>2013-01-03T14:28:27Z</time>
      </trkpt>
      <trkpt lat="46.3576" lon="-0.47904">
        <ele>59.909763</ele>
        <time>2013-01-03T14:28:32Z</time>
      </trkpt>
      <trkpt lat="46.35763" lon="-0.47902">
        <ele>60.07815</ele>
        <time>2013-01-03T14:28:37Z</time>
      </trkpt>
      <trkpt lat="46.35769" lon="-0.47902">
        <ele>60.07815</ele>
        <time>2013-01-03T14:28:42Z</time>
      </trkpt>
      <trkpt lat="46.35775" lon="-0.479">
        <ele>59.99514</ele>
        <time>2013-01-03T14:28:47Z</time>
      </trkpt>
      <trkpt lat="46.35781" lon="-0.47899">
        <ele>59.99514</ele>
        <time>2013-01-03T14:28:52Z</time>
      </trkpt>
      <trkpt lat="46.35788" lon="-0.47897">
        <ele>59.812866</ele>
        <time>2013-01-03T14:28:57Z</time>
      </trkpt>
      <trkpt lat="46.35793" lon="-0.47896">
        <ele>59.812866</ele>
        <time>2013-01-03T14:29:02Z</time>
      </trkpt>
      <trkpt lat="46.358" lon="-0.47895">
        <ele>59.689312</ele>
        <time>2013-01-03T14:29:07Z</time>
      </trkpt>
      <trkpt lat="46.35804" lon="-0.47894">
        <ele>59.689312</ele>
        <time>2013-01-03T14:29:12Z</time>
      </trkpt>
      <trkpt lat="46.35809" lon="-0.47891">
        <ele>59.30423</ele>
        <time>2013-01-03T14:29:17Z</time>
      </trkpt>
      <trkpt lat="46.35814" lon="-0.47889">
        <ele>59.30423</ele>
        <time>2013-01-03T14:29:22Z</time>
      </trkpt>
      <trkpt lat="46.35819" lon="-0.47887">
        <ele>58.70838</ele>
        <time>2013-01-03T14:29:27Z</time>
      </trkpt>
      <trkpt lat="46.35825" lon="-0.47885">
        <ele>58.70838</ele>
        <time>2013-01-03T14:29:32Z</time>
      </trkpt>
      <trkpt lat="46.3583" lon="-0.47884">
        <ele>58.387836</ele>
        <time>2013-01-03T14:29:37Z</time>
      </trkpt>
      <trkpt lat="46.35837" lon="-0.47883">
        <ele>58.387836</ele>
        <time>2013-01-03T14:29:42Z</time>
      </trkpt>
      <trkpt lat="46.35843" lon="-0.47882">
        <ele>58.111412</ele>
        <time>2013-01-03T14:29:47Z</time>
      </trkpt>
      <trkpt lat="46.35849" lon="-0.4788">
        <ele>58.111412</ele>
        <time>2013-01-03T14:29:52Z</time>
      </trkpt>
      <trkpt lat="46.35853" lon="-0.47879">
        <ele>57.62005</ele>
        <time>2013-01-03T14:29:57Z</time>
      </trkpt>
      <trkpt lat="46.35858" lon="-0.47877">
        <ele>57.62005</ele>
        <time>2013-01-03T14:30:02Z</time>
      </trkpt>
      <trkpt lat="46.35862" lon="-0.47874">
        <ele>57.007614</ele>
        <time>2013-01-03T14:30:07Z</time>
      </trkpt>
      <trkpt lat="46.35868" lon="-0.47874">
        <ele>57.007614</ele>
        <time>2013-01-03T14:30:12Z</time>
      </trkpt>
      <trkpt lat="46.35874" lon="-0.47873">
        <ele>56.556637</ele>
        <time>2013-01-03T14:30:17Z</time>
      </trkpt>
      <trkpt lat="46.35879" lon="-0.47871">
        <ele>56.556637</ele>
        <time>2013-01-03T14:30:22Z</time>
      </trkpt>
      <trkpt lat="46.35884" lon="-0.47869">
        <ele>56.03003</ele>
        <time>2013-01-03T14:30:27Z</time>
      </trkpt>
      <trkpt lat="46.3589" lon="-0.47868">
        <ele>56.03003</ele>
        <time>2013-01-03T14:30:32Z</time>
      </trkpt>
      <trkpt lat="46.35895" lon="-0.47867">
        <ele>55.510357</ele>
        <time>2013-01-03T14:30:37Z</time>
      </trkpt>
      <trkpt lat="46.35901" lon="-0.47866">
        <ele>55.510357</ele>
        <time>2013-01-03T14:30:42Z</time>
      </trkpt>
      <trkpt lat="46.35907" lon="-0.47864">
        <ele>54.908623</ele>
        <time>2013-01-03T14:30:47Z</time>
      </trkpt>
      <trkpt lat="46.35914" lon="-0.47863">
        <ele>54.908623</ele>
        <time>2013-01-03T14:30:52Z</time>
      </trkpt>
      <trkpt lat="46.35918" lon="-0.4786">
        <ele>54.218143</ele>
        <time>2013-01-03T14:30:57Z</time>
      </trkpt>
      <trkpt lat="46.35921" lon="-0.47854">
        <ele>54.218143</ele>
        <time>2013-01-03T14:31:02Z</time>
      </trkpt>
      <trkpt lat="46.35923" lon="-0.47851">
        <ele>54.218143</ele>
        <time>2013-01-03T14:31:07Z</time>
      </trkpt>
      <trkpt lat="46.35926" lon="-0.47845">
        <ele>52.852154</ele>
        <time>2013-01-03T14:31:12Z</time>
      </trkpt>
      <trkpt lat="46.3593" lon="-0.47839">
        <ele>52.852154</ele>
        <time>2013-01-03T14:31:17Z</time>
      </trkpt>
      <trkpt lat="46.35933" lon="-0.47832">
        <ele>51.508415</ele>
        <time>2013-01-03T14:31:22Z</time>
      </trkpt>
      <trkpt lat="46.35937" lon="-0.47826">
        <ele>51.508415</ele>
        <time>2013-01-03T14:31:27Z</time>
      </trkpt>
      <trkpt lat="46.35941" lon="-0.47821">
        <ele>50.307053</ele>
        <time>2013-01-03T14:31:32Z</time>
      </trkpt>
      <trkpt lat="46.35944" lon="-0.47816">
        <ele>50.307053</ele>
        <time>2013-01-03T14:31:37Z</time>
      </trkpt>
      <trkpt lat="46.35948" lon="-0.47812">
        <ele>48.618454</ele>
        <time>2013-01-03T14:31:42Z</time>
      </trkpt>
      <trkpt lat="46.35952" lon="-0.47811">
        <ele>48.618454</ele>
        <time>2013-01-03T14:31:47Z</time>
      </trkpt>
      <trkpt lat="46.35959" lon="-0.47811">
        <ele>47.444885</ele>
        <time>2013-01-03T14:31:52Z</time>
      </trkpt>
      <trkpt lat="46.35964" lon="-0.47811">
        <ele>47.444885</ele>
        <time>2013-01-03T14:31:57Z</time>
      </trkpt>
      <trkpt lat="46.35968" lon="-0.47811">
        <ele>46.14404</ele>
        <time>2013-01-03T14:32:02Z</time>
      </trkpt>
      <trkpt lat="46.35975" lon="-0.47809">
        <ele>46.14404</ele>
        <time>2013-01-03T14:32:07Z</time>
      </trkpt>
      <trkpt lat="46.35978" lon="-0.47808">
        <ele>44.655674</ele>
        <time>2013-01-03T14:32:12Z</time>
      </trkpt>
      <trkpt lat="46.35984" lon="-0.47807">
        <ele>44.655674</ele>
        <time>2013-01-03T14:32:17Z</time>
      </trkpt>
      <trkpt lat="46.35991" lon="-0.47807">
        <ele>43.642586</ele>
        <time>2013-01-03T14:32:22Z</time>
      </trkpt>
      <trkpt lat="46.35997" lon="-0.47804">
        <ele>43.642586</ele>
        <time>2013-01-03T14:32:27Z</time>
      </trkpt>
      <trkpt lat="46.36001" lon="-0.47803">
        <ele>43.215046</ele>
        <time>2013-01-03T14:32:32Z</time>
      </trkpt>
      <trkpt lat="46.36006" lon="-0.47803">
        <ele>43.215046</ele>
        <time>2013-01-03T14:32:37Z</time>
      </trkpt>
      <trkpt lat="46.36013" lon="-0.47802">
        <ele>43.006126</ele>
        <time>2013-01-03T14:32:42Z</time>
      </trkpt>
      <trkpt lat="46.36018" lon="-0.47801">
        <ele>43.006126</ele>
        <time>2013-01-03T14:32:47Z</time>
      </trkpt>
      <trkpt lat="46.36022" lon="-0.478">
        <ele>43.013065</ele>
        <time>2013-01-03T14:32:52Z</time>
      </trkpt>
      <trkpt lat="46.36027" lon="-0.47799">
        <ele>43.013065</ele>
        <time>2013-01-03T14:32:57Z</time>
      </trkpt>
      <trkpt lat="46.36031" lon="-0.47796">
        <ele>43.013065</ele>
        <time>2013-01-03T14:33:02Z</time>
      </trkpt>
      <trkpt lat="46.36034" lon="-0.47794">
        <ele>42.59296</ele>
        <time>2013-01-03T14:33:07Z</time>
      </trkpt>
      <trkpt lat="46.36041" lon="-0.47791">
        <ele>42.59296</ele>
        <time>2013-01-03T14:33:12Z</time>
      </trkpt>
      <trkpt lat="46.36042" lon="-0.47788">
        <ele>42.011734</ele>
        <time>2013-01-03T14:33:17Z</time>
      </trkpt>
      <trkpt lat="46.36042" lon="-0.47789">
        <ele>42.011734</ele>
        <time>2013-01-03T14:33:22Z</time>
      </trkpt>
      <trkpt lat="46.36043" lon="-0.47789">
        <ele>42.011734</ele>
        <time>2013-01-03T14:33:27Z</time>
      </trkpt>
      <trkpt lat="46.36045" lon="-0.47785">
        <ele>42.011734</ele>
        <time>2013-01-03T14:33:32Z</time>
      </trkpt>
      <trkpt lat="46.36048" lon="-0.47786">
        <ele>42.011734</ele>
        <time>2013-01-03T14:33:37Z</time>
      </trkpt>
      <trkpt lat="46.36046" lon="-0.4778">
        <ele>40.687878</ele>
        <time>2013-01-03T14:33:42Z</time>
      </trkpt>
      <trkpt lat="46.36044" lon="-0.47771">
        <ele>40.687878</ele>
        <time>2013-01-03T14:33:47Z</time>
      </trkpt>
      <trkpt lat="46.36043" lon="-0.47765">
        <ele>39.376385</ele>
        <time>2013-01-03T14:33:52Z</time>
      </trkpt>
      <trkpt lat="46.36042" lon="-0.47762">
        <ele>39.376385</ele>
        <time>2013-01-03T14:33:57Z</time>
      </trkpt>
      <trkpt lat="46.3604" lon="-0.47752">
        <ele>37.905045</ele>
        <time>2013-01-03T14:34:02Z</time>
      </trkpt>
      <trkpt lat="46.3604" lon="-0.47744">
        <ele>37.905045</ele>
        <time>2013-01-03T14:34:07Z</time>
      </trkpt>
      <trkpt lat="46.36041" lon="-0.4774">
        <ele>37.905045</ele>
        <time>2013-01-03T14:34:12Z</time>
      </trkpt>
      <trkpt lat="46.36039" lon="-0.47726">
        <ele>37.286648</ele>
        <time>2013-01-03T14:34:17Z</time>
      </trkpt>
      <trkpt lat="46.36041" lon="-0.47716">
        <ele>37.286648</ele>
        <time>2013-01-03T14:34:22Z</time>
      </trkpt>
      <trkpt lat="46.36046" lon="-0.47707">
        <ele>36.792473</ele>
        <time>2013-01-03T14:34:27Z</time>
      </trkpt>
      <trkpt lat="46.36051" lon="-0.47703">
        <ele>36.792473</ele>
        <time>2013-01-03T14:34:32Z</time>
      </trkpt>
      <trkpt lat="46.36057" lon="-0.47699">
        <ele>36.716675</ele>
        <time>2013-01-03T14:34:37Z</time>
      </trkpt>
      <trkpt lat="46.36062" lon="-0.47692">
        <ele>36.716675</ele>
        <time>2013-01-03T14:34:42Z</time>
      </trkpt>
      <trkpt lat="46.36067" lon="-0.47688">
        <ele>36.637165</ele>
        <time>2013-01-03T14:34:47Z</time>
      </trkpt>
      <trkpt lat="46.36067" lon="-0.47681">
        <ele>36.637165</ele>
        <time>2013-01-03T14:34:52Z</time>
      </trkpt>
      <trkpt lat="46.36072" lon="-0.47673">
        <ele>36.452217</ele>
        <time>2013-01-03T14:34:57Z</time>
      </trkpt>
      <trkpt lat="46.36074" lon="-0.47665">
        <ele>36.452217</ele>
        <time>2013-01-03T14:35:02Z</time>
      </trkpt>
      <trkpt lat="46.36077" lon="-0.47659">
        <ele>36.125614</ele>
        <time>2013-01-03T14:35:07Z</time>
      </trkpt>
      <trkpt lat="46.36078" lon="-0.47652">
        <ele>36.125614</ele>
        <time>2013-01-03T14:35:12Z</time>
      </trkpt>
      <trkpt lat="46.3608" lon="-0.47644">
        <ele>36.157776</ele>
        <time>2013-01-03T14:35:17Z</time>
      </trkpt>
      <trkpt lat="46.3608" lon="-0.47637">
        <ele>36.157776</ele>
        <time>2013-01-03T14:35:22Z</time>
      </trkpt>
      <trkpt lat="46.36088" lon="-0.47629">
        <ele>36.203438</ele>
        <time>2013-01-03T14:35:27Z</time>
      </trkpt>
      <trkpt lat="46.3609" lon="-0.47621">
        <ele>36.203438</ele>
        <time>2013-01-03T14:35:32Z</time>
      </trkpt>
      <trkpt lat="46.36093" lon="-0.47616">
        <ele>35.495857</ele>
        <time>2013-01-03T14:35:37Z</time>
      </trkpt>
      <trkpt lat="46.36096" lon="-0.47609">
        <ele>35.495857</ele>
        <time>2013-01-03T14:35:42Z</time>
      </trkpt>
      <trkpt lat="46.36097" lon="-0.47602">
        <ele>34.884026</ele>
        <time>2013-01-03T14:35:47Z</time>
      </trkpt>
      <trkpt lat="46.36102" lon="-0.47594">
        <ele>34.884026</ele>
        <time>2013-01-03T14:35:52Z</time>
      </trkpt>
      <trkpt lat="46.36104" lon="-0.47583">
        <ele>34.678272</ele>
        <time>2013-01-03T14:35:57Z</time>
      </trkpt>
      <trkpt lat="46.36106" lon="-0.47576">
        <ele>34.678272</ele>
        <time>2013-01-03T14:36:02Z</time>
      </trkpt>
      <trkpt lat="46.36109" lon="-0.47573">
        <ele>34.678272</ele>
        <time>2013-01-03T14:36:07Z</time>
      </trkpt>
      <trkpt lat="46.36112" lon="-0.4756">
        <ele>35.222656</ele>
        <time>2013-01-03T14:36:12Z</time>
      </trkpt>
      <trkpt lat="46.36112" lon="-0.47552">
        <ele>35.222656</ele>
        <time>2013-01-03T14:36:17Z</time>
      </trkpt>
      <trkpt lat="46.36114" lon="-0.47546">
        <ele>35.593937</ele>
        <time>2013-01-03T14:36:22Z</time>
      </trkpt>
      <trkpt lat="46.36115" lon="-0.47538">
        <ele>35.593937</ele>
        <time>2013-01-03T14:36:27Z</time>
      </trkpt>
      <trkpt lat="46.36115" lon="-0.47532">
        <ele>36.26365</ele>
        <time>2013-01-03T14:36:32Z</time>
      </trkpt>
      <trkpt lat="46.36121" lon="-0.47524">
        <ele>36.26365</ele>
        <time>2013-01-03T14:36:37Z</time>
      </trkpt>
      <trkpt lat="46.36124" lon="-0.47515">
        <ele>37.091118</ele>
        <time>2013-01-03T14:36:42Z</time>
      </trkpt>
      <trkpt lat="46.36124" lon="-0.47505">
        <ele>37.091118</ele>
        <time>2013-01-03T14:36:47Z</time>
      </trkpt>
      <trkpt lat="46.36124" lon="-0.47498">
        <ele>37.5562</ele>
        <time>2013-01-03T14:36:52Z</time>
      </trkpt>
      <trkpt lat="46.36124" lon="-0.4749">
        <ele>37.5562</ele>
        <time>2013-01-03T14:36:57Z</time>
      </trkpt>
      <trkpt lat="46.36124" lon="-0.47485">
        <ele>37.697083</ele>
        <time>2013-01-03T14:37:02Z</time>
      </trkpt>
      <trkpt lat="46.36124" lon="-0.47478">
        <ele>37.697083</ele>
        <time>2013-01-03T14:37:07Z</time>
      </trkpt>
      <trkpt lat="46.36127" lon="-0.47474">
        <ele>37.697083</ele>
        <time>2013-01-03T14:37:12Z</time>
      </trkpt>
      <trkpt lat="46.36131" lon="-0.47469">
        <ele>37.045338</ele>
        <time>2013-01-03T14:37:17Z</time>
      </trkpt>
      <trkpt lat="46.36135" lon="-0.47467">
        <ele>37.045338</ele>
        <time>2013-01-03T14:37:22Z</time>
      </trkpt>
      <trkpt lat="46.36137" lon="-0.47465">
        <ele>37.045338</ele>
        <time>2013-01-03T14:37:27Z</time>
      </trkpt>
      <trkpt lat="46.36141" lon="-0.47463">
        <ele>36.568134</ele>
        <time>2013-01-03T14:37:32Z</time>
      </trkpt>
      <trkpt lat="46.36143" lon="-0.47461">
        <ele>36.568134</ele>
        <time>2013-01-03T14:37:37Z</time>
      </trkpt>
      <trkpt lat="46.36144" lon="-0.47459">
        <ele>36.568134</ele>
        <time>2013-01-03T14:37:42Z</time>
      </trkpt>
      <trkpt lat="46.36146" lon="-0.47456">
        <ele>36.568134</ele>
        <time>2013-01-03T14:37:47Z</time>
      </trkpt>
      <trkpt lat="46.36148" lon="-0.47455">
        <ele>36.396835</ele>
        <time>2013-01-03T14:37:52Z</time>
      </trkpt>
      <trkpt lat="46.36153" lon="-0.47451">
        <ele>36.396835</ele>
        <time>2013-01-03T14:37:57Z</time>
      </trkpt>
      <trkpt lat="46.36155" lon="-0.47449">
        <ele>36.396835</ele>
        <time>2013-01-03T14:38:02Z</time>
      </trkpt>
      <trkpt lat="46.36156" lon="-0.47449">
        <ele>36.396835</ele>
        <time>2013-01-03T14:38:07Z</time>
      </trkpt>
      <trkpt lat="46.36159" lon="-0.4745">
        <ele>36.782124</ele>
        <time>2013-01-03T14:38:12Z</time>
      </trkpt>
      <trkpt lat="46.36163" lon="-0.4745">
        <ele>36.782124</ele>
        <time>2013-01-03T14:38:17Z</time>
      </trkpt>
      <trkpt lat="46.3617" lon="-0.47449">
        <ele>37.320076</ele>
        <time>2013-01-03T14:38:22Z</time>
      </trkpt>
      <trkpt lat="46.36171" lon="-0.47448">
        <ele>37.320076</ele>
        <time>2013-01-03T14:38:27Z</time>
      </trkpt>
      <trkpt lat="46.36173" lon="-0.47449">
        <ele>37.320076</ele>
        <time>2013-01-03T14:38:32Z</time>
      </trkpt>
      <trkpt lat="46.36174" lon="-0.47449">
        <ele>37.320076</ele>
        <time>2013-01-03T14:38:37Z</time>
      </trkpt>
      <trkpt lat="46.36184" lon="-0.47449">
        <ele>37.578335</ele>
        <time>2013-01-03T14:38:42Z</time>
      </trkpt>
      <trkpt lat="46.3619" lon="-0.47451">
        <ele>37.578335</ele>
        <time>2013-01-03T14:38:47Z</time>
      </trkpt>
      <trkpt lat="46.36192" lon="-0.47451">
        <ele>37.578335</ele>
        <time>2013-01-03T14:38:52Z</time>
      </trkpt>
      <trkpt lat="46.36192" lon="-0.47451">
        <ele>37.578335</ele>
        <time>2013-01-03T14:38:57Z</time>
      </trkpt>
      <trkpt lat="46.362" lon="-0.47453">
        <ele>38.52747</ele>
        <time>2013-01-03T14:39:02Z</time>
      </trkpt>
      <trkpt lat="46.3621" lon="-0.47459">
        <ele>39.76659</ele>
        <time>2013-01-03T14:39:07Z</time>
      </trkpt>
      <trkpt lat="46.36216" lon="-0.4746">
        <ele>39.76659</ele>
        <time>2013-01-03T14:39:12Z</time>
      </trkpt>
      <trkpt lat="46.36221" lon="-0.4746">
        <ele>42.005337</ele>
        <time>2013-01-03T14:39:17Z</time>
      </trkpt>
      <trkpt lat="46.36231" lon="-0.47464">
        <ele>44.268482</ele>
        <time>2013-01-03T14:39:22Z</time>
      </trkpt>
      <trkpt lat="46.36235" lon="-0.47462">
        <ele>44.268482</ele>
        <time>2013-01-03T14:39:27Z</time>
      </trkpt>
      <trkpt lat="46.3624" lon="-0.47457">
        <ele>46.07086</ele>
        <time>2013-01-03T14:39:32Z</time>
      </trkpt>
      <trkpt lat="46.36246" lon="-0.47457">
        <ele>46.07086</ele>
        <time>2013-01-03T14:39:37Z</time>
      </trkpt>
      <trkpt lat="46.3625" lon="-0.47454">
        <ele>49.070175</ele>
        <time>2013-01-03T14:39:42Z</time>
      </trkpt>
      <trkpt lat="46.36258" lon="-0.4745">
        <ele>49.070175</ele>
        <time>2013-01-03T14:39:47Z</time>
      </trkpt>
      <trkpt lat="46.36259" lon="-0.47447">
        <ele>51.04899</ele>
        <time>2013-01-03T14:39:52Z</time>
      </trkpt>
      <trkpt lat="46.36259" lon="-0.47446">
        <ele>51.04899</ele>
        <time>2013-01-03T14:39:57Z</time>
      </trkpt>
      <trkpt lat="46.36258" lon="-0.47446">
        <ele>51.04899</ele>
        <time>2013-01-03T14:40:02Z</time>
      </trkpt>
      <trkpt lat="46.3626" lon="-0.47446">
        <ele>51.04899</ele>
        <time>2013-01-03T14:40:07Z</time>
      </trkpt>
      <trkpt lat="46.36262" lon="-0.47443">
        <ele>51.04899</ele>
        <time>2013-01-03T14:40:12Z</time>
      </trkpt>
      <trkpt lat="46.36267" lon="-0.47441">
        <ele>52.177128</ele>
        <time>2013-01-03T14:40:17Z</time>
      </trkpt>
      <trkpt lat="46.3627" lon="-0.47439">
        <ele>52.177128</ele>
        <time>2013-01-03T14:40:22Z</time>
      </trkpt>
      <trkpt lat="46.36276" lon="-0.47438">
        <ele>52.917294</ele>
        <time>2013-01-03T14:40:27Z</time>
      </trkpt>
      <trkpt lat="46.36281" lon="-0.47438">
        <ele>52.917294</ele>
        <time>2013-01-03T14:40:32Z</time>
      </trkpt>
      <trkpt lat="46.36284" lon="-0.47436">
        <ele>52.917294</ele>
        <time>2013-01-03T14:40:37Z</time>
      </trkpt>
      <trkpt lat="46.36287" lon="-0.47432">
        <ele>53.23786</ele>
        <time>2013-01-03T14:40:42Z</time>
      </trkpt>
      <trkpt lat="46.36293" lon="-0.47428">
        <ele>53.23786</ele>
        <time>2013-01-03T14:40:47Z</time>
      </trkpt>
      <trkpt lat="46.36299" lon="-0.47428">
        <ele>53.428093</ele>
        <time>2013-01-03T14:40:52Z</time>
      </trkpt>
      <trkpt lat="46.36303" lon="-0.47426">
        <ele>53.428093</ele>
        <time>2013-01-03T14:40:57Z</time>
      </trkpt>
      <trkpt lat="46.36306" lon="-0.47426">
        <ele>53.428093</ele>
        <time>2013-01-03T14:41:02Z</time>
      </trkpt>
      <trkpt lat="46.3631" lon="-0.47423">
        <ele>53.309437</ele>
        <time>2013-01-03T14:41:07Z</time>
      </trkpt>
      <trkpt lat="46.36316" lon="-0.4742">
        <ele>53.309437</ele>
        <time>2013-01-03T14:41:12Z</time>
      </trkpt>
      <trkpt lat="46.36321" lon="-0.47419">
        <ele>53.02026</ele>
        <time>2013-01-03T14:41:17Z</time>
      </trkpt>
      <trkpt lat="46.36327" lon="-0.47417">
        <ele>53.02026</ele>
        <time>2013-01-03T14:41:22Z</time>
      </trkpt>
      <trkpt lat="46.36333" lon="-0.47415">
        <ele>52.92</ele>
        <time>2013-01-03T14:41:27Z</time>
      </trkpt>
      <trkpt lat="46.36338" lon="-0.47413">
        <ele>52.92</ele>
        <time>2013-01-03T14:41:32Z</time>
      </trkpt>
      <trkpt lat="46.36342" lon="-0.4741">
        <ele>52.9231</ele>
        <time>2013-01-03T14:41:37Z</time>
      </trkpt>
      <trkpt lat="46.36344" lon="-0.47409">
        <ele>52.9231</ele>
        <time>2013-01-03T14:41:42Z</time>
      </trkpt>
      <trkpt lat="46.36352" lon="-0.47406">
        <ele>53.007774</ele>
        <time>2013-01-03T14:41:47Z</time>
      </trkpt>
      <trkpt lat="46.36357" lon="-0.47404">
        <ele>53.007774</ele>
        <time>2013-01-03T14:41:52Z</time>
      </trkpt>
      <trkpt lat="46.36362" lon="-0.47402">
        <ele>53.312263</ele>
        <time>2013-01-03T14:41:57Z</time>
      </trkpt>
      <trkpt lat="46.36368" lon="-0.47399">
        <ele>53.312263</ele>
        <time>2013-01-03T14:42:02Z</time>
      </trkpt>
      <trkpt lat="46.3637" lon="-0.47397">
        <ele>53.47399</ele>
        <time>2013-01-03T14:42:07Z</time>
      </trkpt>
      <trkpt lat="46.36375" lon="-0.47395">
        <ele>53.47399</ele>
        <time>2013-01-03T14:42:12Z</time>
      </trkpt>
      <trkpt lat="46.36379" lon="-0.47392">
        <ele>53.47399</ele>
        <time>2013-01-03T14:42:17Z</time>
      </trkpt>
      <trkpt lat="46.36383" lon="-0.47389">
        <ele>53.215195</ele>
        <time>2013-01-03T14:42:22Z</time>
      </trkpt>
      <trkpt lat="46.36387" lon="-0.47385">
        <ele>53.215195</ele>
        <time>2013-01-03T14:42:27Z</time>
      </trkpt>
      <trkpt lat="46.36394" lon="-0.47383">
        <ele>52.88518</ele>
        <time>2013-01-03T14:42:32Z</time>
      </trkpt>
      <trkpt lat="46.36399" lon="-0.4738">
        <ele>52.88518</ele>
        <time>2013-01-03T14:42:37Z</time>
      </trkpt>
      <trkpt lat="46.364" lon="-0.47376">
        <ele>52.88518</ele>
        <time>2013-01-03T14:42:42Z</time>
      </trkpt>
      <trkpt lat="46.36406" lon="-0.47375">
        <ele>52.303326</ele>
        <time>2013-01-03T14:42:47Z</time>
      </trkpt>
      <trkpt lat="46.36411" lon="-0.47372">
        <ele>52.303326</ele>
        <time>2013-01-03T14:42:52Z</time>
      </trkpt>
      <trkpt lat="46.36417" lon="-0.47369">
        <ele>51.93722</ele>
        <time>2013-01-03T14:42:57Z</time>
      </trkpt>
      <trkpt lat="46.36421" lon="-0.47368">
        <ele>51.93722</ele>
        <time>2013-01-03T14:43:02Z</time>
      </trkpt>
      <trkpt lat="46.36424" lon="-0.47366">
        <ele>51.93722</ele>
        <time>2013-01-03T14:43:07Z</time>
      </trkpt>
      <trkpt lat="46.36428" lon="-0.47363">
        <ele>51.81595</ele>
        <time>2013-01-03T14:43:12Z</time>
      </trkpt>
      <trkpt lat="46.36432" lon="-0.47361">
        <ele>51.81595</ele>
        <time>2013-01-03T14:43:17Z</time>
      </trkpt>
      <trkpt lat="46.36437" lon="-0.47358">
        <ele>51.201942</ele>
        <time>2013-01-03T14:43:22Z</time>
      </trkpt>
      <trkpt lat="46.3644" lon="-0.47356">
        <ele>51.201942</ele>
        <time>2013-01-03T14:43:27Z</time>
      </trkpt>
      <trkpt lat="46.36445" lon="-0.47353">
        <ele>51.201942</ele>
        <time>2013-01-03T14:43:32Z</time>
      </trkpt>
      <trkpt lat="46.3645" lon="-0.4735">
        <ele>50.88331</ele>
        <time>2013-01-03T14:43:37Z</time>
      </trkpt>
      <trkpt lat="46.36455" lon="-0.47346">
        <ele>50.88331</ele>
        <time>2013-01-03T14:43:42Z</time>
      </trkpt>
      <trkpt lat="46.3646" lon="-0.47346">
        <ele>50.912033</ele>
        <time>2013-01-03T14:43:47Z</time>
      </trkpt>
      <trkpt lat="46.36465" lon="-0.47343">
        <ele>50.912033</ele>
        <time>2013-01-03T14:43:52Z</time>
      </trkpt>
      <trkpt lat="46.36471" lon="-0.47339">
        <ele>50.715626</ele>
        <time>2013-01-03T14:43:57Z</time>
      </trkpt>
      <trkpt lat="46.36476" lon="-0.47336">
        <ele>50.715626</ele>
        <time>2013-01-03T14:44:02Z</time>
      </trkpt>
      <trkpt lat="46.36481" lon="-0.47332">
        <ele>50.398426</ele>
        <time>2013-01-03T14:44:07Z</time>
      </trkpt>
      <trkpt lat="46.36486" lon="-0.47329">
        <ele>50.398426</ele>
        <time>2013-01-03T14:44:12Z</time>
      </trkpt>
      <trkpt lat="46.36491" lon="-0.47326">
        <ele>50.633884</ele>
        <time>2013-01-03T14:44:17Z</time>
      </trkpt>
      <trkpt lat="46.36495" lon="-0.47322">
        <ele>50.633884</ele>
        <time>2013-01-03T14:44:22Z</time>
      </trkpt>
      <trkpt lat="46.36498" lon="-0.4732">
        <ele>50.633884</ele>
        <time>2013-01-03T14:44:27Z</time>
      </trkpt>
      <trkpt lat="46.36502" lon="-0.47317">
        <ele>50.50242</ele>
        <time>2013-01-03T14:44:32Z</time>
      </trkpt>
      <trkpt lat="46.36507" lon="-0.47315">
        <ele>50.50242</ele>
        <time>2013-01-03T14:44:37Z</time>
      </trkpt>
      <trkpt lat="46.36512" lon="-0.47312">
        <ele>50.392395</ele>
        <time>2013-01-03T14:44:42Z</time>
      </trkpt>
      <trkpt lat="46.36517" lon="-0.47309">
        <ele>50.392395</ele>
        <time>2013-01-03T14:44:47Z</time>
      </trkpt>
      <trkpt lat="46.36523" lon="-0.47309">
        <ele>50.879765</ele>
        <time>2013-01-03T14:44:52Z</time>
      </trkpt>
      <trkpt lat="46.3653" lon="-0.47308">
        <ele>50.879765</ele>
        <time>2013-01-03T14:44:57Z</time>
      </trkpt>
      <trkpt lat="46.3653" lon="-0.47307">
        <ele>50.879765</ele>
        <time>2013-01-03T14:45:02Z</time>
      </trkpt>
      <trkpt lat="46.3653" lon="-0.47307">
        <ele>50.879765</ele>
        <time>2013-01-03T14:45:07Z</time>
      </trkpt>
      <trkpt lat="46.3653" lon="-0.47306">
        <ele>50.879765</ele>
        <time>2013-01-03T14:45:17Z</time>
      </trkpt>
      <trkpt lat="46.3653" lon="-0.47305">
        <ele>50.983284</ele>
        <time>2013-01-03T14:45:22Z</time>
      </trkpt>
      <trkpt lat="46.36533" lon="-0.47302">
        <ele>50.983284</ele>
        <time>2013-01-03T14:45:37Z</time>
      </trkpt>
      <trkpt lat="46.36537" lon="-0.47298">
        <ele>50.983284</ele>
        <time>2013-01-03T14:45:42Z</time>
      </trkpt>
      <trkpt lat="46.36542" lon="-0.47294">
        <ele>50.35692</ele>
        <time>2013-01-03T14:45:47Z</time>
      </trkpt>
      <trkpt lat="46.36546" lon="-0.47291">
        <ele>50.35692</ele>
        <time>2013-01-03T14:45:52Z</time>
      </trkpt>
      <trkpt lat="46.36549" lon="-0.47288">
        <ele>50.35692</ele>
        <time>2013-01-03T14:45:57Z</time>
      </trkpt>
      <trkpt lat="46.36551" lon="-0.47286">
        <ele>48.81177</ele>
        <time>2013-01-03T14:46:02Z</time>
      </trkpt>
      <trkpt lat="46.36556" lon="-0.47282">
        <ele>48.81177</ele>
        <time>2013-01-03T14:46:07Z</time>
      </trkpt>
      <trkpt lat="46.36563" lon="-0.47279">
        <ele>47.501232</ele>
        <time>2013-01-03T14:46:12Z</time>
      </trkpt>
      <trkpt lat="46.36572" lon="-0.47276">
        <ele>47.501232</ele>
        <time>2013-01-03T14:46:17Z</time>
      </trkpt>
      <trkpt lat="46.36575" lon="-0.47271">
        <ele>47.032104</ele>
        <time>2013-01-03T14:46:22Z</time>
      </trkpt>
      <trkpt lat="46.36582" lon="-0.47269">
        <ele>47.032104</ele>
        <time>2013-01-03T14:46:27Z</time>
      </trkpt>
      <trkpt lat="46.36588" lon="-0.47266">
        <ele>46.796917</ele>
        <time>2013-01-03T14:46:32Z</time>
      </trkpt>
      <trkpt lat="46.36593" lon="-0.47263">
        <ele>46.796917</ele>
        <time>2013-01-03T14:46:37Z</time>
      </trkpt>
      <trkpt lat="46.36596" lon="-0.47259">
        <ele>46.40506</ele>
        <time>2013-01-03T14:46:42Z</time>
      </trkpt>
      <trkpt lat="46.36602" lon="-0.47256">
        <ele>46.40506</ele>
        <time>2013-01-03T14:46:47Z</time>
      </trkpt>
      <trkpt lat="46.36607" lon="-0.47254">
        <ele>46.157932</ele>
        <time>2013-01-03T14:46:52Z</time>
      </trkpt>
      <trkpt lat="46.36612" lon="-0.47252">
        <ele>46.157932</ele>
        <time>2013-01-03T14:46:57Z</time>
      </trkpt>
      <trkpt lat="46.36616" lon="-0.47248">
        <ele>45.88759</ele>
        <time>2013-01-03T14:47:02Z</time>
      </trkpt>
      <trkpt lat="46.36622" lon="-0.47245">
        <ele>45.88759</ele>
        <time>2013-01-03T14:47:07Z</time>
      </trkpt>
      <trkpt lat="46.36627" lon="-0.47242">
        <ele>45.43844</ele>
        <time>2013-01-03T14:47:12Z</time>
      </trkpt>
      <trkpt lat="46.3663" lon="-0.47239">
        <ele>45.43844</ele>
        <time>2013-01-03T14:47:17Z</time>
      </trkpt>
      <trkpt lat="46.36634" lon="-0.47236">
        <ele>45.43844</ele>
        <time>2013-01-03T14:47:22Z</time>
      </trkpt>
      <trkpt lat="46.36639" lon="-0.47234">
        <ele>44.594723</ele>
        <time>2013-01-03T14:47:27Z</time>
      </trkpt>
      <trkpt lat="46.36645" lon="-0.47233">
        <ele>44.594723</ele>
        <time>2013-01-03T14:47:32Z</time>
      </trkpt>
      <trkpt lat="46.3665" lon="-0.47231">
        <ele>43.906986</ele>
        <time>2013-01-03T14:47:37Z</time>
      </trkpt>
      <trkpt lat="46.36656" lon="-0.4723">
        <ele>43.906986</ele>
        <time>2013-01-03T14:47:42Z</time>
      </trkpt>
      <trkpt lat="46.36662" lon="-0.47226">
        <ele>44.187477</ele>
        <time>2013-01-03T14:47:47Z</time>
      </trkpt>
      <trkpt lat="46.36665" lon="-0.47222">
        <ele>44.187477</ele>
        <time>2013-01-03T14:47:52Z</time>
      </trkpt>
      <trkpt lat="46.3667" lon="-0.47218">
        <ele>44.283703</ele>
        <time>2013-01-03T14:47:57Z</time>
      </trkpt>
      <trkpt lat="46.36673" lon="-0.47214">
        <ele>44.283703</ele>
        <time>2013-01-03T14:48:02Z</time>
      </trkpt>
      <trkpt lat="46.36676" lon="-0.47212">
        <ele>44.283703</ele>
        <time>2013-01-03T14:48:07Z</time>
      </trkpt>
      <trkpt lat="46.36679" lon="-0.4721">
        <ele>44.151512</ele>
        <time>2013-01-03T14:48:12Z</time>
      </trkpt>
      <trkpt lat="46.36686" lon="-0.47208">
        <ele>44.151512</ele>
        <time>2013-01-03T14:48:17Z</time>
      </trkpt>
      <trkpt lat="46.36691" lon="-0.47206">
        <ele>43.995583</ele>
        <time>2013-01-03T14:48:22Z</time>
      </trkpt>
      <trkpt lat="46.36696" lon="-0.47204">
        <ele>43.995583</ele>
        <time>2013-01-03T14:48:27Z</time>
      </trkpt>
      <trkpt lat="46.36703" lon="-0.47199">
        <ele>43.659714</ele>
        <time>2013-01-03T14:48:32Z</time>
      </trkpt>
      <trkpt lat="46.36707" lon="-0.47198">
        <ele>43.659714</ele>
        <time>2013-01-03T14:48:37Z</time>
      </trkpt>
      <trkpt lat="46.36714" lon="-0.47196">
        <ele>43.821087</ele>
        <time>2013-01-03T14:48:42Z</time>
      </trkpt>
      <trkpt lat="46.36718" lon="-0.47193">
        <ele>43.821087</ele>
        <time>2013-01-03T14:48:47Z</time>
      </trkpt>
      <trkpt lat="46.36723" lon="-0.4719">
        <ele>43.751022</ele>
        <time>2013-01-03T14:48:52Z</time>
      </trkpt>
      <trkpt lat="46.36729" lon="-0.47188">
        <ele>43.751022</ele>
        <time>2013-01-03T14:48:57Z</time>
      </trkpt>
      <trkpt lat="46.36734" lon="-0.47186">
        <ele>43.394684</ele>
        <time>2013-01-03T14:49:02Z</time>
      </trkpt>
      <trkpt lat="46.36739" lon="-0.47183">
        <ele>43.394684</ele>
        <time>2013-01-03T14:49:07Z</time>
      </trkpt>
      <trkpt lat="46.36744" lon="-0.4718">
        <ele>43.3073</ele>
        <time>2013-01-03T14:49:12Z</time>
      </trkpt>
      <trkpt lat="46.36749" lon="-0.47176">
        <ele>43.3073</ele>
        <time>2013-01-03T14:49:17Z</time>
      </trkpt>
      <trkpt lat="46.36755" lon="-0.47175">
        <ele>42.993732</ele>
        <time>2013-01-03T14:49:22Z</time>
      </trkpt>
      <trkpt lat="46.36759" lon="-0.47174">
        <ele>42.993732</ele>
        <time>2013-01-03T14:49:27Z</time>
      </trkpt>
      <trkpt lat="46.36763" lon="-0.4717">
        <ele>42.993732</ele>
        <time>2013-01-03T14:49:32Z</time>
      </trkpt>
      <trkpt lat="46.36769" lon="-0.47168">
        <ele>42.71638</ele>
        <time>2013-01-03T14:49:37Z</time>
      </trkpt>
      <trkpt lat="46.36774" lon="-0.47165">
        <ele>42.71638</ele>
        <time>2013-01-03T14:49:42Z</time>
      </trkpt>
      <trkpt lat="46.36779" lon="-0.47163">
        <ele>42.185013</ele>
        <time>2013-01-03T14:49:47Z</time>
      </trkpt>
      <trkpt lat="46.36781" lon="-0.47159">
        <ele>42.185013</ele>
        <time>2013-01-03T14:49:52Z</time>
      </trkpt>
      <trkpt lat="46.36787" lon="-0.47156">
        <ele>41.606968</ele>
        <time>2013-01-03T14:49:57Z</time>
      </trkpt>
      <trkpt lat="46.36792" lon="-0.47153">
        <ele>41.606968</ele>
        <time>2013-01-03T14:50:02Z</time>
      </trkpt>
      <trkpt lat="46.36796" lon="-0.4715">
        <ele>40.972702</ele>
        <time>2013-01-03T14:50:07Z</time>
      </trkpt>
      <trkpt lat="46.368" lon="-0.47148">
        <ele>40.972702</ele>
        <time>2013-01-03T14:50:12Z</time>
      </trkpt>
      <trkpt lat="46.36807" lon="-0.47145">
        <ele>40.27348</ele>
        <time>2013-01-03T14:50:17Z</time>
      </trkpt>
      <trkpt lat="46.36812" lon="-0.4714">
        <ele>40.27348</ele>
        <time>2013-01-03T14:50:22Z</time>
      </trkpt>
      <trkpt lat="46.36816" lon="-0.47137">
        <ele>39.645473</ele>
        <time>2013-01-03T14:50:27Z</time>
      </trkpt>
      <trkpt lat="46.36821" lon="-0.47133">
        <ele>39.645473</ele>
        <time>2013-01-03T14:50:32Z</time>
      </trkpt>
      <trkpt lat="46.36825" lon="-0.47129">
        <ele>38.883156</ele>
        <time>2013-01-03T14:50:37Z</time>
      </trkpt>
      <trkpt lat="46.3683" lon="-0.47126">
        <ele>38.883156</ele>
        <time>2013-01-03T14:50:42Z</time>
      </trkpt>
      <trkpt lat="46.36835" lon="-0.47123">
        <ele>38.199936</ele>
        <time>2013-01-03T14:50:47Z</time>
      </trkpt>
      <trkpt lat="46.36839" lon="-0.47117">
        <ele>38.199936</ele>
        <time>2013-01-03T14:50:52Z</time>
      </trkpt>
      <trkpt lat="46.36843" lon="-0.47112">
        <ele>37.620354</ele>
        <time>2013-01-03T14:50:57Z</time>
      </trkpt>
      <trkpt lat="46.36847" lon="-0.47106">
        <ele>37.620354</ele>
        <time>2013-01-03T14:51:02Z</time>
      </trkpt>
      <trkpt lat="46.36851" lon="-0.47103">
        <ele>36.849766</ele>
        <time>2013-01-03T14:51:07Z</time>
      </trkpt>
      <trkpt lat="46.36857" lon="-0.471">
        <ele>36.849766</ele>
        <time>2013-01-03T14:51:12Z</time>
      </trkpt>
      <trkpt lat="46.36862" lon="-0.47097">
        <ele>36.134464</ele>
        <time>2013-01-03T14:51:17Z</time>
      </trkpt>
      <trkpt lat="46.36868" lon="-0.47095">
        <ele>36.134464</ele>
        <time>2013-01-03T14:51:22Z</time>
      </trkpt>
      <trkpt lat="46.36872" lon="-0.47092">
        <ele>35.6448</ele>
        <time>2013-01-03T14:51:27Z</time>
      </trkpt>
      <trkpt lat="46.36876" lon="-0.47087">
        <ele>35.6448</ele>
        <time>2013-01-03T14:51:32Z</time>
      </trkpt>
      <trkpt lat="46.36878" lon="-0.47081">
        <ele>34.78855</ele>
        <time>2013-01-03T14:51:37Z</time>
      </trkpt>
      <trkpt lat="46.36883" lon="-0.47074">
        <ele>34.78855</ele>
        <time>2013-01-03T14:51:42Z</time>
      </trkpt>
      <trkpt lat="46.36886" lon="-0.47071">
        <ele>33.983532</ele>
        <time>2013-01-03T14:51:47Z</time>
      </trkpt>
      <trkpt lat="46.36892" lon="-0.47066">
        <ele>33.983532</ele>
        <time>2013-01-03T14:51:52Z</time>
      </trkpt>
      <trkpt lat="46.36896" lon="-0.4706">
        <ele>33.55902</ele>
        <time>2013-01-03T14:51:57Z</time>
      </trkpt>
      <trkpt lat="46.369" lon="-0.47056">
        <ele>33.55902</ele>
        <time>2013-01-03T14:52:02Z</time>
      </trkpt>
      <trkpt lat="46.36903" lon="-0.47053">
        <ele>33.55902</ele>
        <time>2013-01-03T14:52:07Z</time>
      </trkpt>
      <trkpt lat="46.3691" lon="-0.47049">
        <ele>33.271378</ele>
        <time>2013-01-03T14:52:12Z</time>
      </trkpt>
      <trkpt lat="46.36915" lon="-0.47045">
        <ele>33.271378</ele>
        <time>2013-01-03T14:52:17Z</time>
      </trkpt>
      <trkpt lat="46.36919" lon="-0.47041">
        <ele>33.09618</ele>
        <time>2013-01-03T14:52:22Z</time>
      </trkpt>
      <trkpt lat="46.36925" lon="-0.47037">
        <ele>33.09618</ele>
        <time>2013-01-03T14:52:27Z</time>
      </trkpt>
      <trkpt lat="46.36928" lon="-0.47034">
        <ele>32.93838</ele>
        <time>2013-01-03T14:52:32Z</time>
      </trkpt>
      <trkpt lat="46.36932" lon="-0.47029">
        <ele>32.93838</ele>
        <time>2013-01-03T14:52:37Z</time>
      </trkpt>
      <trkpt lat="46.36936" lon="-0.47022">
        <ele>32.7819</ele>
        <time>2013-01-03T14:52:42Z</time>
      </trkpt>
      <trkpt lat="46.36942" lon="-0.47016">
        <ele>32.7819</ele>
        <time>2013-01-03T14:52:47Z</time>
      </trkpt>
      <trkpt lat="46.36946" lon="-0.47011">
        <ele>32.683834</ele>
        <time>2013-01-03T14:52:52Z</time>
      </trkpt>
      <trkpt lat="46.3695" lon="-0.47006">
        <ele>32.683834</ele>
        <time>2013-01-03T14:52:57Z</time>
      </trkpt>
      <trkpt lat="46.36955" lon="-0.46999">
        <ele>32.754555</ele>
        <time>2013-01-03T14:53:02Z</time>
      </trkpt>
      <trkpt lat="46.3696" lon="-0.46995">
        <ele>32.754555</ele>
        <time>2013-01-03T14:53:07Z</time>
      </trkpt>
      <trkpt lat="46.36963" lon="-0.4699">
        <ele>32.908463</ele>
        <time>2013-01-03T14:53:12Z</time>
      </trkpt>
      <trkpt lat="46.36967" lon="-0.46985">
        <ele>32.908463</ele>
        <time>2013-01-03T14:53:17Z</time>
      </trkpt>
      <trkpt lat="46.36969" lon="-0.4698">
        <ele>33.152477</ele>
        <time>2013-01-03T14:53:22Z</time>
      </trkpt>
      <trkpt lat="46.36969" lon="-0.46981">
        <ele>33.152477</ele>
        <time>2013-01-03T14:53:27Z</time>
      </trkpt>
      <trkpt lat="46.36968" lon="-0.46978">
        <ele>33.152477</ele>
        <time>2013-01-03T14:53:32Z</time>
      </trkpt>
      <trkpt lat="46.36964" lon="-0.46976">
        <ele>33.152477</ele>
        <time>2013-01-03T14:53:37Z</time>
      </trkpt>
      <trkpt lat="46.36956" lon="-0.46975">
        <ele>33.0604</ele>
        <time>2013-01-03T14:53:42Z</time>
      </trkpt>
      <trkpt lat="46.3695" lon="-0.46974">
        <ele>33.0604</ele>
        <time>2013-01-03T14:53:47Z</time>
      </trkpt>
      <trkpt lat="46.36945" lon="-0.46971">
        <ele>32.98764</ele>
        <time>2013-01-03T14:53:52Z</time>
      </trkpt>
      <trkpt lat="46.3694" lon="-0.46965">
        <ele>32.98764</ele>
        <time>2013-01-03T14:53:57Z</time>
      </trkpt>
      <trkpt lat="46.36936" lon="-0.46962">
        <ele>33.1914</ele>
        <time>2013-01-03T14:54:02Z</time>
      </trkpt>
      <trkpt lat="46.36933" lon="-0.46956">
        <ele>33.1914</ele>
        <time>2013-01-03T14:54:07Z</time>
      </trkpt>
      <trkpt lat="46.36931" lon="-0.46954">
        <ele>33.1914</ele>
        <time>2013-01-03T14:54:12Z</time>
      </trkpt>
      <trkpt lat="46.36926" lon="-0.46946">
        <ele>33.361576</ele>
        <time>2013-01-03T14:54:17Z</time>
      </trkpt>
      <trkpt lat="46.36926" lon="-0.46945">
        <ele>33.361576</ele>
        <time>2013-01-03T14:54:22Z</time>
      </trkpt>
      <trkpt lat="46.36922" lon="-0.46936">
        <ele>33.361576</ele>
        <time>2013-01-03T14:54:27Z</time>
      </trkpt>
      <trkpt lat="46.36919" lon="-0.4693">
        <ele>33.38388</ele>
        <time>2013-01-03T14:54:32Z</time>
      </trkpt>
      <trkpt lat="46.36918" lon="-0.46926">
        <ele>33.38388</ele>
        <time>2013-01-03T14:54:37Z</time>
      </trkpt>
      <trkpt lat="46.3692" lon="-0.46921">
        <ele>33.38388</ele>
        <time>2013-01-03T14:54:42Z</time>
      </trkpt>
      <trkpt lat="46.3692" lon="-0.46912">
        <ele>33.397827</ele>
        <time>2013-01-03T14:54:47Z</time>
      </trkpt>
      <trkpt lat="46.36919" lon="-0.46902">
        <ele>33.397827</ele>
        <time>2013-01-03T14:54:52Z</time>
      </trkpt>
      <trkpt lat="46.36917" lon="-0.46893">
        <ele>33.67682</ele>
        <time>2013-01-03T14:54:57Z</time>
      </trkpt>
      <trkpt lat="46.36915" lon="-0.46884">
        <ele>33.67682</ele>
        <time>2013-01-03T14:55:02Z</time>
      </trkpt>
      <trkpt lat="46.36915" lon="-0.46876">
        <ele>34.329338</ele>
        <time>2013-01-03T14:55:07Z</time>
      </trkpt>
      <trkpt lat="46.36914" lon="-0.46865">
        <ele>34.329338</ele>
        <time>2013-01-03T14:55:12Z</time>
      </trkpt>
      <trkpt lat="46.36912" lon="-0.4686">
        <ele>34.691082</ele>
        <time>2013-01-03T14:55:17Z</time>
      </trkpt>
      <trkpt lat="46.36912" lon="-0.46857">
        <ele>34.691082</ele>
        <time>2013-01-03T14:55:22Z</time>
      </trkpt>
      <trkpt lat="46.36913" lon="-0.46849">
        <ele>34.691082</ele>
        <time>2013-01-03T14:55:27Z</time>
      </trkpt>
      <trkpt lat="46.36913" lon="-0.46839">
        <ele>35.170563</ele>
        <time>2013-01-03T14:55:32Z</time>
      </trkpt>
      <trkpt lat="46.36913" lon="-0.4683">
        <ele>35.170563</ele>
        <time>2013-01-03T14:55:37Z</time>
      </trkpt>
      <trkpt lat="46.36913" lon="-0.46823">
        <ele>35.72807</ele>
        <time>2013-01-03T14:55:42Z</time>
      </trkpt>
      <trkpt lat="46.36913" lon="-0.46817">
        <ele>35.72807</ele>
        <time>2013-01-03T14:55:47Z</time>
      </trkpt>
      <trkpt lat="46.36912" lon="-0.46808">
        <ele>36.081623</ele>
        <time>2013-01-03T14:55:52Z</time>
      </trkpt>
      <trkpt lat="46.36911" lon="-0.46804">
        <ele>36.081623</ele>
        <time>2013-01-03T14:55:57Z</time>
      </trkpt>
      <trkpt lat="46.36907" lon="-0.46795">
        <ele>35.840866</ele>
        <time>2013-01-03T14:56:02Z</time>
      </trkpt>
      <trkpt lat="46.36906" lon="-0.4679">
        <ele>35.840866</ele>
        <time>2013-01-03T14:56:07Z</time>
      </trkpt>
      <trkpt lat="46.36905" lon="-0.4678">
        <ele>35.87077</ele>
        <time>2013-01-03T14:56:12Z</time>
      </trkpt>
      <trkpt lat="46.36903" lon="-0.46772">
        <ele>35.87077</ele>
        <time>2013-01-03T14:56:17Z</time>
      </trkpt>
      <trkpt lat="46.36903" lon="-0.46769">
        <ele>35.87077</ele>
        <time>2013-01-03T14:56:22Z</time>
      </trkpt>
      <trkpt lat="46.369" lon="-0.46759">
        <ele>35.96326</ele>
        <time>2013-01-03T14:56:27Z</time>
      </trkpt>
      <trkpt lat="46.36898" lon="-0.4675">
        <ele>35.96326</ele>
        <time>2013-01-03T14:56:32Z</time>
      </trkpt>
      <trkpt lat="46.36897" lon="-0.46746">
        <ele>36.18482</ele>
        <time>2013-01-03T14:56:37Z</time>
      </trkpt>
      <trkpt lat="46.36896" lon="-0.4674">
        <ele>36.18482</ele>
        <time>2013-01-03T14:56:42Z</time>
      </trkpt>
      <trkpt lat="46.36893" lon="-0.46732">
        <ele>36.567883</ele>
        <time>2013-01-03T14:56:47Z</time>
      </trkpt>
      <trkpt lat="46.3689" lon="-0.46728">
        <ele>36.567883</ele>
        <time>2013-01-03T14:56:52Z</time>
      </trkpt>
      <trkpt lat="46.36889" lon="-0.46719">
        <ele>36.89711</ele>
        <time>2013-01-03T14:56:57Z</time>
      </trkpt>
      <trkpt lat="46.36886" lon="-0.46708">
        <ele>36.89711</ele>
        <time>2013-01-03T14:57:02Z</time>
      </trkpt>
      <trkpt lat="46.36884" lon="-0.46703">
        <ele>37.03082</ele>
        <time>2013-01-03T14:57:07Z</time>
      </trkpt>
      <trkpt lat="46.36882" lon="-0.467">
        <ele>37.03082</ele>
        <time>2013-01-03T14:57:12Z</time>
      </trkpt>
      <trkpt lat="46.36882" lon="-0.46695">
        <ele>37.03082</ele>
        <time>2013-01-03T14:57:17Z</time>
      </trkpt>
      <trkpt lat="46.36878" lon="-0.46686">
        <ele>37.558872</ele>
        <time>2013-01-03T14:57:22Z</time>
      </trkpt>
      <trkpt lat="46.36875" lon="-0.46675">
        <ele>37.558872</ele>
        <time>2013-01-03T14:57:27Z</time>
      </trkpt>
      <trkpt lat="46.36873" lon="-0.46668">
        <ele>38.16207</ele>
        <time>2013-01-03T14:57:32Z</time>
      </trkpt>
      <trkpt lat="46.3687" lon="-0.46662">
        <ele>38.16207</ele>
        <time>2013-01-03T14:57:37Z</time>
      </trkpt>
      <trkpt lat="46.36872" lon="-0.46658">
        <ele>38.16207</ele>
        <time>2013-01-03T14:57:42Z</time>
      </trkpt>
      <trkpt lat="46.36872" lon="-0.46652">
        <ele>38.63097</ele>
        <time>2013-01-03T14:57:47Z</time>
      </trkpt>
      <trkpt lat="46.36873" lon="-0.46648">
        <ele>38.63097</ele>
        <time>2013-01-03T14:57:52Z</time>
      </trkpt>
      <trkpt lat="46.3687" lon="-0.46639">
        <ele>38.61341</ele>
        <time>2013-01-03T14:57:57Z</time>
      </trkpt>
      <trkpt lat="46.3687" lon="-0.4663">
        <ele>38.61341</ele>
        <time>2013-01-03T14:58:02Z</time>
      </trkpt>
      <trkpt lat="46.3687" lon="-0.46625">
        <ele>38.476246</ele>
        <time>2013-01-03T14:58:07Z</time>
      </trkpt>
      <trkpt lat="46.3687" lon="-0.46618">
        <ele>38.476246</ele>
        <time>2013-01-03T14:58:12Z</time>
      </trkpt>
      <trkpt lat="46.36869" lon="-0.4661">
        <ele>38.45888</ele>
        <time>2013-01-03T14:58:17Z</time>
      </trkpt>
      <trkpt lat="46.3687" lon="-0.46602">
        <ele>38.45888</ele>
        <time>2013-01-03T14:58:22Z</time>
      </trkpt>
      <trkpt lat="46.3687" lon="-0.46593">
        <ele>38.278458</ele>
        <time>2013-01-03T14:58:27Z</time>
      </trkpt>
      <trkpt lat="46.36871" lon="-0.46586">
        <ele>38.278458</ele>
        <time>2013-01-03T14:58:32Z</time>
      </trkpt>
      <trkpt lat="46.36868" lon="-0.46577">
        <ele>38.264244</ele>
        <time>2013-01-03T14:58:37Z</time>
      </trkpt>
      <trkpt lat="46.3687" lon="-0.46571">
        <ele>38.264244</ele>
        <time>2013-01-03T14:58:42Z</time>
      </trkpt>
      <trkpt lat="46.3687" lon="-0.46562">
        <ele>38.259735</ele>
        <time>2013-01-03T14:58:47Z</time>
      </trkpt>
      <trkpt lat="46.3687" lon="-0.46553">
        <ele>38.259735</ele>
        <time>2013-01-03T14:58:52Z</time>
      </trkpt>
      <trkpt lat="46.36869" lon="-0.46544">
        <ele>38.30728</ele>
        <time>2013-01-03T14:58:57Z</time>
      </trkpt>
      <trkpt lat="46.36871" lon="-0.46535">
        <ele>38.30728</ele>
        <time>2013-01-03T14:59:02Z</time>
      </trkpt>
      <trkpt lat="46.36871" lon="-0.46534">
        <ele>38.30728</ele>
        <time>2013-01-03T14:59:07Z</time>
      </trkpt>
      <trkpt lat="46.3687" lon="-0.46533">
        <ele>38.30728</ele>
        <time>2013-01-03T14:59:12Z</time>
      </trkpt>
      <trkpt lat="46.3687" lon="-0.4653">
        <ele>38.042496</ele>
        <time>2013-01-03T14:59:17Z</time>
      </trkpt>
      <trkpt lat="46.36871" lon="-0.46527">
        <ele>38.042496</ele>
        <time>2013-01-03T14:59:22Z</time>
      </trkpt>
      <trkpt lat="46.36872" lon="-0.46515">
        <ele>37.575397</ele>
        <time>2013-01-03T14:59:27Z</time>
      </trkpt>
      <trkpt lat="46.3687" lon="-0.46508">
        <ele>37.575397</ele>
        <time>2013-01-03T14:59:32Z</time>
      </trkpt>
      <trkpt lat="46.36871" lon="-0.4649">
        <ele>37.354397</ele>
        <time>2013-01-03T14:59:42Z</time>
      </trkpt>
      <trkpt lat="46.3687" lon="-0.46472">
        <ele>37.174614</ele>
        <time>2013-01-03T14:59:47Z</time>
      </trkpt>
      <trkpt lat="46.36871" lon="-0.46466">
        <ele>37.174614</ele>
        <time>2013-01-03T14:59:52Z</time>
      </trkpt>
      <trkpt lat="46.3687" lon="-0.46456">
        <ele>36.87494</ele>
        <time>2013-01-03T14:59:57Z</time>
      </trkpt>
      <trkpt lat="46.36871" lon="-0.46448">
        <ele>36.87494</ele>
        <time>2013-01-03T15:00:02Z</time>
      </trkpt>
      <trkpt lat="46.3687" lon="-0.46437">
        <ele>36.55144</ele>
        <time>2013-01-03T15:00:07Z</time>
      </trkpt>
      <trkpt lat="46.36871" lon="-0.4643">
        <ele>36.55144</ele>
        <time>2013-01-03T15:00:12Z</time>
      </trkpt>
      <trkpt lat="46.3687" lon="-0.46423">
        <ele>36.16351</ele>
        <time>2013-01-03T15:00:17Z</time>
      </trkpt>
      <trkpt lat="46.36872" lon="-0.46419">
        <ele>36.16351</ele>
        <time>2013-01-03T15:00:22Z</time>
      </trkpt>
      <trkpt lat="46.36872" lon="-0.46417">
        <ele>36.16351</ele>
        <time>2013-01-03T15:00:27Z</time>
      </trkpt>
      <trkpt lat="46.36872" lon="-0.46413">
        <ele>36.16351</ele>
        <time>2013-01-03T15:00:32Z</time>
      </trkpt>
      <trkpt lat="46.36872" lon="-0.46397">
        <ele>35.544003</ele>
        <time>2013-01-03T15:00:37Z</time>
      </trkpt>
      <trkpt lat="46.36872" lon="-0.46391">
        <ele>35.544003</ele>
        <time>2013-01-03T15:00:42Z</time>
      </trkpt>
      <trkpt lat="46.3687" lon="-0.46383">
        <ele>34.697235</ele>
        <time>2013-01-03T15:00:47Z</time>
      </trkpt>
      <trkpt lat="46.3687" lon="-0.46371">
        <ele>34.697235</ele>
        <time>2013-01-03T15:00:52Z</time>
      </trkpt>
      <trkpt lat="46.36874" lon="-0.46364">
        <ele>33.94488</ele>
        <time>2013-01-03T15:00:57Z</time>
      </trkpt>
      <trkpt lat="46.36873" lon="-0.46358">
        <ele>33.94488</ele>
        <time>2013-01-03T15:01:02Z</time>
      </trkpt>
      <trkpt lat="46.36874" lon="-0.46346">
        <ele>33.325314</ele>
        <time>2013-01-03T15:01:07Z</time>
      </trkpt>
      <trkpt lat="46.36875" lon="-0.46341">
        <ele>33.325314</ele>
        <time>2013-01-03T15:01:12Z</time>
      </trkpt>
      <trkpt lat="46.36875" lon="-0.46335">
        <ele>33.325314</ele>
        <time>2013-01-03T15:01:17Z</time>
      </trkpt>
      <trkpt lat="46.36877" lon="-0.46326">
        <ele>32.657536</ele>
        <time>2013-01-03T15:01:22Z</time>
      </trkpt>
      <trkpt lat="46.36875" lon="-0.46319">
        <ele>32.657536</ele>
        <time>2013-01-03T15:01:27Z</time>
      </trkpt>
      <trkpt lat="46.36874" lon="-0.46309">
        <ele>31.860422</ele>
        <time>2013-01-03T15:01:32Z</time>
      </trkpt>
      <trkpt lat="46.36874" lon="-0.46297">
        <ele>31.860422</ele>
        <time>2013-01-03T15:01:37Z</time>
      </trkpt>
      <trkpt lat="46.36876" lon="-0.46286">
        <ele>31.767061</ele>
        <time>2013-01-03T15:01:42Z</time>
      </trkpt>
      <trkpt lat="46.36876" lon="-0.46277">
        <ele>31.767061</ele>
        <time>2013-01-03T15:01:47Z</time>
      </trkpt>
      <trkpt lat="46.36876" lon="-0.46271">
        <ele>32.023266</ele>
        <time>2013-01-03T15:01:52Z</time>
      </trkpt>
      <trkpt lat="46.36878" lon="-0.46263">
        <ele>32.023266</ele>
        <time>2013-01-03T15:01:57Z</time>
      </trkpt>
      <trkpt lat="46.36875" lon="-0.46256">
        <ele>32.256645</ele>
        <time>2013-01-03T15:02:02Z</time>
      </trkpt>
      <trkpt lat="46.36875" lon="-0.46249">
        <ele>32.256645</ele>
        <time>2013-01-03T15:02:07Z</time>
      </trkpt>
      <trkpt lat="46.36876" lon="-0.4624">
        <ele>32.151012</ele>
        <time>2013-01-03T15:02:12Z</time>
      </trkpt>
      <trkpt lat="46.36876" lon="-0.46234">
        <ele>32.151012</ele>
        <time>2013-01-03T15:02:17Z</time>
      </trkpt>
      <trkpt lat="46.36874" lon="-0.46223">
        <ele>32.01962</ele>
        <time>2013-01-03T15:02:22Z</time>
      </trkpt>
      <trkpt lat="46.36874" lon="-0.46218">
        <ele>32.01962</ele>
        <time>2013-01-03T15:02:27Z</time>
      </trkpt>
      <trkpt lat="46.36874" lon="-0.46209">
        <ele>31.99423</ele>
        <time>2013-01-03T15:02:32Z</time>
      </trkpt>
      <trkpt lat="46.36876" lon="-0.462">
        <ele>31.99423</ele>
        <time>2013-01-03T15:02:37Z</time>
      </trkpt>
      <trkpt lat="46.36876" lon="-0.46193">
        <ele>31.994873</ele>
        <time>2013-01-03T15:02:42Z</time>
      </trkpt>
      <trkpt lat="46.36876" lon="-0.46187">
        <ele>31.994873</ele>
        <time>2013-01-03T15:02:47Z</time>
      </trkpt>
      <trkpt lat="46.36876" lon="-0.46181">
        <ele>31.994873</ele>
        <time>2013-01-03T15:02:52Z</time>
      </trkpt>
      <trkpt lat="46.36878" lon="-0.46172">
        <ele>32.2644</ele>
        <time>2013-01-03T15:02:57Z</time>
      </trkpt>
      <trkpt lat="46.36878" lon="-0.46166">
        <ele>32.2644</ele>
        <time>2013-01-03T15:03:02Z</time>
      </trkpt>
      <trkpt lat="46.3688" lon="-0.46163">
        <ele>32.2644</ele>
        <time>2013-01-03T15:03:07Z</time>
      </trkpt>
      <trkpt lat="46.36879" lon="-0.46159">
        <ele>32.4218</ele>
        <time>2013-01-03T15:03:12Z</time>
      </trkpt>
      <trkpt lat="46.36882" lon="-0.46158">
        <ele>32.4218</ele>
        <time>2013-01-03T15:03:17Z</time>
      </trkpt>
      <trkpt lat="46.36887" lon="-0.46159">
        <ele>32.4218</ele>
        <time>2013-01-03T15:03:22Z</time>
      </trkpt>
      <trkpt lat="46.36892" lon="-0.46161">
        <ele>33.079887</ele>
        <time>2013-01-03T15:03:27Z</time>
      </trkpt>
      <trkpt lat="46.36897" lon="-0.46164">
        <ele>33.079887</ele>
        <time>2013-01-03T15:03:32Z</time>
      </trkpt>
      <trkpt lat="46.369" lon="-0.46164">
        <ele>33.079887</ele>
        <time>2013-01-03T15:03:37Z</time>
      </trkpt>
      <trkpt lat="46.36907" lon="-0.46165">
        <ele>33.724236</ele>
        <time>2013-01-03T15:03:42Z</time>
      </trkpt>
      <trkpt lat="46.36913" lon="-0.46167">
        <ele>33.724236</ele>
        <time>2013-01-03T15:03:47Z</time>
      </trkpt>
      <trkpt lat="46.36917" lon="-0.46168">
        <ele>34.267338</ele>
        <time>2013-01-03T15:03:52Z</time>
      </trkpt>
      <trkpt lat="46.36924" lon="-0.46168">
        <ele>34.267338</ele>
        <time>2013-01-03T15:03:57Z</time>
      </trkpt>
      <trkpt lat="46.36929" lon="-0.46169">
        <ele>34.84457</ele>
        <time>2013-01-03T15:04:02Z</time>
      </trkpt>
      <trkpt lat="46.36934" lon="-0.46168">
        <ele>34.84457</ele>
        <time>2013-01-03T15:04:07Z</time>
      </trkpt>
      <trkpt lat="46.36938" lon="-0.46169">
        <ele>34.84457</ele>
        <time>2013-01-03T15:04:12Z</time>
      </trkpt>
      <trkpt lat="46.36943" lon="-0.46168">
        <ele>35.27866</ele>
        <time>2013-01-03T15:04:17Z</time>
      </trkpt>
      <trkpt lat="46.36948" lon="-0.46167">
        <ele>35.27866</ele>
        <time>2013-01-03T15:04:22Z</time>
      </trkpt>
      <trkpt lat="46.36953" lon="-0.46168">
        <ele>35.434578</ele>
        <time>2013-01-03T15:04:27Z</time>
      </trkpt>
      <trkpt lat="46.36959" lon="-0.46167">
        <ele>35.434578</ele>
        <time>2013-01-03T15:04:32Z</time>
      </trkpt>
      <trkpt lat="46.36968" lon="-0.46168">
        <ele>35.649185</ele>
        <time>2013-01-03T15:04:37Z</time>
      </trkpt>
      <trkpt lat="46.36973" lon="-0.46166">
        <ele>35.649185</ele>
        <time>2013-01-03T15:04:42Z</time>
      </trkpt>
      <trkpt lat="46.36978" lon="-0.46166">
        <ele>35.83093</ele>
        <time>2013-01-03T15:04:47Z</time>
      </trkpt>
      <trkpt lat="46.36983" lon="-0.46166">
        <ele>35.83093</ele>
        <time>2013-01-03T15:04:52Z</time>
      </trkpt>
      <trkpt lat="46.36988" lon="-0.46163">
        <ele>36.35626</ele>
        <time>2013-01-03T15:04:57Z</time>
      </trkpt>
      <trkpt lat="46.36994" lon="-0.46162">
        <ele>36.35626</ele>
        <time>2013-01-03T15:05:02Z</time>
      </trkpt>
      <trkpt lat="46.37" lon="-0.46161">
        <ele>36.95335</ele>
        <time>2013-01-03T15:05:07Z</time>
      </trkpt>
      <trkpt lat="46.37006" lon="-0.4616">
        <ele>36.95335</ele>
        <time>2013-01-03T15:05:12Z</time>
      </trkpt>
      <trkpt lat="46.37011" lon="-0.46159">
        <ele>37.48545</ele>
        <time>2013-01-03T15:05:17Z</time>
      </trkpt>
      <trkpt lat="46.37017" lon="-0.46159">
        <ele>37.48545</ele>
        <time>2013-01-03T15:05:22Z</time>
      </trkpt>
      <trkpt lat="46.37024" lon="-0.46158">
        <ele>38.08548</ele>
        <time>2013-01-03T15:05:27Z</time>
      </trkpt>
      <trkpt lat="46.37026" lon="-0.46155">
        <ele>38.08548</ele>
        <time>2013-01-03T15:05:32Z</time>
      </trkpt>
      <trkpt lat="46.37031" lon="-0.46157">
        <ele>38.08548</ele>
        <time>2013-01-03T15:05:37Z</time>
      </trkpt>
      <trkpt lat="46.37036" lon="-0.46157">
        <ele>38.458496</ele>
        <time>2013-01-03T15:05:42Z</time>
      </trkpt>
      <trkpt lat="46.37042" lon="-0.46156">
        <ele>38.458496</ele>
        <time>2013-01-03T15:05:47Z</time>
      </trkpt>
      <trkpt lat="46.37047" lon="-0.46155">
        <ele>38.69218</ele>
        <time>2013-01-03T15:05:52Z</time>
      </trkpt>
      <trkpt lat="46.37052" lon="-0.46155">
        <ele>38.69218</ele>
        <time>2013-01-03T15:05:57Z</time>
      </trkpt>
      <trkpt lat="46.37057" lon="-0.46154">
        <ele>38.940247</ele>
        <time>2013-01-03T15:06:02Z</time>
      </trkpt>
      <trkpt lat="46.37062" lon="-0.46153">
        <ele>38.940247</ele>
        <time>2013-01-03T15:06:07Z</time>
      </trkpt>
      <trkpt lat="46.37066" lon="-0.46153">
        <ele>38.869545</ele>
        <time>2013-01-03T15:06:12Z</time>
      </trkpt>
      <trkpt lat="46.37072" lon="-0.46152">
        <ele>38.869545</ele>
        <time>2013-01-03T15:06:17Z</time>
      </trkpt>
      <trkpt lat="46.37076" lon="-0.46152">
        <ele>38.820824</ele>
        <time>2013-01-03T15:06:22Z</time>
      </trkpt>
      <trkpt lat="46.37084" lon="-0.46151">
        <ele>38.820824</ele>
        <time>2013-01-03T15:06:27Z</time>
      </trkpt>
      <trkpt lat="46.3709" lon="-0.46151">
        <ele>38.864784</ele>
        <time>2013-01-03T15:06:32Z</time>
      </trkpt>
      <trkpt lat="46.37095" lon="-0.4615">
        <ele>38.864784</ele>
        <time>2013-01-03T15:06:37Z</time>
      </trkpt>
      <trkpt lat="46.371" lon="-0.4615">
        <ele>38.908165</ele>
        <time>2013-01-03T15:06:42Z</time>
      </trkpt>
      <trkpt lat="46.37104" lon="-0.4615">
        <ele>38.908165</ele>
        <time>2013-01-03T15:06:47Z</time>
      </trkpt>
      <trkpt lat="46.37111" lon="-0.46147">
        <ele>39.123997</ele>
        <time>2013-01-03T15:06:52Z</time>
      </trkpt>
      <trkpt lat="46.37117" lon="-0.46147">
        <ele>39.123997</ele>
        <time>2013-01-03T15:06:57Z</time>
      </trkpt>
      <trkpt lat="46.37119" lon="-0.4615">
        <ele>39.123997</ele>
        <time>2013-01-03T15:07:02Z</time>
      </trkpt>
      <trkpt lat="46.37124" lon="-0.46149">
        <ele>38.720997</ele>
        <time>2013-01-03T15:07:07Z</time>
      </trkpt>
      <trkpt lat="46.37128" lon="-0.46149">
        <ele>38.720997</ele>
        <time>2013-01-03T15:07:12Z</time>
      </trkpt>
      <trkpt lat="46.37132" lon="-0.46147">
        <ele>38.720997</ele>
        <time>2013-01-03T15:07:17Z</time>
      </trkpt>
      <trkpt lat="46.37141" lon="-0.46146">
        <ele>38.855625</ele>
        <time>2013-01-03T15:07:22Z</time>
      </trkpt>
      <trkpt lat="46.37147" lon="-0.46144">
        <ele>38.855625</ele>
        <time>2013-01-03T15:07:27Z</time>
      </trkpt>
      <trkpt lat="46.37152" lon="-0.46145">
        <ele>38.940617</ele>
        <time>2013-01-03T15:07:32Z</time>
      </trkpt>
      <trkpt lat="46.37158" lon="-0.46144">
        <ele>38.940617</ele>
        <time>2013-01-03T15:07:37Z</time>
      </trkpt>
      <trkpt lat="46.37167" lon="-0.46144">
        <ele>39.181385</ele>
        <time>2013-01-03T15:07:42Z</time>
      </trkpt>
      <trkpt lat="46.37173" lon="-0.46143">
        <ele>39.181385</ele>
        <time>2013-01-03T15:07:47Z</time>
      </trkpt>
      <trkpt lat="46.37178" lon="-0.46143">
        <ele>39.609303</ele>
        <time>2013-01-03T15:07:52Z</time>
      </trkpt>
      <trkpt lat="46.37181" lon="-0.46146">
        <ele>39.609303</ele>
        <time>2013-01-03T15:07:57Z</time>
      </trkpt>
      <trkpt lat="46.37182" lon="-0.46153">
        <ele>39.609303</ele>
        <time>2013-01-03T15:08:02Z</time>
      </trkpt>
      <trkpt lat="46.37182" lon="-0.4616">
        <ele>40.339405</ele>
        <time>2013-01-03T15:08:07Z</time>
      </trkpt>
      <trkpt lat="46.37183" lon="-0.46166">
        <ele>40.339405</ele>
        <time>2013-01-03T15:08:12Z</time>
      </trkpt>
      <trkpt lat="46.37181" lon="-0.46173">
        <ele>40.339405</ele>
        <time>2013-01-03T15:08:17Z</time>
      </trkpt>
      <trkpt lat="46.37181" lon="-0.4618">
        <ele>40.771294</ele>
        <time>2013-01-03T15:08:22Z</time>
      </trkpt>
      <trkpt lat="46.37179" lon="-0.46187">
        <ele>40.771294</ele>
        <time>2013-01-03T15:08:27Z</time>
      </trkpt>
      <trkpt lat="46.37177" lon="-0.46194">
        <ele>41.35831</ele>
        <time>2013-01-03T15:08:32Z</time>
      </trkpt>
      <trkpt lat="46.37177" lon="-0.46202">
        <ele>41.35831</ele>
        <time>2013-01-03T15:08:37Z</time>
      </trkpt>
      <trkpt lat="46.37176" lon="-0.46211">
        <ele>41.885998</ele>
        <time>2013-01-03T15:08:42Z</time>
      </trkpt>
      <trkpt lat="46.37176" lon="-0.46218">
        <ele>41.885998</ele>
        <time>2013-01-03T15:08:47Z</time>
      </trkpt>
      <trkpt lat="46.37176" lon="-0.46226">
        <ele>42.38641</ele>
        <time>2013-01-03T15:08:52Z</time>
      </trkpt>
      <trkpt lat="46.37175" lon="-0.46235">
        <ele>42.38641</ele>
        <time>2013-01-03T15:08:57Z</time>
      </trkpt>
      <trkpt lat="46.37176" lon="-0.4624">
        <ele>43.047882</ele>
        <time>2013-01-03T15:09:02Z</time>
      </trkpt>
      <trkpt lat="46.37176" lon="-0.46248">
        <ele>43.047882</ele>
        <time>2013-01-03T15:09:07Z</time>
      </trkpt>
      <trkpt lat="46.37175" lon="-0.46255">
        <ele>43.496853</ele>
        <time>2013-01-03T15:09:12Z</time>
      </trkpt>
      <trkpt lat="46.37175" lon="-0.46262">
        <ele>43.496853</ele>
        <time>2013-01-03T15:09:17Z</time>
      </trkpt>
      <trkpt lat="46.37176" lon="-0.46272">
        <ele>43.863407</ele>
        <time>2013-01-03T15:09:22Z</time>
      </trkpt>
      <trkpt lat="46.37176" lon="-0.46279">
        <ele>43.863407</ele>
        <time>2013-01-03T15:09:27Z</time>
      </trkpt>
      <trkpt lat="46.37175" lon="-0.46285">
        <ele>44.311558</ele>
        <time>2013-01-03T15:09:32Z</time>
      </trkpt>
      <trkpt lat="46.37177" lon="-0.46293">
        <ele>44.311558</ele>
        <time>2013-01-03T15:09:37Z</time>
      </trkpt>
      <trkpt lat="46.37179" lon="-0.46296">
        <ele>44.311558</ele>
        <time>2013-01-03T15:09:42Z</time>
      </trkpt>
      <trkpt lat="46.37179" lon="-0.46308">
        <ele>44.37339</ele>
        <time>2013-01-03T15:09:47Z</time>
      </trkpt>
      <trkpt lat="46.37177" lon="-0.46313">
        <ele>44.37339</ele>
        <time>2013-01-03T15:09:52Z</time>
      </trkpt>
      <trkpt lat="46.37177" lon="-0.46318">
        <ele>44.37339</ele>
        <time>2013-01-03T15:09:57Z</time>
      </trkpt>
      <trkpt lat="46.37177" lon="-0.46328">
        <ele>43.947937</ele>
        <time>2013-01-03T15:10:02Z</time>
      </trkpt>
      <trkpt lat="46.37177" lon="-0.46332">
        <ele>43.947937</ele>
        <time>2013-01-03T15:10:07Z</time>
      </trkpt>
      <trkpt lat="46.37176" lon="-0.46347">
        <ele>44.167976</ele>
        <time>2013-01-03T15:10:12Z</time>
      </trkpt>
      <trkpt lat="46.37177" lon="-0.46354">
        <ele>44.167976</ele>
        <time>2013-01-03T15:10:17Z</time>
      </trkpt>
      <trkpt lat="46.37178" lon="-0.46359">
        <ele>44.167976</ele>
        <time>2013-01-03T15:10:22Z</time>
      </trkpt>
      <trkpt lat="46.37178" lon="-0.46369">
        <ele>44.611347</ele>
        <time>2013-01-03T15:10:27Z</time>
      </trkpt>
      <trkpt lat="46.37179" lon="-0.46376">
        <ele>44.611347</ele>
        <time>2013-01-03T15:10:32Z</time>
      </trkpt>
      <trkpt lat="46.37181" lon="-0.46383">
        <ele>44.943943</ele>
        <time>2013-01-03T15:10:37Z</time>
      </trkpt>
      <trkpt lat="46.37183" lon="-0.46391">
        <ele>44.943943</ele>
        <time>2013-01-03T15:10:42Z</time>
      </trkpt>
      <trkpt lat="46.37183" lon="-0.46402">
        <ele>45.51944</ele>
        <time>2013-01-03T15:10:47Z</time>
      </trkpt>
      <trkpt lat="46.37184" lon="-0.4641">
        <ele>45.51944</ele>
        <time>2013-01-03T15:10:52Z</time>
      </trkpt>
      <trkpt lat="46.37184" lon="-0.46419">
        <ele>45.81461</ele>
        <time>2013-01-03T15:10:57Z</time>
      </trkpt>
      <trkpt lat="46.37188" lon="-0.46422">
        <ele>45.81461</ele>
        <time>2013-01-03T15:11:02Z</time>
      </trkpt>
      <trkpt lat="46.37187" lon="-0.4643">
        <ele>45.604866</ele>
        <time>2013-01-03T15:11:07Z</time>
      </trkpt>
      <trkpt lat="46.3719" lon="-0.46434">
        <ele>45.604866</ele>
        <time>2013-01-03T15:11:12Z</time>
      </trkpt>
      <trkpt lat="46.37191" lon="-0.46444">
        <ele>45.245586</ele>
        <time>2013-01-03T15:11:17Z</time>
      </trkpt>
      <trkpt lat="46.37191" lon="-0.4645">
        <ele>45.245586</ele>
        <time>2013-01-03T15:11:22Z</time>
      </trkpt>
      <trkpt lat="46.37192" lon="-0.46457">
        <ele>44.89354</ele>
        <time>2013-01-03T15:11:27Z</time>
      </trkpt>
      <trkpt lat="46.37196" lon="-0.46466">
        <ele>44.89354</ele>
        <time>2013-01-03T15:11:32Z</time>
      </trkpt>
      <trkpt lat="46.37196" lon="-0.46472">
        <ele>44.304867</ele>
        <time>2013-01-03T15:11:37Z</time>
      </trkpt>
      <trkpt lat="46.37198" lon="-0.46478">
        <ele>44.304867</ele>
        <time>2013-01-03T15:11:42Z</time>
      </trkpt>
      <trkpt lat="46.37199" lon="-0.46486">
        <ele>43.51368</ele>
        <time>2013-01-03T15:11:47Z</time>
      </trkpt>
      <trkpt lat="46.37201" lon="-0.46493">
        <ele>43.51368</ele>
        <time>2013-01-03T15:11:52Z</time>
      </trkpt>
      <trkpt lat="46.37203" lon="-0.46499">
        <ele>42.811554</ele>
        <time>2013-01-03T15:11:57Z</time>
      </trkpt>
      <trkpt lat="46.37204" lon="-0.46507">
        <ele>42.811554</ele>
        <time>2013-01-03T15:12:02Z</time>
      </trkpt>
      <trkpt lat="46.37205" lon="-0.46515">
        <ele>42.093693</ele>
        <time>2013-01-03T15:12:07Z</time>
      </trkpt>
      <trkpt lat="46.37207" lon="-0.46523">
        <ele>42.093693</ele>
        <time>2013-01-03T15:12:12Z</time>
      </trkpt>
      <trkpt lat="46.37208" lon="-0.4653">
        <ele>41.32066</ele>
        <time>2013-01-03T15:12:17Z</time>
      </trkpt>
      <trkpt lat="46.37209" lon="-0.46538">
        <ele>41.32066</ele>
        <time>2013-01-03T15:12:22Z</time>
      </trkpt>
      <trkpt lat="46.3721" lon="-0.46545">
        <ele>40.528107</ele>
        <time>2013-01-03T15:12:27Z</time>
      </trkpt>
      <trkpt lat="46.37212" lon="-0.46555">
        <ele>40.528107</ele>
        <time>2013-01-03T15:12:32Z</time>
      </trkpt>
      <trkpt lat="46.37215" lon="-0.4656">
        <ele>40.051712</ele>
        <time>2013-01-03T15:12:37Z</time>
      </trkpt>
      <trkpt lat="46.37218" lon="-0.46571">
        <ele>40.051712</ele>
        <time>2013-01-03T15:12:42Z</time>
      </trkpt>
      <trkpt lat="46.37219" lon="-0.46579">
        <ele>39.23604</ele>
        <time>2013-01-03T15:12:47Z</time>
      </trkpt>
      <trkpt lat="46.37222" lon="-0.46581">
        <ele>39.23604</ele>
        <time>2013-01-03T15:12:52Z</time>
      </trkpt>
      <trkpt lat="46.37223" lon="-0.46585">
        <ele>39.23604</ele>
        <time>2013-01-03T15:12:57Z</time>
      </trkpt>
      <trkpt lat="46.37226" lon="-0.46589">
        <ele>37.70527</ele>
        <time>2013-01-03T15:13:02Z</time>
      </trkpt>
      <trkpt lat="46.37227" lon="-0.46596">
        <ele>37.70527</ele>
        <time>2013-01-03T15:13:07Z</time>
      </trkpt>
      <trkpt lat="46.37228" lon="-0.46604">
        <ele>36.035465</ele>
        <time>2013-01-03T15:13:12Z</time>
      </trkpt>
      <trkpt lat="46.37228" lon="-0.46612">
        <ele>36.035465</ele>
        <time>2013-01-03T15:13:17Z</time>
      </trkpt>
      <trkpt lat="46.3723" lon="-0.46617">
        <ele>34.227497</ele>
        <time>2013-01-03T15:13:22Z</time>
      </trkpt>
      <trkpt lat="46.37231" lon="-0.46631">
        <ele>33.622715</ele>
        <time>2013-01-03T15:13:27Z</time>
      </trkpt>
      <trkpt lat="46.37231" lon="-0.46644">
        <ele>33.622715</ele>
        <time>2013-01-03T15:13:32Z</time>
      </trkpt>
      <trkpt lat="46.37233" lon="-0.46651">
        <ele>33.716747</ele>
        <time>2013-01-03T15:13:37Z</time>
      </trkpt>
      <trkpt lat="46.37236" lon="-0.46656">
        <ele>33.716747</ele>
        <time>2013-01-03T15:13:42Z</time>
      </trkpt>
      <trkpt lat="46.37238" lon="-0.46664">
        <ele>33.593494</ele>
        <time>2013-01-03T15:13:47Z</time>
      </trkpt>
      <trkpt lat="46.37241" lon="-0.46668">
        <ele>33.593494</ele>
        <time>2013-01-03T15:13:52Z</time>
      </trkpt>
      <trkpt lat="46.3724" lon="-0.46683">
        <ele>34.03314</ele>
        <time>2013-01-03T15:13:57Z</time>
      </trkpt>
      <trkpt lat="46.37243" lon="-0.46688">
        <ele>34.03314</ele>
        <time>2013-01-03T15:14:02Z</time>
      </trkpt>
      <trkpt lat="46.37244" lon="-0.46695">
        <ele>34.647255</ele>
        <time>2013-01-03T15:14:07Z</time>
      </trkpt>
      <trkpt lat="46.37246" lon="-0.46703">
        <ele>34.647255</ele>
        <time>2013-01-03T15:14:12Z</time>
      </trkpt>
      <trkpt lat="46.37248" lon="-0.4671">
        <ele>35.36363</ele>
        <time>2013-01-03T15:14:17Z</time>
      </trkpt>
      <trkpt lat="46.37249" lon="-0.46717">
        <ele>35.36363</ele>
        <time>2013-01-03T15:14:22Z</time>
      </trkpt>
      <trkpt lat="46.3725" lon="-0.46726">
        <ele>35.927658</ele>
        <time>2013-01-03T15:14:27Z</time>
      </trkpt>
      <trkpt lat="46.37255" lon="-0.46731">
        <ele>35.927658</ele>
        <time>2013-01-03T15:14:32Z</time>
      </trkpt>
      <trkpt lat="46.37255" lon="-0.46737">
        <ele>36.276775</ele>
        <time>2013-01-03T15:14:37Z</time>
      </trkpt>
      <trkpt lat="46.37257" lon="-0.46741">
        <ele>36.276775</ele>
        <time>2013-01-03T15:14:42Z</time>
      </trkpt>
      <trkpt lat="46.37259" lon="-0.46753">
        <ele>36.757084</ele>
        <time>2013-01-03T15:14:47Z</time>
      </trkpt>
      <trkpt lat="46.37261" lon="-0.46758">
        <ele>36.757084</ele>
        <time>2013-01-03T15:14:52Z</time>
      </trkpt>
      <trkpt lat="46.37263" lon="-0.46764">
        <ele>36.757084</ele>
        <time>2013-01-03T15:14:57Z</time>
      </trkpt>
      <trkpt lat="46.37264" lon="-0.46771">
        <ele>37.054775</ele>
        <time>2013-01-03T15:15:02Z</time>
      </trkpt>
      <trkpt lat="46.37263" lon="-0.46781">
        <ele>37.054775</ele>
        <time>2013-01-03T15:15:07Z</time>
      </trkpt>
      <trkpt lat="46.37264" lon="-0.46788">
        <ele>37.441624</ele>
        <time>2013-01-03T15:15:12Z</time>
      </trkpt>
      <trkpt lat="46.37265" lon="-0.46798">
        <ele>37.441624</ele>
        <time>2013-01-03T15:15:17Z</time>
      </trkpt>
      <trkpt lat="46.37268" lon="-0.46802">
        <ele>38.241234</ele>
        <time>2013-01-03T15:15:22Z</time>
      </trkpt>
      <trkpt lat="46.37272" lon="-0.46808">
        <ele>38.241234</ele>
        <time>2013-01-03T15:15:27Z</time>
      </trkpt>
      <trkpt lat="46.37271" lon="-0.46817">
        <ele>38.91642</ele>
        <time>2013-01-03T15:15:32Z</time>
      </trkpt>
      <trkpt lat="46.37272" lon="-0.46827">
        <ele>38.91642</ele>
        <time>2013-01-03T15:15:37Z</time>
      </trkpt>
      <trkpt lat="46.37274" lon="-0.46831">
        <ele>39.33009</ele>
        <time>2013-01-03T15:15:42Z</time>
      </trkpt>
      <trkpt lat="46.37277" lon="-0.46836">
        <ele>39.33009</ele>
        <time>2013-01-03T15:15:47Z</time>
      </trkpt>
      <trkpt lat="46.37277" lon="-0.46845">
        <ele>39.442417</ele>
        <time>2013-01-03T15:15:52Z</time>
      </trkpt>
      <trkpt lat="46.37277" lon="-0.46854">
        <ele>39.442417</ele>
        <time>2013-01-03T15:15:57Z</time>
      </trkpt>
      <trkpt lat="46.37278" lon="-0.46857">
        <ele>39.442417</ele>
        <time>2013-01-03T15:16:02Z</time>
      </trkpt>
      <trkpt lat="46.37278" lon="-0.46866">
        <ele>39.30383</ele>
        <time>2013-01-03T15:16:07Z</time>
      </trkpt>
      <trkpt lat="46.37281" lon="-0.46871">
        <ele>39.30383</ele>
        <time>2013-01-03T15:16:12Z</time>
      </trkpt>
      <trkpt lat="46.37281" lon="-0.46883">
        <ele>39.62466</ele>
        <time>2013-01-03T15:16:17Z</time>
      </trkpt>
      <trkpt lat="46.3728" lon="-0.46887">
        <ele>39.62466</ele>
        <time>2013-01-03T15:16:22Z</time>
      </trkpt>
      <trkpt lat="46.3728" lon="-0.46896">
        <ele>39.750393</ele>
        <time>2013-01-03T15:16:27Z</time>
      </trkpt>
      <trkpt lat="46.37281" lon="-0.46902">
        <ele>39.750393</ele>
        <time>2013-01-03T15:16:32Z</time>
      </trkpt>
      <trkpt lat="46.37284" lon="-0.46909">
        <ele>39.738037</ele>
        <time>2013-01-03T15:16:37Z</time>
      </trkpt>
      <trkpt lat="46.37284" lon="-0.46916">
        <ele>39.738037</ele>
        <time>2013-01-03T15:16:42Z</time>
      </trkpt>
      <trkpt lat="46.37283" lon="-0.46924">
        <ele>39.61201</ele>
        <time>2013-01-03T15:16:47Z</time>
      </trkpt>
      <trkpt lat="46.37285" lon="-0.4693">
        <ele>39.61201</ele>
        <time>2013-01-03T15:16:52Z</time>
      </trkpt>
      <trkpt lat="46.37285" lon="-0.46942">
        <ele>39.78435</ele>
        <time>2013-01-03T15:16:57Z</time>
      </trkpt>
      <trkpt lat="46.37286" lon="-0.46954">
        <ele>39.78435</ele>
        <time>2013-01-03T15:17:02Z</time>
      </trkpt>
      <trkpt lat="46.3729" lon="-0.4696">
        <ele>40.434265</ele>
        <time>2013-01-03T15:17:07Z</time>
      </trkpt>
      <trkpt lat="46.37293" lon="-0.46962">
        <ele>40.434265</ele>
        <time>2013-01-03T15:17:12Z</time>
      </trkpt>
      <trkpt lat="46.37294" lon="-0.46966">
        <ele>40.434265</ele>
        <time>2013-01-03T15:17:17Z</time>
      </trkpt>
      <trkpt lat="46.37293" lon="-0.46972">
        <ele>41.366173</ele>
        <time>2013-01-03T15:17:22Z</time>
      </trkpt>
      <trkpt lat="46.37293" lon="-0.46974">
        <ele>41.366173</ele>
        <time>2013-01-03T15:17:27Z</time>
      </trkpt>
      <trkpt lat="46.37294" lon="-0.46978">
        <ele>41.366173</ele>
        <time>2013-01-03T15:17:33Z</time>
      </trkpt>
      <trkpt lat="46.37295" lon="-0.46982">
        <ele>41.366173</ele>
        <time>2013-01-03T15:17:37Z</time>
      </trkpt>
      <trkpt lat="46.373" lon="-0.46985">
        <ele>42.42693</ele>
        <time>2013-01-03T15:17:42Z</time>
      </trkpt>
      <trkpt lat="46.37304" lon="-0.46992">
        <ele>42.42693</ele>
        <time>2013-01-03T15:17:47Z</time>
      </trkpt>
      <trkpt lat="46.37311" lon="-0.46994">
        <ele>43.589577</ele>
        <time>2013-01-03T15:17:52Z</time>
      </trkpt>
      <trkpt lat="46.37316" lon="-0.46998">
        <ele>43.589577</ele>
        <time>2013-01-03T15:17:57Z</time>
      </trkpt>
      <trkpt lat="46.37321" lon="-0.47">
        <ele>44.51185</ele>
        <time>2013-01-03T15:18:02Z</time>
      </trkpt>
      <trkpt lat="46.37324" lon="-0.47002">
        <ele>44.51185</ele>
        <time>2013-01-03T15:18:07Z</time>
      </trkpt>
      <trkpt lat="46.37326" lon="-0.47004">
        <ele>44.51185</ele>
        <time>2013-01-03T15:18:12Z</time>
      </trkpt>
      <trkpt lat="46.37327" lon="-0.47006">
        <ele>44.51185</ele>
        <time>2013-01-03T15:18:17Z</time>
      </trkpt>
      <trkpt lat="46.37325" lon="-0.47008">
        <ele>44.94938</ele>
        <time>2013-01-03T15:18:22Z</time>
      </trkpt>
      <trkpt lat="46.37326" lon="-0.47011">
        <ele>44.94938</ele>
        <time>2013-01-03T15:18:27Z</time>
      </trkpt>
      <trkpt lat="46.37326" lon="-0.47012">
        <ele>44.94938</ele>
        <time>2013-01-03T15:18:32Z</time>
      </trkpt>
      <trkpt lat="46.37327" lon="-0.4701">
        <ele>44.94938</ele>
        <time>2013-01-03T15:18:37Z</time>
      </trkpt>
      <trkpt lat="46.37326" lon="-0.4701">
        <ele>44.94938</ele>
        <time>2013-01-03T15:18:47Z</time>
      </trkpt>
      <trkpt lat="46.37325" lon="-0.47012">
        <ele>44.94938</ele>
        <time>2013-01-03T15:19:17Z</time>
      </trkpt>
      <trkpt lat="46.37324" lon="-0.47011">
        <ele>44.94938</ele>
        <time>2013-01-03T15:19:22Z</time>
      </trkpt>
      <trkpt lat="46.37324" lon="-0.4701">
        <ele>44.94938</ele>
        <time>2013-01-03T15:19:27Z</time>
      </trkpt>
      <trkpt lat="46.37323" lon="-0.47009">
        <ele>45.642704</ele>
        <time>2013-01-03T15:19:32Z</time>
      </trkpt>
      <trkpt lat="46.37324" lon="-0.47009">
        <ele>45.642704</ele>
        <time>2013-01-03T15:19:42Z</time>
      </trkpt>
      <trkpt lat="46.37325" lon="-0.47008">
        <ele>45.642704</ele>
        <time>2013-01-03T15:19:47Z</time>
      </trkpt>
      <trkpt lat="46.37326" lon="-0.47007">
        <ele>45.642704</ele>
        <time>2013-01-03T15:19:52Z</time>
      </trkpt>
      <trkpt lat="46.37326" lon="-0.47009">
        <ele>45.642704</ele>
        <time>2013-01-03T15:19:57Z</time>
      </trkpt>
      <trkpt lat="46.37326" lon="-0.47008">
        <ele>45.642704</ele>
        <time>2013-01-03T15:20:02Z</time>
      </trkpt>
      <trkpt lat="46.37326" lon="-0.47008">
        <ele>45.642704</ele>
        <time>2013-01-03T15:20:07Z</time>
      </trkpt>
      <trkpt lat="46.37326" lon="-0.47007">
        <ele>45.642704</ele>
        <time>2013-01-03T15:20:12Z</time>
      </trkpt>
      <trkpt lat="46.37326" lon="-0.47008">
        <ele>45.642704</ele>
        <time>2013-01-03T15:20:47Z</time>
      </trkpt>
      <trkpt lat="46.37326" lon="-0.47008">
        <ele>45.642704</ele>
        <time>2013-01-03T15:20:52Z</time>
      </trkpt>
      <trkpt lat="46.37329" lon="-0.47015">
        <ele>46.44144</ele>
        <time>2013-01-03T15:20:57Z</time>
      </trkpt>
      <trkpt lat="46.37331" lon="-0.47016">
        <ele>46.44144</ele>
        <time>2013-01-03T15:21:02Z</time>
      </trkpt>
      <trkpt lat="46.37333" lon="-0.47019">
        <ele>46.44144</ele>
        <time>2013-01-03T15:21:07Z</time>
      </trkpt>
      <trkpt lat="46.37334" lon="-0.47019">
        <ele>46.44144</ele>
        <time>2013-01-03T15:21:12Z</time>
      </trkpt>
      <trkpt lat="46.37335" lon="-0.47019">
        <ele>46.44144</ele>
        <time>2013-01-03T15:21:17Z</time>
      </trkpt>
      <trkpt lat="46.37335" lon="-0.47023">
        <ele>47.26365</ele>
        <time>2013-01-03T15:21:42Z</time>
      </trkpt>
      <trkpt lat="46.37334" lon="-0.47031">
        <ele>47.26365</ele>
        <time>2013-01-03T15:21:47Z</time>
      </trkpt>
      <trkpt lat="46.37339" lon="-0.47037">
        <ele>47.918106</ele>
        <time>2013-01-03T15:21:52Z</time>
      </trkpt>
      <trkpt lat="46.37342" lon="-0.47046">
        <ele>47.918106</ele>
        <time>2013-01-03T15:21:57Z</time>
      </trkpt>
      <trkpt lat="46.37343" lon="-0.47057">
        <ele>48.674896</ele>
        <time>2013-01-03T15:22:02Z</time>
      </trkpt>
      <trkpt lat="46.37344" lon="-0.47061">
        <ele>48.674896</ele>
        <time>2013-01-03T15:22:07Z</time>
      </trkpt>
      <trkpt lat="46.37347" lon="-0.47067">
        <ele>48.674896</ele>
        <time>2013-01-03T15:22:12Z</time>
      </trkpt>
      <trkpt lat="46.37352" lon="-0.47073">
        <ele>49.279648</ele>
        <time>2013-01-03T15:22:17Z</time>
      </trkpt>
      <trkpt lat="46.37352" lon="-0.4708">
        <ele>49.279648</ele>
        <time>2013-01-03T15:22:22Z</time>
      </trkpt>
      <trkpt lat="46.37354" lon="-0.47088">
        <ele>49.6989</ele>
        <time>2013-01-03T15:22:27Z</time>
      </trkpt>
      <trkpt lat="46.37355" lon="-0.47092">
        <ele>49.6989</ele>
        <time>2013-01-03T15:22:32Z</time>
      </trkpt>
      <trkpt lat="46.37355" lon="-0.47094">
        <ele>49.6989</ele>
        <time>2013-01-03T15:22:37Z</time>
      </trkpt>
      <trkpt lat="46.37355" lon="-0.47095">
        <ele>49.6989</ele>
        <time>2013-01-03T15:22:42Z</time>
      </trkpt>
      <trkpt lat="46.37357" lon="-0.47098">
        <ele>49.6989</ele>
        <time>2013-01-03T15:22:47Z</time>
      </trkpt>
      <trkpt lat="46.37358" lon="-0.47101">
        <ele>50.435448</ele>
        <time>2013-01-03T15:22:52Z</time>
      </trkpt>
      <trkpt lat="46.37358" lon="-0.47102">
        <ele>50.435448</ele>
        <time>2013-01-03T15:22:57Z</time>
      </trkpt>
      <trkpt lat="46.37358" lon="-0.47103">
        <ele>50.435448</ele>
        <time>2013-01-03T15:23:02Z</time>
      </trkpt>
      <trkpt lat="46.37356" lon="-0.47103">
        <ele>50.435448</ele>
        <time>2013-01-03T15:23:07Z</time>
      </trkpt>
      <trkpt lat="46.37356" lon="-0.47103">
        <ele>50.435448</ele>
        <time>2013-01-03T15:23:17Z</time>
      </trkpt>
      <trkpt lat="46.37356" lon="-0.47103">
        <ele>50.435448</ele>
        <time>2013-01-03T15:23:57Z</time>
      </trkpt>
      <trkpt lat="46.37356" lon="-0.47103">
        <ele>50.435448</ele>
        <time>2013-01-03T15:24:02Z</time>
      </trkpt>
      <trkpt lat="46.37356" lon="-0.47103">
        <ele>50.435448</ele>
        <time>2013-01-03T15:24:32Z</time>
      </trkpt>
      <trkpt lat="46.37356" lon="-0.47104">
        <ele>50.435448</ele>
        <time>2013-01-03T15:24:37Z</time>
      </trkpt>
      <trkpt lat="46.37356" lon="-0.47102">
        <ele>50.435448</ele>
        <time>2013-01-03T15:24:52Z</time>
      </trkpt>
      <trkpt lat="46.37355" lon="-0.47099">
        <ele>51.17611</ele>
        <time>2013-01-03T15:24:57Z</time>
      </trkpt>
      <trkpt lat="46.37352" lon="-0.47098">
        <ele>51.17611</ele>
        <time>2013-01-03T15:25:02Z</time>
      </trkpt>
      <trkpt lat="46.37354" lon="-0.47099">
        <ele>51.17611</ele>
        <time>2013-01-03T15:25:07Z</time>
      </trkpt>
      <trkpt lat="46.37354" lon="-0.47099">
        <ele>51.17611</ele>
        <time>2013-01-03T15:25:17Z</time>
      </trkpt>
      <trkpt lat="46.37354" lon="-0.47099">
        <ele>51.17611</ele>
        <time>2013-01-03T15:25:27Z</time>
      </trkpt>
      <trkpt lat="46.37354" lon="-0.47097">
        <ele>51.17611</ele>
        <time>2013-01-03T15:25:32Z</time>
      </trkpt>
      <trkpt lat="46.37353" lon="-0.47096">
        <ele>51.17611</ele>
        <time>2013-01-03T15:25:37Z</time>
      </trkpt>
      <trkpt lat="46.37355" lon="-0.47095">
        <ele>51.17611</ele>
        <time>2013-01-03T15:25:42Z</time>
      </trkpt>
      <trkpt lat="46.3735" lon="-0.47095">
        <ele>51.313705</ele>
        <time>2013-01-03T15:25:47Z</time>
      </trkpt>
      <trkpt lat="46.37346" lon="-0.47095">
        <ele>51.313705</ele>
        <time>2013-01-03T15:25:52Z</time>
      </trkpt>
      <trkpt lat="46.37338" lon="-0.47095">
        <ele>51.23854</ele>
        <time>2013-01-03T15:25:57Z</time>
      </trkpt>
      <trkpt lat="46.37334" lon="-0.47095">
        <ele>51.23854</ele>
        <time>2013-01-03T15:26:02Z</time>
      </trkpt>
      <trkpt lat="46.37331" lon="-0.47096">
        <ele>51.23854</ele>
        <time>2013-01-03T15:26:07Z</time>
      </trkpt>
      <trkpt lat="46.37326" lon="-0.47099">
        <ele>51.15436</ele>
        <time>2013-01-03T15:26:12Z</time>
      </trkpt>
      <trkpt lat="46.37324" lon="-0.471">
        <ele>51.15436</ele>
        <time>2013-01-03T15:26:17Z</time>
      </trkpt>
      <trkpt lat="46.3732" lon="-0.47101">
        <ele>51.15436</ele>
        <time>2013-01-03T15:26:22Z</time>
      </trkpt>
      <trkpt lat="46.37317" lon="-0.471">
        <ele>51.2068</ele>
        <time>2013-01-03T15:26:27Z</time>
      </trkpt>
      <trkpt lat="46.37314" lon="-0.47094">
        <ele>51.2068</ele>
        <time>2013-01-03T15:26:32Z</time>
      </trkpt>
      <trkpt lat="46.37316" lon="-0.47087">
        <ele>51.083683</ele>
        <time>2013-01-03T15:26:37Z</time>
      </trkpt>
      <trkpt lat="46.3731" lon="-0.47082">
        <ele>51.083683</ele>
        <time>2013-01-03T15:26:42Z</time>
      </trkpt>
      <trkpt lat="46.37305" lon="-0.4708">
        <ele>50.64042</ele>
        <time>2013-01-03T15:26:47Z</time>
      </trkpt>
      <trkpt lat="46.373" lon="-0.47081">
        <ele>50.64042</ele>
        <time>2013-01-03T15:26:52Z</time>
      </trkpt>
      <trkpt lat="46.37297" lon="-0.47083">
        <ele>50.64042</ele>
        <time>2013-01-03T15:26:57Z</time>
      </trkpt>
      <trkpt lat="46.37293" lon="-0.47083">
        <ele>50.33481</ele>
        <time>2013-01-03T15:27:02Z</time>
      </trkpt>
      <trkpt lat="46.37289" lon="-0.47083">
        <ele>50.33481</ele>
        <time>2013-01-03T15:27:07Z</time>
      </trkpt>
      <trkpt lat="46.37284" lon="-0.47078">
        <ele>49.798058</ele>
        <time>2013-01-03T15:27:12Z</time>
      </trkpt>
      <trkpt lat="46.37281" lon="-0.47074">
        <ele>49.798058</ele>
        <time>2013-01-03T15:27:17Z</time>
      </trkpt>
      <trkpt lat="46.37277" lon="-0.47068">
        <ele>49.553776</ele>
        <time>2013-01-03T15:27:22Z</time>
      </trkpt>
      <trkpt lat="46.37274" lon="-0.47064">
        <ele>49.553776</ele>
        <time>2013-01-03T15:27:27Z</time>
      </trkpt>
      <trkpt lat="46.37271" lon="-0.47059">
        <ele>49.32252</ele>
        <time>2013-01-03T15:27:32Z</time>
      </trkpt>
      <trkpt lat="46.37267" lon="-0.47054">
        <ele>49.32252</ele>
        <time>2013-01-03T15:27:37Z</time>
      </trkpt>
      <trkpt lat="46.37262" lon="-0.4705">
        <ele>49.13356</ele>
        <time>2013-01-03T15:27:42Z</time>
      </trkpt>
      <trkpt lat="46.37257" lon="-0.47046">
        <ele>49.13356</ele>
        <time>2013-01-03T15:27:47Z</time>
      </trkpt>
      <trkpt lat="46.37253" lon="-0.47043">
        <ele>48.855362</ele>
        <time>2013-01-03T15:27:52Z</time>
      </trkpt>
      <trkpt lat="46.3725" lon="-0.47041">
        <ele>48.855362</ele>
        <time>2013-01-03T15:27:57Z</time>
      </trkpt>
      <trkpt lat="46.37244" lon="-0.47037">
        <ele>48.496006</ele>
        <time>2013-01-03T15:28:02Z</time>
      </trkpt>
      <trkpt lat="46.37237" lon="-0.47036">
        <ele>48.496006</ele>
        <time>2013-01-03T15:28:07Z</time>
      </trkpt>
      <trkpt lat="46.3723" lon="-0.47034">
        <ele>48.250546</ele>
        <time>2013-01-03T15:28:12Z</time>
      </trkpt>
      <trkpt lat="46.37226" lon="-0.47032">
        <ele>48.250546</ele>
        <time>2013-01-03T15:28:17Z</time>
      </trkpt>
      <trkpt lat="46.37221" lon="-0.4703">
        <ele>47.722908</ele>
        <time>2013-01-03T15:28:22Z</time>
      </trkpt>
      <trkpt lat="46.37216" lon="-0.47028">
        <ele>47.722908</ele>
        <time>2013-01-03T15:28:27Z</time>
      </trkpt>
      <trkpt lat="46.37211" lon="-0.47028">
        <ele>47.051292</ele>
        <time>2013-01-03T15:28:32Z</time>
      </trkpt>
      <trkpt lat="46.37205" lon="-0.47026">
        <ele>47.051292</ele>
        <time>2013-01-03T15:28:37Z</time>
      </trkpt>
      <trkpt lat="46.37199" lon="-0.47025">
        <ele>46.551464</ele>
        <time>2013-01-03T15:28:42Z</time>
      </trkpt>
      <trkpt lat="46.37196" lon="-0.47025">
        <ele>46.551464</ele>
        <time>2013-01-03T15:28:47Z</time>
      </trkpt>
      <trkpt lat="46.3719" lon="-0.47024">
        <ele>45.751694</ele>
        <time>2013-01-03T15:28:52Z</time>
      </trkpt>
      <trkpt lat="46.37187" lon="-0.47023">
        <ele>45.751694</ele>
        <time>2013-01-03T15:28:57Z</time>
      </trkpt>
      <trkpt lat="46.37182" lon="-0.47021">
        <ele>45.751694</ele>
        <time>2013-01-03T15:29:02Z</time>
      </trkpt>
      <trkpt lat="46.37177" lon="-0.47019">
        <ele>44.907444</ele>
        <time>2013-01-03T15:29:07Z</time>
      </trkpt>
      <trkpt lat="46.37168" lon="-0.47014">
        <ele>44.67342</ele>
        <time>2013-01-03T15:29:12Z</time>
      </trkpt>
      <trkpt lat="46.37163" lon="-0.47013">
        <ele>44.67342</ele>
        <time>2013-01-03T15:29:17Z</time>
      </trkpt>
      <trkpt lat="46.3716" lon="-0.47014">
        <ele>44.67342</ele>
        <time>2013-01-03T15:29:22Z</time>
      </trkpt>
      <trkpt lat="46.37154" lon="-0.47013">
        <ele>43.953964</ele>
        <time>2013-01-03T15:29:27Z</time>
      </trkpt>
      <trkpt lat="46.3715" lon="-0.47012">
        <ele>43.953964</ele>
        <time>2013-01-03T15:29:32Z</time>
      </trkpt>
      <trkpt lat="46.37145" lon="-0.47009">
        <ele>43.320446</ele>
        <time>2013-01-03T15:29:37Z</time>
      </trkpt>
      <trkpt lat="46.3714" lon="-0.47009">
        <ele>43.320446</ele>
        <time>2013-01-03T15:29:42Z</time>
      </trkpt>
      <trkpt lat="46.37134" lon="-0.47008">
        <ele>42.538185</ele>
        <time>2013-01-03T15:29:47Z</time>
      </trkpt>
      <trkpt lat="46.37131" lon="-0.47008">
        <ele>42.538185</ele>
        <time>2013-01-03T15:29:52Z</time>
      </trkpt>
      <trkpt lat="46.37126" lon="-0.47007">
        <ele>42.538185</ele>
        <time>2013-01-03T15:29:57Z</time>
      </trkpt>
      <trkpt lat="46.37122" lon="-0.47008">
        <ele>41.173927</ele>
        <time>2013-01-03T15:30:02Z</time>
      </trkpt>
      <trkpt lat="46.37118" lon="-0.47007">
        <ele>41.173927</ele>
        <time>2013-01-03T15:30:07Z</time>
      </trkpt>
      <trkpt lat="46.37112" lon="-0.47006">
        <ele>39.879837</ele>
        <time>2013-01-03T15:30:12Z</time>
      </trkpt>
      <trkpt lat="46.37108" lon="-0.47004">
        <ele>39.879837</ele>
        <time>2013-01-03T15:30:17Z</time>
      </trkpt>
      <trkpt lat="46.37102" lon="-0.47001">
        <ele>38.813164</ele>
        <time>2013-01-03T15:30:22Z</time>
      </trkpt>
      <trkpt lat="46.37096" lon="-0.46998">
        <ele>38.813164</ele>
        <time>2013-01-03T15:30:27Z</time>
      </trkpt>
      <trkpt lat="46.37091" lon="-0.46996">
        <ele>38.104492</ele>
        <time>2013-01-03T15:30:32Z</time>
      </trkpt>
      <trkpt lat="46.37086" lon="-0.46994">
        <ele>38.104492</ele>
        <time>2013-01-03T15:30:37Z</time>
      </trkpt>
      <trkpt lat="46.37079" lon="-0.46993">
        <ele>37.830498</ele>
        <time>2013-01-03T15:30:42Z</time>
      </trkpt>
      <trkpt lat="46.37074" lon="-0.46993">
        <ele>37.830498</ele>
        <time>2013-01-03T15:30:47Z</time>
      </trkpt>
      <trkpt lat="46.37069" lon="-0.46991">
        <ele>37.77271</ele>
        <time>2013-01-03T15:30:52Z</time>
      </trkpt>
      <trkpt lat="46.37065" lon="-0.46991">
        <ele>37.77271</ele>
        <time>2013-01-03T15:30:57Z</time>
      </trkpt>
      <trkpt lat="46.37059" lon="-0.4699">
        <ele>37.497448</ele>
        <time>2013-01-03T15:31:02Z</time>
      </trkpt>
      <trkpt lat="46.37056" lon="-0.4699">
        <ele>37.497448</ele>
        <time>2013-01-03T15:31:07Z</time>
      </trkpt>
      <trkpt lat="46.3705" lon="-0.46989">
        <ele>37.021362</ele>
        <time>2013-01-03T15:31:12Z</time>
      </trkpt>
      <trkpt lat="46.37046" lon="-0.46988">
        <ele>37.021362</ele>
        <time>2013-01-03T15:31:17Z</time>
      </trkpt>
      <trkpt lat="46.37043" lon="-0.46987">
        <ele>37.021362</ele>
        <time>2013-01-03T15:31:22Z</time>
      </trkpt>
      <trkpt lat="46.37037" lon="-0.46986">
        <ele>36.230667</ele>
        <time>2013-01-03T15:31:27Z</time>
      </trkpt>
      <trkpt lat="46.37031" lon="-0.46985">
        <ele>36.230667</ele>
        <time>2013-01-03T15:31:32Z</time>
      </trkpt>
      <trkpt lat="46.37027" lon="-0.46984">
        <ele>35.755726</ele>
        <time>2013-01-03T15:31:37Z</time>
      </trkpt>
      <trkpt lat="46.3702" lon="-0.46981">
        <ele>35.755726</ele>
        <time>2013-01-03T15:31:42Z</time>
      </trkpt>
      <trkpt lat="46.37014" lon="-0.4698">
        <ele>35.41586</ele>
        <time>2013-01-03T15:31:47Z</time>
      </trkpt>
      <trkpt lat="46.3701" lon="-0.46978">
        <ele>35.41586</ele>
        <time>2013-01-03T15:31:52Z</time>
      </trkpt>
      <trkpt lat="46.37005" lon="-0.46977">
        <ele>35.129677</ele>
        <time>2013-01-03T15:31:57Z</time>
      </trkpt>
      <trkpt lat="46.36999" lon="-0.46977">
        <ele>35.129677</ele>
        <time>2013-01-03T15:32:02Z</time>
      </trkpt>
      <trkpt lat="46.36995" lon="-0.46978">
        <ele>34.735107</ele>
        <time>2013-01-03T15:32:07Z</time>
      </trkpt>
      <trkpt lat="46.36991" lon="-0.46978">
        <ele>34.735107</ele>
        <time>2013-01-03T15:32:12Z</time>
      </trkpt>
      <trkpt lat="46.36985" lon="-0.46981">
        <ele>34.211914</ele>
        <time>2013-01-03T15:32:17Z</time>
      </trkpt>
      <trkpt lat="46.36976" lon="-0.46976">
        <ele>34.319866</ele>
        <time>2013-01-03T15:32:22Z</time>
      </trkpt>
      <trkpt lat="46.36969" lon="-0.46976">
        <ele>34.319866</ele>
        <time>2013-01-03T15:32:27Z</time>
      </trkpt>
      <trkpt lat="46.36965" lon="-0.46975">
        <ele>34.5938</ele>
        <time>2013-01-03T15:32:32Z</time>
      </trkpt>
      <trkpt lat="46.36964" lon="-0.46976">
        <ele>34.5938</ele>
        <time>2013-01-03T15:32:37Z</time>
      </trkpt>
      <trkpt lat="46.36964" lon="-0.46976">
        <ele>34.5938</ele>
        <time>2013-01-03T15:32:42Z</time>
      </trkpt>
      <trkpt lat="46.36964" lon="-0.46975">
        <ele>34.5938</ele>
        <time>2013-01-03T15:32:47Z</time>
      </trkpt>
      <trkpt lat="46.36964" lon="-0.46976">
        <ele>34.5938</ele>
        <time>2013-01-03T15:33:02Z</time>
      </trkpt>
      <trkpt lat="46.36964" lon="-0.46976">
        <ele>34.5938</ele>
        <time>2013-01-03T15:33:12Z</time>
      </trkpt>
      <trkpt lat="46.36964" lon="-0.46975">
        <ele>34.5938</ele>
        <time>2013-01-03T15:33:17Z</time>
      </trkpt>
      <trkpt lat="46.36965" lon="-0.46978">
        <ele>34.5938</ele>
        <time>2013-01-03T15:33:42Z</time>
      </trkpt>
      <trkpt lat="46.36968" lon="-0.46983">
        <ele>35.03454</ele>
        <time>2013-01-03T15:33:47Z</time>
      </trkpt>
      <trkpt lat="46.36972" lon="-0.46988">
        <ele>35.03454</ele>
        <time>2013-01-03T15:33:52Z</time>
      </trkpt>
      <trkpt lat="46.36974" lon="-0.46994">
        <ele>35.310894</ele>
        <time>2013-01-03T15:33:57Z</time>
      </trkpt>
      <trkpt lat="46.36976" lon="-0.47">
        <ele>35.310894</ele>
        <time>2013-01-03T15:34:02Z</time>
      </trkpt>
      <trkpt lat="46.36978" lon="-0.47007">
        <ele>35.606403</ele>
        <time>2013-01-03T15:34:07Z</time>
      </trkpt>
      <trkpt lat="46.36979" lon="-0.47014">
        <ele>35.606403</ele>
        <time>2013-01-03T15:34:12Z</time>
      </trkpt>
      <trkpt lat="46.36979" lon="-0.4702">
        <ele>35.606403</ele>
        <time>2013-01-03T15:34:17Z</time>
      </trkpt>
      <trkpt lat="46.36981" lon="-0.47026">
        <ele>35.615486</ele>
        <time>2013-01-03T15:34:22Z</time>
      </trkpt>
      <trkpt lat="46.36983" lon="-0.47033">
        <ele>35.615486</ele>
        <time>2013-01-03T15:34:27Z</time>
      </trkpt>
      <trkpt lat="46.36985" lon="-0.47039">
        <ele>35.675472</ele>
        <time>2013-01-03T15:34:32Z</time>
      </trkpt>
      <trkpt lat="46.36987" lon="-0.47046">
        <ele>35.675472</ele>
        <time>2013-01-03T15:34:37Z</time>
      </trkpt>
      <trkpt lat="46.36989" lon="-0.47052">
        <ele>35.680832</ele>
        <time>2013-01-03T15:34:42Z</time>
      </trkpt>
      <trkpt lat="46.36992" lon="-0.4706">
        <ele>35.680832</ele>
        <time>2013-01-03T15:34:47Z</time>
      </trkpt>
      <trkpt lat="46.36994" lon="-0.47067">
        <ele>35.505104</ele>
        <time>2013-01-03T15:34:52Z</time>
      </trkpt>
      <trkpt lat="46.36996" lon="-0.47074">
        <ele>35.505104</ele>
        <time>2013-01-03T15:34:57Z</time>
      </trkpt>
      <trkpt lat="46.36999" lon="-0.47081">
        <ele>35.27661</ele>
        <time>2013-01-03T15:35:02Z</time>
      </trkpt>
      <trkpt lat="46.37001" lon="-0.47091">
        <ele>35.27661</ele>
        <time>2013-01-03T15:35:07Z</time>
      </trkpt>
      <trkpt lat="46.37003" lon="-0.47097">
        <ele>34.89823</ele>
        <time>2013-01-03T15:35:12Z</time>
      </trkpt>
      <trkpt lat="46.37005" lon="-0.47103">
        <ele>34.89823</ele>
        <time>2013-01-03T15:35:17Z</time>
      </trkpt>
      <trkpt lat="46.37008" lon="-0.47112">
        <ele>34.626244</ele>
        <time>2013-01-03T15:35:22Z</time>
      </trkpt>
      <trkpt lat="46.37008" lon="-0.47122">
        <ele>34.626244</ele>
        <time>2013-01-03T15:35:27Z</time>
      </trkpt>
      <trkpt lat="46.3701" lon="-0.47129">
        <ele>34.539295</ele>
        <time>2013-01-03T15:35:32Z</time>
      </trkpt>
      <trkpt lat="46.3701" lon="-0.47136">
        <ele>34.539295</ele>
        <time>2013-01-03T15:35:37Z</time>
      </trkpt>
      <trkpt lat="46.37013" lon="-0.47143">
        <ele>34.637665</ele>
        <time>2013-01-03T15:35:42Z</time>
      </trkpt>
      <trkpt lat="46.37014" lon="-0.4715">
        <ele>34.637665</ele>
        <time>2013-01-03T15:35:47Z</time>
      </trkpt>
      <trkpt lat="46.37016" lon="-0.47155">
        <ele>34.820213</ele>
        <time>2013-01-03T15:35:52Z</time>
      </trkpt>
      <trkpt lat="46.37018" lon="-0.47162">
        <ele>34.820213</ele>
        <time>2013-01-03T15:35:57Z</time>
      </trkpt>
      <trkpt lat="46.37019" lon="-0.47167">
        <ele>34.820213</ele>
        <time>2013-01-03T15:36:02Z</time>
      </trkpt>
      <trkpt lat="46.37022" lon="-0.47173">
        <ele>35.194763</ele>
        <time>2013-01-03T15:36:07Z</time>
      </trkpt>
      <trkpt lat="46.37024" lon="-0.47178">
        <ele>35.194763</ele>
        <time>2013-01-03T15:36:12Z</time>
      </trkpt>
      <trkpt lat="46.37027" lon="-0.47175">
        <ele>35.194763</ele>
        <time>2013-01-03T15:36:17Z</time>
      </trkpt>
      <trkpt lat="46.37027" lon="-0.47191">
        <ele>35.60127</ele>
        <time>2013-01-03T15:36:22Z</time>
      </trkpt>
      <trkpt lat="46.37029" lon="-0.472">
        <ele>35.60127</ele>
        <time>2013-01-03T15:36:27Z</time>
      </trkpt>
      <trkpt lat="46.37032" lon="-0.47207">
        <ele>36.136364</ele>
        <time>2013-01-03T15:36:32Z</time>
      </trkpt>
      <trkpt lat="46.37035" lon="-0.47204">
        <ele>36.136364</ele>
        <time>2013-01-03T15:36:37Z</time>
      </trkpt>
      <trkpt lat="46.37039" lon="-0.47206">
        <ele>36.136364</ele>
        <time>2013-01-03T15:36:42Z</time>
      </trkpt>
      <trkpt lat="46.37045" lon="-0.47212">
        <ele>36.269547</ele>
        <time>2013-01-03T15:36:47Z</time>
      </trkpt>
      <trkpt lat="46.37051" lon="-0.47218">
        <ele>36.269547</ele>
        <time>2013-01-03T15:36:52Z</time>
      </trkpt>
      <trkpt lat="46.37054" lon="-0.4722">
        <ele>37.06685</ele>
        <time>2013-01-03T15:36:57Z</time>
      </trkpt>
      <trkpt lat="46.3706" lon="-0.47218">
        <ele>37.06685</ele>
        <time>2013-01-03T15:37:02Z</time>
      </trkpt>
      <trkpt lat="46.37064" lon="-0.47219">
        <ele>37.698338</ele>
        <time>2013-01-03T15:37:07Z</time>
      </trkpt>
      <trkpt lat="46.37065" lon="-0.47223">
        <ele>37.698338</ele>
        <time>2013-01-03T15:37:12Z</time>
      </trkpt>
      <trkpt lat="46.37067" lon="-0.47229">
        <ele>37.698338</ele>
        <time>2013-01-03T15:37:17Z</time>
      </trkpt>
      <trkpt lat="46.37068" lon="-0.47234">
        <ele>38.4908</ele>
        <time>2013-01-03T15:37:22Z</time>
      </trkpt>
      <trkpt lat="46.37068" lon="-0.4724">
        <ele>38.4908</ele>
        <time>2013-01-03T15:37:27Z</time>
      </trkpt>
      <trkpt lat="46.3707" lon="-0.47246">
        <ele>38.4908</ele>
        <time>2013-01-03T15:37:32Z</time>
      </trkpt>
      <trkpt lat="46.37072" lon="-0.47253">
        <ele>39.184555</ele>
        <time>2013-01-03T15:37:37Z</time>
      </trkpt>
      <trkpt lat="46.37073" lon="-0.47259">
        <ele>39.184555</ele>
        <time>2013-01-03T15:37:42Z</time>
      </trkpt>
      <trkpt lat="46.37074" lon="-0.4726">
        <ele>39.184555</ele>
        <time>2013-01-03T15:37:47Z</time>
      </trkpt>
      <trkpt lat="46.37077" lon="-0.47277">
        <ele>39.942837</ele>
        <time>2013-01-03T15:37:52Z</time>
      </trkpt>
      <trkpt lat="46.37081" lon="-0.47281">
        <ele>39.942837</ele>
        <time>2013-01-03T15:37:57Z</time>
      </trkpt>
      <trkpt lat="46.37083" lon="-0.47295">
        <ele>40.801453</ele>
        <time>2013-01-03T15:38:02Z</time>
      </trkpt>
      <trkpt lat="46.37083" lon="-0.473">
        <ele>40.801453</ele>
        <time>2013-01-03T15:38:07Z</time>
      </trkpt>
      <trkpt lat="46.37087" lon="-0.47304">
        <ele>40.801453</ele>
        <time>2013-01-03T15:38:12Z</time>
      </trkpt>
      <trkpt lat="46.37088" lon="-0.47309">
        <ele>41.303383</ele>
        <time>2013-01-03T15:38:17Z</time>
      </trkpt>
      <trkpt lat="46.3709" lon="-0.47314">
        <ele>41.303383</ele>
        <time>2013-01-03T15:38:22Z</time>
      </trkpt>
      <trkpt lat="46.37093" lon="-0.47318">
        <ele>41.303383</ele>
        <time>2013-01-03T15:38:27Z</time>
      </trkpt>
      <trkpt lat="46.37095" lon="-0.47331">
        <ele>42.063824</ele>
        <time>2013-01-03T15:38:32Z</time>
      </trkpt>
      <trkpt lat="46.37097" lon="-0.47341">
        <ele>42.063824</ele>
        <time>2013-01-03T15:38:37Z</time>
      </trkpt>
      <trkpt lat="46.37097" lon="-0.47346">
        <ele>42.81627</ele>
        <time>2013-01-03T15:38:42Z</time>
      </trkpt>
      <trkpt lat="46.37101" lon="-0.4735">
        <ele>42.81627</ele>
        <time>2013-01-03T15:38:47Z</time>
      </trkpt>
      <trkpt lat="46.37103" lon="-0.47357">
        <ele>43.270645</ele>
        <time>2013-01-03T15:38:52Z</time>
      </trkpt>
      <trkpt lat="46.37106" lon="-0.47367">
        <ele>43.270645</ele>
        <time>2013-01-03T15:38:57Z</time>
      </trkpt>
      <trkpt lat="46.3711" lon="-0.47374">
        <ele>44.00933</ele>
        <time>2013-01-03T15:39:02Z</time>
      </trkpt>
      <trkpt lat="46.37115" lon="-0.47384">
        <ele>44.00933</ele>
        <time>2013-01-03T15:39:07Z</time>
      </trkpt>
      <trkpt lat="46.37118" lon="-0.47389">
        <ele>44.69212</ele>
        <time>2013-01-03T15:39:12Z</time>
      </trkpt>
      <trkpt lat="46.3712" lon="-0.47396">
        <ele>44.69212</ele>
        <time>2013-01-03T15:39:17Z</time>
      </trkpt>
      <trkpt lat="46.37122" lon="-0.47403">
        <ele>45.292236</ele>
        <time>2013-01-03T15:39:22Z</time>
      </trkpt>
      <trkpt lat="46.37125" lon="-0.47409">
        <ele>45.292236</ele>
        <time>2013-01-03T15:39:27Z</time>
      </trkpt>
      <trkpt lat="46.3713" lon="-0.4742">
        <ele>46.00133</ele>
        <time>2013-01-03T15:39:32Z</time>
      </trkpt>
      <trkpt lat="46.37133" lon="-0.47425">
        <ele>46.00133</ele>
        <time>2013-01-03T15:39:37Z</time>
      </trkpt>
      <trkpt lat="46.37134" lon="-0.4743">
        <ele>46.00133</ele>
        <time>2013-01-03T15:39:42Z</time>
      </trkpt>
      <trkpt lat="46.37135" lon="-0.47431">
        <ele>46.665295</ele>
        <time>2013-01-03T15:39:47Z</time>
      </trkpt>
      <trkpt lat="46.37135" lon="-0.47436">
        <ele>46.665295</ele>
        <time>2013-01-03T15:39:52Z</time>
      </trkpt>
      <trkpt lat="46.3713" lon="-0.4744">
        <ele>47.314453</ele>
        <time>2013-01-03T15:39:57Z</time>
      </trkpt>
      <trkpt lat="46.37125" lon="-0.47442">
        <ele>47.314453</ele>
        <time>2013-01-03T15:40:02Z</time>
      </trkpt>
      <trkpt lat="46.37123" lon="-0.47445">
        <ele>47.314453</ele>
        <time>2013-01-03T15:40:07Z</time>
      </trkpt>
      <trkpt lat="46.37119" lon="-0.47453">
        <ele>48.03466</ele>
        <time>2013-01-03T15:40:12Z</time>
      </trkpt>
      <trkpt lat="46.37115" lon="-0.47459">
        <ele>48.03466</ele>
        <time>2013-01-03T15:40:17Z</time>
      </trkpt>
      <trkpt lat="46.37111" lon="-0.47463">
        <ele>48.732407</ele>
        <time>2013-01-03T15:40:22Z</time>
      </trkpt>
      <trkpt lat="46.3711" lon="-0.47464">
        <ele>48.732407</ele>
        <time>2013-01-03T15:40:27Z</time>
      </trkpt>
      <trkpt lat="46.37106" lon="-0.47469">
        <ele>48.732407</ele>
        <time>2013-01-03T15:40:32Z</time>
      </trkpt>
      <trkpt lat="46.37106" lon="-0.47476">
        <ele>49.234703</ele>
        <time>2013-01-03T15:40:37Z</time>
      </trkpt>
      <trkpt lat="46.37103" lon="-0.47478">
        <ele>49.234703</ele>
        <time>2013-01-03T15:40:42Z</time>
      </trkpt>
      <trkpt lat="46.37101" lon="-0.47479">
        <ele>49.234703</ele>
        <time>2013-01-03T15:40:47Z</time>
      </trkpt>
      <trkpt lat="46.37095" lon="-0.4749">
        <ele>49.871876</ele>
        <time>2013-01-03T15:40:52Z</time>
      </trkpt>
      <trkpt lat="46.37093" lon="-0.47495">
        <ele>49.871876</ele>
        <time>2013-01-03T15:40:57Z</time>
      </trkpt>
      <trkpt lat="46.3709" lon="-0.47501">
        <ele>50.37321</ele>
        <time>2013-01-03T15:41:02Z</time>
      </trkpt>
      <trkpt lat="46.37089" lon="-0.47506">
        <ele>50.37321</ele>
        <time>2013-01-03T15:41:07Z</time>
      </trkpt>
      <trkpt lat="46.37086" lon="-0.47511">
        <ele>50.37321</ele>
        <time>2013-01-03T15:41:12Z</time>
      </trkpt>
      <trkpt lat="46.37081" lon="-0.47513">
        <ele>50.71892</ele>
        <time>2013-01-03T15:41:17Z</time>
      </trkpt>
      <trkpt lat="46.37078" lon="-0.47516">
        <ele>50.71892</ele>
        <time>2013-01-03T15:41:22Z</time>
      </trkpt>
      <trkpt lat="46.37072" lon="-0.47517">
        <ele>50.790283</ele>
        <time>2013-01-03T15:41:27Z</time>
      </trkpt>
      <trkpt lat="46.37068" lon="-0.47522">
        <ele>50.790283</ele>
        <time>2013-01-03T15:41:32Z</time>
      </trkpt>
      <trkpt lat="46.37066" lon="-0.47526">
        <ele>50.790283</ele>
        <time>2013-01-03T15:41:37Z</time>
      </trkpt>
      <trkpt lat="46.37064" lon="-0.47528">
        <ele>51.22751</ele>
        <time>2013-01-03T15:41:42Z</time>
      </trkpt>
      <trkpt lat="46.37059" lon="-0.47529">
        <ele>51.22751</ele>
        <time>2013-01-03T15:41:47Z</time>
      </trkpt>
      <trkpt lat="46.37055" lon="-0.47528">
        <ele>51.412266</ele>
        <time>2013-01-03T15:41:52Z</time>
      </trkpt>
      <trkpt lat="46.3705" lon="-0.47529">
        <ele>51.412266</ele>
        <time>2013-01-03T15:41:57Z</time>
      </trkpt>
      <trkpt lat="46.37046" lon="-0.47531">
        <ele>51.5362</ele>
        <time>2013-01-03T15:42:02Z</time>
      </trkpt>
      <trkpt lat="46.37041" lon="-0.47531">
        <ele>51.5362</ele>
        <time>2013-01-03T15:42:07Z</time>
      </trkpt>
      <trkpt lat="46.37035" lon="-0.47529">
        <ele>51.54652</ele>
        <time>2013-01-03T15:42:12Z</time>
      </trkpt>
      <trkpt lat="46.37028" lon="-0.47528">
        <ele>51.54652</ele>
        <time>2013-01-03T15:42:17Z</time>
      </trkpt>
      <trkpt lat="46.37023" lon="-0.47527">
        <ele>51.654064</ele>
        <time>2013-01-03T15:42:22Z</time>
      </trkpt>
      <trkpt lat="46.37019" lon="-0.47527">
        <ele>51.654064</ele>
        <time>2013-01-03T15:42:27Z</time>
      </trkpt>
      <trkpt lat="46.37014" lon="-0.47527">
        <ele>51.362225</ele>
        <time>2013-01-03T15:42:32Z</time>
      </trkpt>
      <trkpt lat="46.37009" lon="-0.47527">
        <ele>51.362225</ele>
        <time>2013-01-03T15:42:37Z</time>
      </trkpt>
      <trkpt lat="46.37005" lon="-0.47528">
        <ele>51.362225</ele>
        <time>2013-01-03T15:42:42Z</time>
      </trkpt>
      <trkpt lat="46.37" lon="-0.4753">
        <ele>50.975803</ele>
        <time>2013-01-03T15:42:47Z</time>
      </trkpt>
      <trkpt lat="46.36994" lon="-0.47531">
        <ele>50.975803</ele>
        <time>2013-01-03T15:42:52Z</time>
      </trkpt>
      <trkpt lat="46.36989" lon="-0.47532">
        <ele>50.618984</ele>
        <time>2013-01-03T15:42:57Z</time>
      </trkpt>
      <trkpt lat="46.36984" lon="-0.47535">
        <ele>50.618984</ele>
        <time>2013-01-03T15:43:02Z</time>
      </trkpt>
      <trkpt lat="46.36979" lon="-0.47538">
        <ele>50.334713</ele>
        <time>2013-01-03T15:43:07Z</time>
      </trkpt>
      <trkpt lat="46.36975" lon="-0.47541">
        <ele>50.334713</ele>
        <time>2013-01-03T15:43:12Z</time>
      </trkpt>
      <trkpt lat="46.3697" lon="-0.47543">
        <ele>50.018467</ele>
        <time>2013-01-03T15:43:17Z</time>
      </trkpt>
      <trkpt lat="46.36966" lon="-0.47544">
        <ele>50.018467</ele>
        <time>2013-01-03T15:43:22Z</time>
      </trkpt>
      <trkpt lat="46.36963" lon="-0.47548">
        <ele>50.018467</ele>
        <time>2013-01-03T15:43:27Z</time>
      </trkpt>
      <trkpt lat="46.36958" lon="-0.47552">
        <ele>49.50145</ele>
        <time>2013-01-03T15:43:32Z</time>
      </trkpt>
      <trkpt lat="46.36954" lon="-0.47556">
        <ele>49.50145</ele>
        <time>2013-01-03T15:43:37Z</time>
      </trkpt>
      <trkpt lat="46.36952" lon="-0.4756">
        <ele>49.50145</ele>
        <time>2013-01-03T15:43:42Z</time>
      </trkpt>
      <trkpt lat="46.36949" lon="-0.47562">
        <ele>48.88722</ele>
        <time>2013-01-03T15:43:47Z</time>
      </trkpt>
      <trkpt lat="46.36947" lon="-0.4756">
        <ele>48.88722</ele>
        <time>2013-01-03T15:43:52Z</time>
      </trkpt>
      <trkpt lat="46.36944" lon="-0.47563">
        <ele>48.88722</ele>
        <time>2013-01-03T15:43:57Z</time>
      </trkpt>
      <trkpt lat="46.3694" lon="-0.47566">
        <ele>48.070232</ele>
        <time>2013-01-03T15:44:02Z</time>
      </trkpt>
      <trkpt lat="46.36936" lon="-0.47573">
        <ele>48.070232</ele>
        <time>2013-01-03T15:44:07Z</time>
      </trkpt>
      <trkpt lat="46.36934" lon="-0.47578">
        <ele>47.19825</ele>
        <time>2013-01-03T15:44:12Z</time>
      </trkpt>
      <trkpt lat="46.36929" lon="-0.47585">
        <ele>47.19825</ele>
        <time>2013-01-03T15:44:17Z</time>
      </trkpt>
      <trkpt lat="46.36922" lon="-0.47592">
        <ele>47.02798</ele>
        <time>2013-01-03T15:44:22Z</time>
      </trkpt>
      <trkpt lat="46.36919" lon="-0.47596">
        <ele>47.02798</ele>
        <time>2013-01-03T15:44:27Z</time>
      </trkpt>
      <trkpt lat="46.36916" lon="-0.47601">
        <ele>46.932724</ele>
        <time>2013-01-03T15:44:32Z</time>
      </trkpt>
      <trkpt lat="46.36913" lon="-0.47605">
        <ele>46.932724</ele>
        <time>2013-01-03T15:44:37Z</time>
      </trkpt>
      <trkpt lat="46.36911" lon="-0.47611">
        <ele>46.932724</ele>
        <time>2013-01-03T15:44:42Z</time>
      </trkpt>
      <trkpt lat="46.36911" lon="-0.4761">
        <ele>46.932724</ele>
        <time>2013-01-03T15:44:47Z</time>
      </trkpt>
      <trkpt lat="46.36911" lon="-0.47611">
        <ele>46.835968</ele>
        <time>2013-01-03T15:44:52Z</time>
      </trkpt>
      <trkpt lat="46.3691" lon="-0.47612">
        <ele>46.835968</ele>
        <time>2013-01-03T15:44:57Z</time>
      </trkpt>
      <trkpt lat="46.3691" lon="-0.47612">
        <ele>46.835968</ele>
        <time>2013-01-03T15:45:07Z</time>
      </trkpt>
      <trkpt lat="46.3691" lon="-0.47614">
        <ele>46.835968</ele>
        <time>2013-01-03T15:45:12Z</time>
      </trkpt>
      <trkpt lat="46.36907" lon="-0.47615">
        <ele>46.835968</ele>
        <time>2013-01-03T15:45:17Z</time>
      </trkpt>
      <trkpt lat="46.36905" lon="-0.47617">
        <ele>46.835968</ele>
        <time>2013-01-03T15:45:22Z</time>
      </trkpt>
      <trkpt lat="46.36904" lon="-0.47618">
        <ele>46.796494</ele>
        <time>2013-01-03T15:45:27Z</time>
      </trkpt>
      <trkpt lat="46.36903" lon="-0.47619">
        <ele>46.796494</ele>
        <time>2013-01-03T15:45:37Z</time>
      </trkpt>
      <trkpt lat="46.36903" lon="-0.47619">
        <ele>46.796494</ele>
        <time>2013-01-03T15:45:57Z</time>
      </trkpt>
      <trkpt lat="46.36903" lon="-0.47619">
        <ele>46.796494</ele>
        <time>2013-01-03T15:46:02Z</time>
      </trkpt>
      <trkpt lat="46.36903" lon="-0.47619">
        <ele>46.796494</ele>
        <time>2013-01-03T15:46:07Z</time>
      </trkpt>
      <trkpt lat="46.36903" lon="-0.4762">
        <ele>46.796494</ele>
        <time>2013-01-03T15:46:37Z</time>
      </trkpt>
      <trkpt lat="46.36903" lon="-0.4762">
        <ele>46.796494</ele>
        <time>2013-01-03T15:46:42Z</time>
      </trkpt>
      <trkpt lat="46.369" lon="-0.47625">
        <ele>46.796494</ele>
        <time>2013-01-03T15:46:47Z</time>
      </trkpt>
      <trkpt lat="46.36898" lon="-0.47632">
        <ele>46.911793</ele>
        <time>2013-01-03T15:46:52Z</time>
      </trkpt>
      <trkpt lat="46.36895" lon="-0.47633">
        <ele>46.911793</ele>
        <time>2013-01-03T15:46:57Z</time>
      </trkpt>
      <trkpt lat="46.36895" lon="-0.47633">
        <ele>46.911793</ele>
        <time>2013-01-03T15:48:27Z</time>
      </trkpt>
      <trkpt lat="46.36895" lon="-0.47633">
        <ele>46.911793</ele>
        <time>2013-01-03T15:48:37Z</time>
      </trkpt>
      <trkpt lat="46.36896" lon="-0.47635">
        <ele>46.911793</ele>
        <time>2013-01-03T15:48:47Z</time>
      </trkpt>
      <trkpt lat="46.36896" lon="-0.47636">
        <ele>46.911793</ele>
        <time>2013-01-03T15:48:52Z</time>
      </trkpt>
      <trkpt lat="46.36896" lon="-0.47636">
        <ele>46.911793</ele>
        <time>2013-01-03T15:48:57Z</time>
      </trkpt>
      <trkpt lat="46.36894" lon="-0.47636">
        <ele>46.911793</ele>
        <time>2013-01-03T15:49:12Z</time>
      </trkpt>
      <trkpt lat="46.36895" lon="-0.47637">
        <ele>46.911793</ele>
        <time>2013-01-03T15:49:17Z</time>
      </trkpt>
      <trkpt lat="46.36894" lon="-0.47637">
        <ele>47.185272</ele>
        <time>2013-01-03T15:49:22Z</time>
      </trkpt>
      <trkpt lat="46.36894" lon="-0.47636">
        <ele>47.185272</ele>
        <time>2013-01-03T15:49:27Z</time>
      </trkpt>
      <trkpt lat="46.36894" lon="-0.47635">
        <ele>47.185272</ele>
        <time>2013-01-03T15:49:32Z</time>
      </trkpt>
      <trkpt lat="46.36892" lon="-0.47635">
        <ele>47.185272</ele>
        <time>2013-01-03T15:50:02Z</time>
      </trkpt>
      <trkpt lat="46.36893" lon="-0.47635">
        <ele>47.185272</ele>
        <time>2013-01-03T15:50:07Z</time>
      </trkpt>
      <trkpt lat="46.36893" lon="-0.47636">
        <ele>47.185272</ele>
        <time>2013-01-03T15:50:12Z</time>
      </trkpt>
      <trkpt lat="46.36891" lon="-0.47638">
        <ele>47.185272</ele>
        <time>2013-01-03T15:51:02Z</time>
      </trkpt>
      <trkpt lat="46.36887" lon="-0.47645">
        <ele>47.619602</ele>
        <time>2013-01-03T15:51:12Z</time>
      </trkpt>
      <trkpt lat="46.36883" lon="-0.4765">
        <ele>47.619602</ele>
        <time>2013-01-03T15:51:17Z</time>
      </trkpt>
      <trkpt lat="46.36878" lon="-0.47652">
        <ele>48.1015</ele>
        <time>2013-01-03T15:51:22Z</time>
      </trkpt>
      <trkpt lat="46.36875" lon="-0.47657">
        <ele>48.1015</ele>
        <time>2013-01-03T15:51:27Z</time>
      </trkpt>
      <trkpt lat="46.36873" lon="-0.47659">
        <ele>48.1015</ele>
        <time>2013-01-03T15:51:32Z</time>
      </trkpt>
      <trkpt lat="46.36868" lon="-0.47663">
        <ele>48.46819</ele>
        <time>2013-01-03T15:51:37Z</time>
      </trkpt>
      <trkpt lat="46.36863" lon="-0.47668">
        <ele>48.46819</ele>
        <time>2013-01-03T15:51:42Z</time>
      </trkpt>
      <trkpt lat="46.36855" lon="-0.47675">
        <ele>49.678814</ele>
        <time>2013-01-03T15:51:47Z</time>
      </trkpt>
      <trkpt lat="46.3685" lon="-0.4768">
        <ele>49.678814</ele>
        <time>2013-01-03T15:51:52Z</time>
      </trkpt>
      <trkpt lat="46.36845" lon="-0.47685">
        <ele>51.19298</ele>
        <time>2013-01-03T15:51:57Z</time>
      </trkpt>
      <trkpt lat="46.3684" lon="-0.4769">
        <ele>51.19298</ele>
        <time>2013-01-03T15:52:02Z</time>
      </trkpt>
      <trkpt lat="46.36837" lon="-0.47695">
        <ele>52.379425</ele>
        <time>2013-01-03T15:52:07Z</time>
      </trkpt>
      <trkpt lat="46.36831" lon="-0.477">
        <ele>52.379425</ele>
        <time>2013-01-03T15:52:12Z</time>
      </trkpt>
      <trkpt lat="46.36828" lon="-0.47704">
        <ele>53.288277</ele>
        <time>2013-01-03T15:52:17Z</time>
      </trkpt>
      <trkpt lat="46.36821" lon="-0.47706">
        <ele>53.288277</ele>
        <time>2013-01-03T15:52:22Z</time>
      </trkpt>
      <trkpt lat="46.36815" lon="-0.47712">
        <ele>54.226154</ele>
        <time>2013-01-03T15:52:27Z</time>
      </trkpt>
      <trkpt lat="46.36811" lon="-0.47719">
        <ele>54.226154</ele>
        <time>2013-01-03T15:52:32Z</time>
      </trkpt>
      <trkpt lat="46.36807" lon="-0.47724">
        <ele>55.174473</ele>
        <time>2013-01-03T15:52:37Z</time>
      </trkpt>
      <trkpt lat="46.36807" lon="-0.47726">
        <ele>55.174473</ele>
        <time>2013-01-03T15:52:42Z</time>
      </trkpt>
      <trkpt lat="46.36801" lon="-0.47727">
        <ele>55.174473</ele>
        <time>2013-01-03T15:52:47Z</time>
      </trkpt>
      <trkpt lat="46.36795" lon="-0.47733">
        <ele>55.654835</ele>
        <time>2013-01-03T15:52:52Z</time>
      </trkpt>
      <trkpt lat="46.3679" lon="-0.47735">
        <ele>55.654835</ele>
        <time>2013-01-03T15:52:57Z</time>
      </trkpt>
      <trkpt lat="46.36786" lon="-0.47739">
        <ele>56.277332</ele>
        <time>2013-01-03T15:53:02Z</time>
      </trkpt>
      <trkpt lat="46.3678" lon="-0.47743">
        <ele>56.277332</ele>
        <time>2013-01-03T15:53:07Z</time>
      </trkpt>
      <trkpt lat="46.36774" lon="-0.47748">
        <ele>57.462772</ele>
        <time>2013-01-03T15:53:12Z</time>
      </trkpt>
      <trkpt lat="46.36769" lon="-0.47751">
        <ele>57.462772</ele>
        <time>2013-01-03T15:53:17Z</time>
      </trkpt>
      <trkpt lat="46.36766" lon="-0.47758">
        <ele>58.21601</ele>
        <time>2013-01-03T15:53:22Z</time>
      </trkpt>
      <trkpt lat="46.3676" lon="-0.47763">
        <ele>58.21601</ele>
        <time>2013-01-03T15:53:27Z</time>
      </trkpt>
      <trkpt lat="46.36758" lon="-0.47767">
        <ele>59.302372</ele>
        <time>2013-01-03T15:53:32Z</time>
      </trkpt>
      <trkpt lat="46.36753" lon="-0.47772">
        <ele>59.302372</ele>
        <time>2013-01-03T15:53:37Z</time>
      </trkpt>
      <trkpt lat="46.36748" lon="-0.47779">
        <ele>60.33481</ele>
        <time>2013-01-03T15:53:42Z</time>
      </trkpt>
      <trkpt lat="46.36741" lon="-0.47782">
        <ele>60.33481</ele>
        <time>2013-01-03T15:53:47Z</time>
      </trkpt>
      <trkpt lat="46.36734" lon="-0.47786">
        <ele>61.444866</ele>
        <time>2013-01-03T15:53:52Z</time>
      </trkpt>
      <trkpt lat="46.36729" lon="-0.47791">
        <ele>61.444866</ele>
        <time>2013-01-03T15:53:57Z</time>
      </trkpt>
      <trkpt lat="46.36723" lon="-0.47793">
        <ele>62.36517</ele>
        <time>2013-01-03T15:54:02Z</time>
      </trkpt>
      <trkpt lat="46.36719" lon="-0.478">
        <ele>62.36517</ele>
        <time>2013-01-03T15:54:07Z</time>
      </trkpt>
      <trkpt lat="46.36711" lon="-0.47805">
        <ele>63.280876</ele>
        <time>2013-01-03T15:54:12Z</time>
      </trkpt>
      <trkpt lat="46.36706" lon="-0.47808">
        <ele>63.280876</ele>
        <time>2013-01-03T15:54:17Z</time>
      </trkpt>
      <trkpt lat="46.36701" lon="-0.4781">
        <ele>64.43568</ele>
        <time>2013-01-03T15:54:22Z</time>
      </trkpt>
      <trkpt lat="46.36696" lon="-0.47816">
        <ele>64.43568</ele>
        <time>2013-01-03T15:54:27Z</time>
      </trkpt>
      <trkpt lat="46.3669" lon="-0.47819">
        <ele>65.43504</ele>
        <time>2013-01-03T15:54:32Z</time>
      </trkpt>
      <trkpt lat="46.36685" lon="-0.47824">
        <ele>65.43504</ele>
        <time>2013-01-03T15:54:37Z</time>
      </trkpt>
      <trkpt lat="46.3668" lon="-0.47828">
        <ele>66.5192</ele>
        <time>2013-01-03T15:54:42Z</time>
      </trkpt>
      <trkpt lat="46.36676" lon="-0.47831">
        <ele>66.5192</ele>
        <time>2013-01-03T15:54:47Z</time>
      </trkpt>
      <trkpt lat="46.36672" lon="-0.47835">
        <ele>67.2188</ele>
        <time>2013-01-03T15:54:52Z</time>
      </trkpt>
      <trkpt lat="46.36667" lon="-0.47839">
        <ele>67.2188</ele>
        <time>2013-01-03T15:54:57Z</time>
      </trkpt>
      <trkpt lat="46.36661" lon="-0.47836">
        <ele>67.979195</ele>
        <time>2013-01-03T15:55:02Z</time>
      </trkpt>
      <trkpt lat="46.36657" lon="-0.4783">
        <ele>67.979195</ele>
        <time>2013-01-03T15:55:07Z</time>
      </trkpt>
      <trkpt lat="46.36654" lon="-0.47821">
        <ele>69.155235</ele>
        <time>2013-01-03T15:55:12Z</time>
      </trkpt>
      <trkpt lat="46.36651" lon="-0.47811">
        <ele>69.155235</ele>
        <time>2013-01-03T15:55:17Z</time>
      </trkpt>
      <trkpt lat="46.36649" lon="-0.47805">
        <ele>69.936134</ele>
        <time>2013-01-03T15:55:22Z</time>
      </trkpt>
      <trkpt lat="46.36648" lon="-0.47804">
        <ele>69.936134</ele>
        <time>2013-01-03T15:55:27Z</time>
      </trkpt>
      <trkpt lat="46.36647" lon="-0.47795">
        <ele>69.936134</ele>
        <time>2013-01-03T15:55:32Z</time>
      </trkpt>
      <trkpt lat="46.36647" lon="-0.47795">
        <ele>69.936134</ele>
        <time>2013-01-03T15:55:37Z</time>
      </trkpt>
      <trkpt lat="46.36646" lon="-0.4779">
        <ele>69.18273</ele>
        <time>2013-01-03T15:55:42Z</time>
      </trkpt>
      <trkpt lat="46.36645" lon="-0.47782">
        <ele>69.18273</ele>
        <time>2013-01-03T15:55:47Z</time>
      </trkpt>
      <trkpt lat="46.36642" lon="-0.47771">
        <ele>68.452286</ele>
        <time>2013-01-03T15:55:52Z</time>
      </trkpt>
      <trkpt lat="46.36639" lon="-0.47763">
        <ele>68.452286</ele>
        <time>2013-01-03T15:55:57Z</time>
      </trkpt>
      <trkpt lat="46.36638" lon="-0.47753">
        <ele>68.04918</ele>
        <time>2013-01-03T15:56:02Z</time>
      </trkpt>
      <trkpt lat="46.36635" lon="-0.47745">
        <ele>68.04918</ele>
        <time>2013-01-03T15:56:07Z</time>
      </trkpt>
      <trkpt lat="46.36633" lon="-0.47737">
        <ele>67.865425</ele>
        <time>2013-01-03T15:56:12Z</time>
      </trkpt>
      <trkpt lat="46.36631" lon="-0.4773">
        <ele>67.865425</ele>
        <time>2013-01-03T15:56:17Z</time>
      </trkpt>
      <trkpt lat="46.36626" lon="-0.47721">
        <ele>67.58422</ele>
        <time>2013-01-03T15:56:22Z</time>
      </trkpt>
      <trkpt lat="46.36624" lon="-0.47709">
        <ele>67.58422</ele>
        <time>2013-01-03T15:56:27Z</time>
      </trkpt>
      <trkpt lat="46.36625" lon="-0.47706">
        <ele>67.04201</ele>
        <time>2013-01-03T15:56:32Z</time>
      </trkpt>
      <trkpt lat="46.36623" lon="-0.47699">
        <ele>67.04201</ele>
        <time>2013-01-03T15:56:37Z</time>
      </trkpt>
      <trkpt lat="46.36621" lon="-0.47692">
        <ele>66.52031</ele>
        <time>2013-01-03T15:56:42Z</time>
      </trkpt>
      <trkpt lat="46.36619" lon="-0.47685">
        <ele>66.52031</ele>
        <time>2013-01-03T15:56:47Z</time>
      </trkpt>
      <trkpt lat="46.36616" lon="-0.47677">
        <ele>66.19345</ele>
        <time>2013-01-03T15:56:52Z</time>
      </trkpt>
      <trkpt lat="46.36613" lon="-0.47671">
        <ele>66.19345</ele>
        <time>2013-01-03T15:56:57Z</time>
      </trkpt>
      <trkpt lat="46.36611" lon="-0.47663">
        <ele>65.73239</ele>
        <time>2013-01-03T15:57:02Z</time>
      </trkpt>
      <trkpt lat="46.3661" lon="-0.47656">
        <ele>65.73239</ele>
        <time>2013-01-03T15:57:07Z</time>
      </trkpt>
      <trkpt lat="46.36608" lon="-0.47648">
        <ele>65.19291</ele>
        <time>2013-01-03T15:57:12Z</time>
      </trkpt>
      <trkpt lat="46.36607" lon="-0.47643">
        <ele>65.19291</ele>
        <time>2013-01-03T15:57:17Z</time>
      </trkpt>
      <trkpt lat="46.36604" lon="-0.47638">
        <ele>65.19291</ele>
        <time>2013-01-03T15:57:22Z</time>
      </trkpt>
      <trkpt lat="46.36602" lon="-0.47631">
        <ele>64.00719</ele>
        <time>2013-01-03T15:57:27Z</time>
      </trkpt>
      <trkpt lat="46.36601" lon="-0.47625">
        <ele>64.00719</ele>
        <time>2013-01-03T15:57:32Z</time>
      </trkpt>
      <trkpt lat="46.366" lon="-0.47618">
        <ele>64.00719</ele>
        <time>2013-01-03T15:57:37Z</time>
      </trkpt>
      <trkpt lat="46.36597" lon="-0.4761">
        <ele>62.875847</ele>
        <time>2013-01-03T15:57:42Z</time>
      </trkpt>
      <trkpt lat="46.36596" lon="-0.47604">
        <ele>62.875847</ele>
        <time>2013-01-03T15:57:47Z</time>
      </trkpt>
      <trkpt lat="46.36596" lon="-0.47603">
        <ele>62.875847</ele>
        <time>2013-01-03T15:57:52Z</time>
      </trkpt>
      <trkpt lat="46.36596" lon="-0.47604">
        <ele>62.875847</ele>
        <time>2013-01-03T15:57:57Z</time>
      </trkpt>
      <trkpt lat="46.36594" lon="-0.47596">
        <ele>62.404617</ele>
        <time>2013-01-03T15:58:02Z</time>
      </trkpt>
      <trkpt lat="46.36594" lon="-0.4759">
        <ele>62.404617</ele>
        <time>2013-01-03T15:58:07Z</time>
      </trkpt>
      <trkpt lat="46.36594" lon="-0.47582">
        <ele>61.682877</ele>
        <time>2013-01-03T15:58:12Z</time>
      </trkpt>
      <trkpt lat="46.36591" lon="-0.47578">
        <ele>61.682877</ele>
        <time>2013-01-03T15:58:17Z</time>
      </trkpt>
      <trkpt lat="46.36589" lon="-0.47568">
        <ele>61.308662</ele>
        <time>2013-01-03T15:58:22Z</time>
      </trkpt>
      <trkpt lat="46.36586" lon="-0.47562">
        <ele>61.308662</ele>
        <time>2013-01-03T15:58:27Z</time>
      </trkpt>
      <trkpt lat="46.36585" lon="-0.47552">
        <ele>60.94156</ele>
        <time>2013-01-03T15:58:32Z</time>
      </trkpt>
      <trkpt lat="46.36582" lon="-0.47549">
        <ele>60.94156</ele>
        <time>2013-01-03T15:58:37Z</time>
      </trkpt>
      <trkpt lat="46.36581" lon="-0.47541">
        <ele>60.13636</ele>
        <time>2013-01-03T15:58:42Z</time>
      </trkpt>
      <trkpt lat="46.3658" lon="-0.47534">
        <ele>60.13636</ele>
        <time>2013-01-03T15:58:48Z</time>
      </trkpt>
      <trkpt lat="46.36578" lon="-0.47525">
        <ele>59.30316</ele>
        <time>2013-01-03T15:58:52Z</time>
      </trkpt>
      <trkpt lat="46.36575" lon="-0.47517">
        <ele>59.30316</ele>
        <time>2013-01-03T15:58:57Z</time>
      </trkpt>
      <trkpt lat="46.36573" lon="-0.4751">
        <ele>58.461662</ele>
        <time>2013-01-03T15:59:02Z</time>
      </trkpt>
      <trkpt lat="46.36571" lon="-0.47505">
        <ele>58.461662</ele>
        <time>2013-01-03T15:59:07Z</time>
      </trkpt>
      <trkpt lat="46.36567" lon="-0.47495">
        <ele>57.94711</ele>
        <time>2013-01-03T15:59:12Z</time>
      </trkpt>
      <trkpt lat="46.36567" lon="-0.47487">
        <ele>57.94711</ele>
        <time>2013-01-03T15:59:17Z</time>
      </trkpt>
      <trkpt lat="46.36566" lon="-0.4748">
        <ele>57.16122</ele>
        <time>2013-01-03T15:59:22Z</time>
      </trkpt>
      <trkpt lat="46.36564" lon="-0.47476">
        <ele>57.16122</ele>
        <time>2013-01-03T15:59:27Z</time>
      </trkpt>
      <trkpt lat="46.36563" lon="-0.47469">
        <ele>57.16122</ele>
        <time>2013-01-03T15:59:32Z</time>
      </trkpt>
      <trkpt lat="46.36562" lon="-0.4746">
        <ele>55.881805</ele>
        <time>2013-01-03T15:59:37Z</time>
      </trkpt>
      <trkpt lat="46.36561" lon="-0.47453">
        <ele>55.881805</ele>
        <time>2013-01-03T15:59:42Z</time>
      </trkpt>
      <trkpt lat="46.3656" lon="-0.47445">
        <ele>54.927475</ele>
        <time>2013-01-03T15:59:47Z</time>
      </trkpt>
      <trkpt lat="46.36557" lon="-0.47436">
        <ele>54.927475</ele>
        <time>2013-01-03T15:59:52Z</time>
      </trkpt>
      <trkpt lat="46.36556" lon="-0.47431">
        <ele>53.917236</ele>
        <time>2013-01-03T15:59:57Z</time>
      </trkpt>
      <trkpt lat="46.36554" lon="-0.47423">
        <ele>53.917236</ele>
        <time>2013-01-03T16:00:02Z</time>
      </trkpt>
      <trkpt lat="46.36552" lon="-0.47415">
        <ele>52.9593</ele>
        <time>2013-01-03T16:00:07Z</time>
      </trkpt>
      <trkpt lat="46.36552" lon="-0.47408">
        <ele>52.9593</ele>
        <time>2013-01-03T16:00:12Z</time>
      </trkpt>
      <trkpt lat="46.36551" lon="-0.47401">
        <ele>51.98075</ele>
        <time>2013-01-03T16:00:17Z</time>
      </trkpt>
      <trkpt lat="46.3655" lon="-0.47393">
        <ele>51.98075</ele>
        <time>2013-01-03T16:00:22Z</time>
      </trkpt>
      <trkpt lat="46.3655" lon="-0.47384">
        <ele>51.10134</ele>
        <time>2013-01-03T16:00:27Z</time>
      </trkpt>
      <trkpt lat="46.3655" lon="-0.47376">
        <ele>51.10134</ele>
        <time>2013-01-03T16:00:32Z</time>
      </trkpt>
      <trkpt lat="46.36545" lon="-0.4737">
        <ele>50.316364</ele>
        <time>2013-01-03T16:00:37Z</time>
      </trkpt>
      <trkpt lat="46.36543" lon="-0.47361">
        <ele>50.316364</ele>
        <time>2013-01-03T16:00:42Z</time>
      </trkpt>
      <trkpt lat="46.36542" lon="-0.47357">
        <ele>49.83725</ele>
        <time>2013-01-03T16:00:47Z</time>
      </trkpt>
      <trkpt lat="46.36541" lon="-0.47349">
        <ele>49.83725</ele>
        <time>2013-01-03T16:00:52Z</time>
      </trkpt>
      <trkpt lat="46.36537" lon="-0.47343">
        <ele>49.44104</ele>
        <time>2013-01-03T16:00:57Z</time>
      </trkpt>
      <trkpt lat="46.36533" lon="-0.47336">
        <ele>49.44104</ele>
        <time>2013-01-03T16:01:02Z</time>
      </trkpt>
      <trkpt lat="46.36531" lon="-0.47329">
        <ele>49.093742</ele>
        <time>2013-01-03T16:01:07Z</time>
      </trkpt>
      <trkpt lat="46.36528" lon="-0.47321">
        <ele>49.093742</ele>
        <time>2013-01-03T16:01:12Z</time>
      </trkpt>
      <trkpt lat="46.36527" lon="-0.47315">
        <ele>48.763653</ele>
        <time>2013-01-03T16:01:17Z</time>
      </trkpt>
      <trkpt lat="46.36525" lon="-0.47309">
        <ele>48.763653</ele>
        <time>2013-01-03T16:01:22Z</time>
      </trkpt>
      <trkpt lat="46.36528" lon="-0.47304">
        <ele>47.743927</ele>
        <time>2013-01-03T16:01:27Z</time>
      </trkpt>
      <trkpt lat="46.36521" lon="-0.47302">
        <ele>47.743927</ele>
        <time>2013-01-03T16:01:32Z</time>
      </trkpt>
      <trkpt lat="46.36517" lon="-0.47305">
        <ele>46.966724</ele>
        <time>2013-01-03T16:01:37Z</time>
      </trkpt>
      <trkpt lat="46.36513" lon="-0.47306">
        <ele>46.966724</ele>
        <time>2013-01-03T16:01:42Z</time>
      </trkpt>
      <trkpt lat="46.36508" lon="-0.4731">
        <ele>46.51677</ele>
        <time>2013-01-03T16:01:47Z</time>
      </trkpt>
      <trkpt lat="46.36505" lon="-0.47313">
        <ele>46.51677</ele>
        <time>2013-01-03T16:01:52Z</time>
      </trkpt>
      <trkpt lat="46.365" lon="-0.47316">
        <ele>45.981583</ele>
        <time>2013-01-03T16:01:57Z</time>
      </trkpt>
      <trkpt lat="46.36495" lon="-0.47316">
        <ele>45.981583</ele>
        <time>2013-01-03T16:02:02Z</time>
      </trkpt>
      <trkpt lat="46.36488" lon="-0.47321">
        <ele>46.031162</ele>
        <time>2013-01-03T16:02:07Z</time>
      </trkpt>
      <trkpt lat="46.36482" lon="-0.47322">
        <ele>46.031162</ele>
        <time>2013-01-03T16:02:12Z</time>
      </trkpt>
      <trkpt lat="46.36478" lon="-0.47325">
        <ele>46.592854</ele>
        <time>2013-01-03T16:02:17Z</time>
      </trkpt>
      <trkpt lat="46.36476" lon="-0.47328">
        <ele>46.592854</ele>
        <time>2013-01-03T16:02:22Z</time>
      </trkpt>
      <trkpt lat="46.36472" lon="-0.4733">
        <ele>46.592854</ele>
        <time>2013-01-03T16:02:27Z</time>
      </trkpt>
      <trkpt lat="46.36464" lon="-0.47334">
        <ele>47.324017</ele>
        <time>2013-01-03T16:02:32Z</time>
      </trkpt>
      <trkpt lat="46.36458" lon="-0.47338">
        <ele>47.324017</ele>
        <time>2013-01-03T16:02:37Z</time>
      </trkpt>
      <trkpt lat="46.36454" lon="-0.47342">
        <ele>47.949898</ele>
        <time>2013-01-03T16:02:42Z</time>
      </trkpt>
      <trkpt lat="46.3645" lon="-0.47344">
        <ele>47.949898</ele>
        <time>2013-01-03T16:02:47Z</time>
      </trkpt>
      <trkpt lat="46.36447" lon="-0.47347">
        <ele>47.949898</ele>
        <time>2013-01-03T16:02:52Z</time>
      </trkpt>
      <trkpt lat="46.36442" lon="-0.47348">
        <ele>48.302643</ele>
        <time>2013-01-03T16:02:57Z</time>
      </trkpt>
      <trkpt lat="46.36436" lon="-0.47352">
        <ele>48.302643</ele>
        <time>2013-01-03T16:03:02Z</time>
      </trkpt>
      <trkpt lat="46.36434" lon="-0.47352">
        <ele>48.302643</ele>
        <time>2013-01-03T16:03:07Z</time>
      </trkpt>
      <trkpt lat="46.36425" lon="-0.47355">
        <ele>48.501274</ele>
        <time>2013-01-03T16:03:12Z</time>
      </trkpt>
      <trkpt lat="46.36421" lon="-0.47355">
        <ele>48.501274</ele>
        <time>2013-01-03T16:03:17Z</time>
      </trkpt>
      <trkpt lat="46.36416" lon="-0.4736">
        <ele>48.77178</ele>
        <time>2013-01-03T16:03:22Z</time>
      </trkpt>
      <trkpt lat="46.36411" lon="-0.47364">
        <ele>48.77178</ele>
        <time>2013-01-03T16:03:27Z</time>
      </trkpt>
      <trkpt lat="46.36408" lon="-0.47367">
        <ele>48.77178</ele>
        <time>2013-01-03T16:03:32Z</time>
      </trkpt>
      <trkpt lat="46.36402" lon="-0.47369">
        <ele>49.03509</ele>
        <time>2013-01-03T16:03:37Z</time>
      </trkpt>
      <trkpt lat="46.36395" lon="-0.47373">
        <ele>49.03509</ele>
        <time>2013-01-03T16:03:42Z</time>
      </trkpt>
      <trkpt lat="46.3639" lon="-0.47376">
        <ele>49.434143</ele>
        <time>2013-01-03T16:03:47Z</time>
      </trkpt>
      <trkpt lat="46.36389" lon="-0.47377">
        <ele>49.434143</ele>
        <time>2013-01-03T16:03:52Z</time>
      </trkpt>
      <trkpt lat="46.36387" lon="-0.4738">
        <ele>49.434143</ele>
        <time>2013-01-03T16:03:57Z</time>
      </trkpt>
      <trkpt lat="46.36382" lon="-0.47384">
        <ele>48.789566</ele>
        <time>2013-01-03T16:04:02Z</time>
      </trkpt>
      <trkpt lat="46.36377" lon="-0.47387">
        <ele>48.789566</ele>
        <time>2013-01-03T16:04:07Z</time>
      </trkpt>
      <trkpt lat="46.36372" lon="-0.47389">
        <ele>48.25969</ele>
        <time>2013-01-03T16:04:12Z</time>
      </trkpt>
      <trkpt lat="46.36369" lon="-0.47392">
        <ele>48.25969</ele>
        <time>2013-01-03T16:04:17Z</time>
      </trkpt>
      <trkpt lat="46.36365" lon="-0.47392">
        <ele>48.25969</ele>
        <time>2013-01-03T16:04:22Z</time>
      </trkpt>
      <trkpt lat="46.3636" lon="-0.47393">
        <ele>47.750126</ele>
        <time>2013-01-03T16:04:27Z</time>
      </trkpt>
      <trkpt lat="46.36356" lon="-0.47398">
        <ele>47.750126</ele>
        <time>2013-01-03T16:04:32Z</time>
      </trkpt>
      <trkpt lat="46.36348" lon="-0.47401">
        <ele>47.893936</ele>
        <time>2013-01-03T16:04:37Z</time>
      </trkpt>
      <trkpt lat="46.36343" lon="-0.47403">
        <ele>47.893936</ele>
        <time>2013-01-03T16:04:42Z</time>
      </trkpt>
      <trkpt lat="46.36339" lon="-0.47402">
        <ele>47.950005</ele>
        <time>2013-01-03T16:04:47Z</time>
      </trkpt>
      <trkpt lat="46.36336" lon="-0.47405">
        <ele>47.950005</ele>
        <time>2013-01-03T16:04:52Z</time>
      </trkpt>
      <trkpt lat="46.36331" lon="-0.47409">
        <ele>47.950005</ele>
        <time>2013-01-03T16:04:57Z</time>
      </trkpt>
      <trkpt lat="46.36324" lon="-0.47408">
        <ele>47.505726</ele>
        <time>2013-01-03T16:05:02Z</time>
      </trkpt>
      <trkpt lat="46.36324" lon="-0.47407">
        <ele>47.505726</ele>
        <time>2013-01-03T16:05:07Z</time>
      </trkpt>
      <trkpt lat="46.36319" lon="-0.47411">
        <ele>47.505726</ele>
        <time>2013-01-03T16:05:12Z</time>
      </trkpt>
      <trkpt lat="46.36311" lon="-0.47411">
        <ele>46.77107</ele>
        <time>2013-01-03T16:05:17Z</time>
      </trkpt>
      <trkpt lat="46.36306" lon="-0.47419">
        <ele>46.77107</ele>
        <time>2013-01-03T16:05:22Z</time>
      </trkpt>
      <trkpt lat="46.36296" lon="-0.47422">
        <ele>46.863705</ele>
        <time>2013-01-03T16:05:27Z</time>
      </trkpt>
      <trkpt lat="46.36291" lon="-0.47426">
        <ele>46.863705</ele>
        <time>2013-01-03T16:05:32Z</time>
      </trkpt>
      <trkpt lat="46.36289" lon="-0.47425">
        <ele>46.863705</ele>
        <time>2013-01-03T16:05:37Z</time>
      </trkpt>
      <trkpt lat="46.3628" lon="-0.4743">
        <ele>47.707233</ele>
        <time>2013-01-03T16:05:42Z</time>
      </trkpt>
      <trkpt lat="46.36277" lon="-0.47432">
        <ele>47.707233</ele>
        <time>2013-01-03T16:05:47Z</time>
      </trkpt>
      <trkpt lat="46.36273" lon="-0.47434">
        <ele>47.707233</ele>
        <time>2013-01-03T16:05:52Z</time>
      </trkpt>
      <trkpt lat="46.36267" lon="-0.47434">
        <ele>48.508205</ele>
        <time>2013-01-03T16:05:57Z</time>
      </trkpt>
      <trkpt lat="46.36261" lon="-0.47436">
        <ele>48.508205</ele>
        <time>2013-01-03T16:06:02Z</time>
      </trkpt>
      <trkpt lat="46.36256" lon="-0.47439">
        <ele>49.165695</ele>
        <time>2013-01-03T16:06:07Z</time>
      </trkpt>
      <trkpt lat="46.36251" lon="-0.47441">
        <ele>49.165695</ele>
        <time>2013-01-03T16:06:12Z</time>
      </trkpt>
      <trkpt lat="46.36248" lon="-0.47442">
        <ele>49.165695</ele>
        <time>2013-01-03T16:06:17Z</time>
      </trkpt>
      <trkpt lat="46.36244" lon="-0.47445">
        <ele>49.716297</ele>
        <time>2013-01-03T16:06:22Z</time>
      </trkpt>
      <trkpt lat="46.3624" lon="-0.47445">
        <ele>49.716297</ele>
        <time>2013-01-03T16:06:27Z</time>
      </trkpt>
      <trkpt lat="46.36235" lon="-0.47446">
        <ele>50.151028</ele>
        <time>2013-01-03T16:06:32Z</time>
      </trkpt>
      <trkpt lat="46.36232" lon="-0.47447">
        <ele>50.151028</ele>
        <time>2013-01-03T16:06:37Z</time>
      </trkpt>
      <trkpt lat="46.36229" lon="-0.47448">
        <ele>50.151028</ele>
        <time>2013-01-03T16:06:42Z</time>
      </trkpt>
      <trkpt lat="46.36221" lon="-0.47448">
        <ele>50.288975</ele>
        <time>2013-01-03T16:06:47Z</time>
      </trkpt>
      <trkpt lat="46.36217" lon="-0.47449">
        <ele>50.288975</ele>
        <time>2013-01-03T16:06:52Z</time>
      </trkpt>
      <trkpt lat="46.36212" lon="-0.4745">
        <ele>49.920166</ele>
        <time>2013-01-03T16:06:57Z</time>
      </trkpt>
      <trkpt lat="46.36207" lon="-0.47449">
        <ele>49.920166</ele>
        <time>2013-01-03T16:07:02Z</time>
      </trkpt>
      <trkpt lat="46.36203" lon="-0.4745">
        <ele>50.03321</ele>
        <time>2013-01-03T16:07:07Z</time>
      </trkpt>
      <trkpt lat="46.36198" lon="-0.47448">
        <ele>50.03321</ele>
        <time>2013-01-03T16:07:12Z</time>
      </trkpt>
      <trkpt lat="46.36195" lon="-0.47443">
        <ele>49.712574</ele>
        <time>2013-01-03T16:07:17Z</time>
      </trkpt>
      <trkpt lat="46.36193" lon="-0.4744">
        <ele>49.712574</ele>
        <time>2013-01-03T16:07:22Z</time>
      </trkpt>
      <trkpt lat="46.36191" lon="-0.47439">
        <ele>49.712574</ele>
        <time>2013-01-03T16:07:27Z</time>
      </trkpt>
      <trkpt lat="46.36188" lon="-0.47437">
        <ele>49.712574</ele>
        <time>2013-01-03T16:07:32Z</time>
      </trkpt>
      <trkpt lat="46.36175" lon="-0.47438">
        <ele>49.307343</ele>
        <time>2013-01-03T16:07:37Z</time>
      </trkpt>
      <trkpt lat="46.36172" lon="-0.47435">
        <ele>49.307343</ele>
        <time>2013-01-03T16:07:42Z</time>
      </trkpt>
      <trkpt lat="46.36172" lon="-0.47433">
        <ele>49.307343</ele>
        <time>2013-01-03T16:07:47Z</time>
      </trkpt>
      <trkpt lat="46.36173" lon="-0.47433">
        <ele>49.307343</ele>
        <time>2013-01-03T16:07:52Z</time>
      </trkpt>
      <trkpt lat="46.36166" lon="-0.47435">
        <ele>49.328583</ele>
        <time>2013-01-03T16:07:57Z</time>
      </trkpt>
      <trkpt lat="46.36158" lon="-0.47433">
        <ele>49.328583</ele>
        <time>2013-01-03T16:08:02Z</time>
      </trkpt>
      <trkpt lat="46.36152" lon="-0.47433">
        <ele>49.066936</ele>
        <time>2013-01-03T16:08:07Z</time>
      </trkpt>
      <trkpt lat="46.36147" lon="-0.47438">
        <ele>49.066936</ele>
        <time>2013-01-03T16:08:12Z</time>
      </trkpt>
      <trkpt lat="46.36142" lon="-0.47438">
        <ele>49.119743</ele>
        <time>2013-01-03T16:08:17Z</time>
      </trkpt>
      <trkpt lat="46.36139" lon="-0.47441">
        <ele>49.119743</ele>
        <time>2013-01-03T16:08:22Z</time>
      </trkpt>
      <trkpt lat="46.36137" lon="-0.47446">
        <ele>49.119743</ele>
        <time>2013-01-03T16:08:27Z</time>
      </trkpt>
      <trkpt lat="46.36134" lon="-0.47449">
        <ele>48.75701</ele>
        <time>2013-01-03T16:08:32Z</time>
      </trkpt>
      <trkpt lat="46.36133" lon="-0.4745">
        <ele>48.75701</ele>
        <time>2013-01-03T16:08:37Z</time>
      </trkpt>
      <trkpt lat="46.36132" lon="-0.47452">
        <ele>48.75701</ele>
        <time>2013-01-03T16:08:42Z</time>
      </trkpt>
      <trkpt lat="46.36127" lon="-0.47455">
        <ele>48.75701</ele>
        <time>2013-01-03T16:08:47Z</time>
      </trkpt>
      <trkpt lat="46.3612" lon="-0.47459">
        <ele>48.139423</ele>
        <time>2013-01-03T16:08:52Z</time>
      </trkpt>
      <trkpt lat="46.36116" lon="-0.47468">
        <ele>48.139423</ele>
        <time>2013-01-03T16:08:57Z</time>
      </trkpt>
      <trkpt lat="46.36112" lon="-0.47473">
        <ele>47.387756</ele>
        <time>2013-01-03T16:09:02Z</time>
      </trkpt>
      <trkpt lat="46.36112" lon="-0.47475">
        <ele>47.387756</ele>
        <time>2013-01-03T16:09:07Z</time>
      </trkpt>
      <trkpt lat="46.36111" lon="-0.47476">
        <ele>47.387756</ele>
        <time>2013-01-03T16:09:12Z</time>
      </trkpt>
      <trkpt lat="46.36109" lon="-0.47485">
        <ele>46.412563</ele>
        <time>2013-01-03T16:09:22Z</time>
      </trkpt>
      <trkpt lat="46.36108" lon="-0.47495">
        <ele>46.412563</ele>
        <time>2013-01-03T16:09:27Z</time>
      </trkpt>
      <trkpt lat="46.36104" lon="-0.47516">
        <ele>45.880978</ele>
        <time>2013-01-03T16:09:32Z</time>
      </trkpt>
      <trkpt lat="46.36103" lon="-0.47523">
        <ele>45.880978</ele>
        <time>2013-01-03T16:09:37Z</time>
      </trkpt>
      <trkpt lat="46.36106" lon="-0.47531">
        <ele>45.285824</ele>
        <time>2013-01-03T16:09:42Z</time>
      </trkpt>
      <trkpt lat="46.36104" lon="-0.47532">
        <ele>45.285824</ele>
        <time>2013-01-03T16:09:47Z</time>
      </trkpt>
      <trkpt lat="46.36101" lon="-0.47539">
        <ele>45.285824</ele>
        <time>2013-01-03T16:09:52Z</time>
      </trkpt>
      <trkpt lat="46.36101" lon="-0.47545">
        <ele>45.022026</ele>
        <time>2013-01-03T16:09:57Z</time>
      </trkpt>
      <trkpt lat="46.36101" lon="-0.47545">
        <ele>45.022026</ele>
        <time>2013-01-03T16:10:02Z</time>
      </trkpt>
      <trkpt lat="46.36101" lon="-0.47548">
        <ele>45.022026</ele>
        <time>2013-01-03T16:10:07Z</time>
      </trkpt>
      <trkpt lat="46.361" lon="-0.4755">
        <ele>45.022026</ele>
        <time>2013-01-03T16:10:12Z</time>
      </trkpt>
      <trkpt lat="46.361" lon="-0.47554">
        <ele>45.022026</ele>
        <time>2013-01-03T16:10:17Z</time>
      </trkpt>
      <trkpt lat="46.36098" lon="-0.47566">
        <ele>44.8493</ele>
        <time>2013-01-03T16:10:22Z</time>
      </trkpt>
      <trkpt lat="46.36091" lon="-0.4758">
        <ele>45.1068</ele>
        <time>2013-01-03T16:10:27Z</time>
      </trkpt>
      <trkpt lat="46.36088" lon="-0.47589">
        <ele>45.1068</ele>
        <time>2013-01-03T16:10:32Z</time>
      </trkpt>
      <trkpt lat="46.36088" lon="-0.4759">
        <ele>45.1068</ele>
        <time>2013-01-03T16:10:37Z</time>
      </trkpt>
      <trkpt lat="46.36088" lon="-0.47595">
        <ele>45.28611</ele>
        <time>2013-01-03T16:10:42Z</time>
      </trkpt>
      <trkpt lat="46.36088" lon="-0.47596">
        <ele>45.28611</ele>
        <time>2013-01-03T16:10:47Z</time>
      </trkpt>
      <trkpt lat="46.36087" lon="-0.476">
        <ele>45.28611</ele>
        <time>2013-01-03T16:10:52Z</time>
      </trkpt>
      <trkpt lat="46.36083" lon="-0.47609">
        <ele>45.80988</ele>
        <time>2013-01-03T16:10:57Z</time>
      </trkpt>
      <trkpt lat="46.36081" lon="-0.47618">
        <ele>45.80988</ele>
        <time>2013-01-03T16:11:02Z</time>
      </trkpt>
      <trkpt lat="46.36079" lon="-0.47627">
        <ele>46.30496</ele>
        <time>2013-01-03T16:11:07Z</time>
      </trkpt>
      <trkpt lat="46.36078" lon="-0.47632">
        <ele>46.30496</ele>
        <time>2013-01-03T16:11:12Z</time>
      </trkpt>
      <trkpt lat="46.36077" lon="-0.47637">
        <ele>46.30496</ele>
        <time>2013-01-03T16:11:17Z</time>
      </trkpt>
      <trkpt lat="46.36076" lon="-0.47639">
        <ele>46.30496</ele>
        <time>2013-01-03T16:11:22Z</time>
      </trkpt>
      <trkpt lat="46.36076" lon="-0.47639">
        <ele>46.30496</ele>
        <time>2013-01-03T16:11:27Z</time>
      </trkpt>
      <trkpt lat="46.36075" lon="-0.47645">
        <ele>47.160664</ele>
        <time>2013-01-03T16:11:32Z</time>
      </trkpt>
      <trkpt lat="46.36073" lon="-0.47654">
        <ele>47.160664</ele>
        <time>2013-01-03T16:11:37Z</time>
      </trkpt>
      <trkpt lat="46.36071" lon="-0.47662">
        <ele>48.04499</ele>
        <time>2013-01-03T16:11:42Z</time>
      </trkpt>
      <trkpt lat="46.36066" lon="-0.47668">
        <ele>48.04499</ele>
        <time>2013-01-03T16:11:47Z</time>
      </trkpt>
      <trkpt lat="46.36064" lon="-0.47671">
        <ele>48.04499</ele>
        <time>2013-01-03T16:11:52Z</time>
      </trkpt>
      <trkpt lat="46.36061" lon="-0.47675">
        <ele>48.405266</ele>
        <time>2013-01-03T16:11:57Z</time>
      </trkpt>
      <trkpt lat="46.36056" lon="-0.47689">
        <ele>48.264133</ele>
        <time>2013-01-03T16:12:02Z</time>
      </trkpt>
      <trkpt lat="46.36053" lon="-0.47696">
        <ele>48.264133</ele>
        <time>2013-01-03T16:12:07Z</time>
      </trkpt>
      <trkpt lat="46.36049" lon="-0.47696">
        <ele>47.644</ele>
        <time>2013-01-03T16:12:12Z</time>
      </trkpt>
      <trkpt lat="46.36044" lon="-0.47698">
        <ele>47.644</ele>
        <time>2013-01-03T16:12:17Z</time>
      </trkpt>
      <trkpt lat="46.36039" lon="-0.477">
        <ele>47.244324</ele>
        <time>2013-01-03T16:12:22Z</time>
      </trkpt>
      <trkpt lat="46.36038" lon="-0.47703">
        <ele>47.244324</ele>
        <time>2013-01-03T16:12:27Z</time>
      </trkpt>
      <trkpt lat="46.36036" lon="-0.47707">
        <ele>47.244324</ele>
        <time>2013-01-03T16:12:32Z</time>
      </trkpt>
      <trkpt lat="46.36038" lon="-0.47711">
        <ele>46.8335</ele>
        <time>2013-01-03T16:12:37Z</time>
      </trkpt>
      <trkpt lat="46.36038" lon="-0.47713">
        <ele>46.8335</ele>
        <time>2013-01-03T16:12:42Z</time>
      </trkpt>
      <trkpt lat="46.36037" lon="-0.47716">
        <ele>46.8335</ele>
        <time>2013-01-03T16:12:47Z</time>
      </trkpt>
      <trkpt lat="46.36037" lon="-0.47716">
        <ele>46.8335</ele>
        <time>2013-01-03T16:12:52Z</time>
      </trkpt>
      <trkpt lat="46.36036" lon="-0.47716">
        <ele>46.8335</ele>
        <time>2013-01-03T16:12:57Z</time>
      </trkpt>
      <trkpt lat="46.36034" lon="-0.47716">
        <ele>46.8335</ele>
        <time>2013-01-03T16:13:02Z</time>
      </trkpt>
      <trkpt lat="46.36034" lon="-0.47718">
        <ele>46.8335</ele>
        <time>2013-01-03T16:13:07Z</time>
      </trkpt>
      <trkpt lat="46.36035" lon="-0.47722">
        <ele>46.384346</ele>
        <time>2013-01-03T16:13:12Z</time>
      </trkpt>
      <trkpt lat="46.36037" lon="-0.47723">
        <ele>46.384346</ele>
        <time>2013-01-03T16:13:17Z</time>
      </trkpt>
      <trkpt lat="46.36038" lon="-0.47723">
        <ele>46.384346</ele>
        <time>2013-01-03T16:13:22Z</time>
      </trkpt>
      <trkpt lat="46.36039" lon="-0.47727">
        <ele>46.384346</ele>
        <time>2013-01-03T16:13:27Z</time>
      </trkpt>
      <trkpt lat="46.36039" lon="-0.47734">
        <ele>46.491463</ele>
        <time>2013-01-03T16:13:32Z</time>
      </trkpt>
      <trkpt lat="46.36038" lon="-0.47745">
        <ele>46.491463</ele>
        <time>2013-01-03T16:13:37Z</time>
      </trkpt>
      <trkpt lat="46.36038" lon="-0.47753">
        <ele>46.565758</ele>
        <time>2013-01-03T16:13:42Z</time>
      </trkpt>
      <trkpt lat="46.36038" lon="-0.47759">
        <ele>46.565758</ele>
        <time>2013-01-03T16:13:47Z</time>
      </trkpt>
      <trkpt lat="46.36038" lon="-0.47766">
        <ele>46.479435</ele>
        <time>2013-01-03T16:13:52Z</time>
      </trkpt>
      <trkpt lat="46.36039" lon="-0.47774">
        <ele>46.479435</ele>
        <time>2013-01-03T16:13:57Z</time>
      </trkpt>
      <trkpt lat="46.36039" lon="-0.47782">
        <ele>46.446003</ele>
        <time>2013-01-03T16:14:02Z</time>
      </trkpt>
      <trkpt lat="46.36038" lon="-0.47787">
        <ele>46.446003</ele>
        <time>2013-01-03T16:14:07Z</time>
      </trkpt>
      <trkpt lat="46.36033" lon="-0.47789">
        <ele>46.446003</ele>
        <time>2013-01-03T16:14:12Z</time>
      </trkpt>
      <trkpt lat="46.36028" lon="-0.4779">
        <ele>46.144356</ele>
        <time>2013-01-03T16:14:17Z</time>
      </trkpt>
      <trkpt lat="46.36024" lon="-0.47791">
        <ele>46.144356</ele>
        <time>2013-01-03T16:14:22Z</time>
      </trkpt>
      <trkpt lat="46.36018" lon="-0.47793">
        <ele>46.430622</ele>
        <time>2013-01-03T16:14:27Z</time>
      </trkpt>
      <trkpt lat="46.36012" lon="-0.47794">
        <ele>46.430622</ele>
        <time>2013-01-03T16:14:32Z</time>
      </trkpt>
      <trkpt lat="46.36007" lon="-0.47795">
        <ele>46.712936</ele>
        <time>2013-01-03T16:14:37Z</time>
      </trkpt>
      <trkpt lat="46.36002" lon="-0.47798">
        <ele>46.712936</ele>
        <time>2013-01-03T16:14:42Z</time>
      </trkpt>
      <trkpt lat="46.35998" lon="-0.47799">
        <ele>47.091434</ele>
        <time>2013-01-03T16:14:47Z</time>
      </trkpt>
      <trkpt lat="46.35994" lon="-0.47799">
        <ele>47.091434</ele>
        <time>2013-01-03T16:14:52Z</time>
      </trkpt>
      <trkpt lat="46.35993" lon="-0.47799">
        <ele>47.091434</ele>
        <time>2013-01-03T16:14:57Z</time>
      </trkpt>
      <trkpt lat="46.35987" lon="-0.47798">
        <ele>47.90363</ele>
        <time>2013-01-03T16:15:02Z</time>
      </trkpt>
      <trkpt lat="46.35984" lon="-0.47803">
        <ele>47.90363</ele>
        <time>2013-01-03T16:15:07Z</time>
      </trkpt>
      <trkpt lat="46.35979" lon="-0.47804">
        <ele>47.818176</ele>
        <time>2013-01-03T16:15:12Z</time>
      </trkpt>
      <trkpt lat="46.35974" lon="-0.47806">
        <ele>47.818176</ele>
        <time>2013-01-03T16:15:17Z</time>
      </trkpt>
      <trkpt lat="46.35969" lon="-0.47807">
        <ele>48.01072</ele>
        <time>2013-01-03T16:15:22Z</time>
      </trkpt>
      <trkpt lat="46.35962" lon="-0.47806">
        <ele>48.01072</ele>
        <time>2013-01-03T16:15:27Z</time>
      </trkpt>
      <trkpt lat="46.35956" lon="-0.47807">
        <ele>48.488956</ele>
        <time>2013-01-03T16:15:32Z</time>
      </trkpt>
      <trkpt lat="46.3595" lon="-0.47808">
        <ele>48.488956</ele>
        <time>2013-01-03T16:15:37Z</time>
      </trkpt>
      <trkpt lat="46.35945" lon="-0.4781">
        <ele>48.8269</ele>
        <time>2013-01-03T16:15:42Z</time>
      </trkpt>
      <trkpt lat="46.35941" lon="-0.47813">
        <ele>48.8269</ele>
        <time>2013-01-03T16:15:47Z</time>
      </trkpt>
      <trkpt lat="46.35938" lon="-0.47817">
        <ele>48.8269</ele>
        <time>2013-01-03T16:15:52Z</time>
      </trkpt>
      <trkpt lat="46.35935" lon="-0.47822">
        <ele>49.58141</ele>
        <time>2013-01-03T16:15:57Z</time>
      </trkpt>
      <trkpt lat="46.35931" lon="-0.47828">
        <ele>49.58141</ele>
        <time>2013-01-03T16:16:02Z</time>
      </trkpt>
      <trkpt lat="46.35928" lon="-0.47833">
        <ele>50.474686</ele>
        <time>2013-01-03T16:16:07Z</time>
      </trkpt>
      <trkpt lat="46.35927" lon="-0.47835">
        <ele>50.474686</ele>
        <time>2013-01-03T16:16:12Z</time>
      </trkpt>
      <trkpt lat="46.35925" lon="-0.47842">
        <ele>50.474686</ele>
        <time>2013-01-03T16:16:17Z</time>
      </trkpt>
      <trkpt lat="46.35923" lon="-0.47847">
        <ele>51.75337</ele>
        <time>2013-01-03T16:16:22Z</time>
      </trkpt>
      <trkpt lat="46.35918" lon="-0.47854">
        <ele>51.75337</ele>
        <time>2013-01-03T16:16:27Z</time>
      </trkpt>
      <trkpt lat="46.35915" lon="-0.47858">
        <ele>52.93879</ele>
        <time>2013-01-03T16:16:32Z</time>
      </trkpt>
      <trkpt lat="46.35908" lon="-0.4786">
        <ele>52.93879</ele>
        <time>2013-01-03T16:16:37Z</time>
      </trkpt>
      <trkpt lat="46.35901" lon="-0.47862">
        <ele>54.279484</ele>
        <time>2013-01-03T16:16:42Z</time>
      </trkpt>
      <trkpt lat="46.35895" lon="-0.47866">
        <ele>54.279484</ele>
        <time>2013-01-03T16:16:47Z</time>
      </trkpt>
      <trkpt lat="46.35891" lon="-0.47867">
        <ele>55.70271</ele>
        <time>2013-01-03T16:16:52Z</time>
      </trkpt>
      <trkpt lat="46.35886" lon="-0.47867">
        <ele>55.70271</ele>
        <time>2013-01-03T16:16:57Z</time>
      </trkpt>
      <trkpt lat="46.3588" lon="-0.4787">
        <ele>56.996784</ele>
        <time>2013-01-03T16:17:02Z</time>
      </trkpt>
      <trkpt lat="46.35877" lon="-0.4787">
        <ele>56.996784</ele>
        <time>2013-01-03T16:17:07Z</time>
      </trkpt>
      <trkpt lat="46.35872" lon="-0.4787">
        <ele>56.996784</ele>
        <time>2013-01-03T16:17:12Z</time>
      </trkpt>
      <trkpt lat="46.35866" lon="-0.4787">
        <ele>58.628918</ele>
        <time>2013-01-03T16:17:17Z</time>
      </trkpt>
      <trkpt lat="46.3586" lon="-0.47872">
        <ele>58.628918</ele>
        <time>2013-01-03T16:17:22Z</time>
      </trkpt>
      <trkpt lat="46.35855" lon="-0.47873">
        <ele>60.25292</ele>
        <time>2013-01-03T16:17:27Z</time>
      </trkpt>
      <trkpt lat="46.35849" lon="-0.47876">
        <ele>60.25292</ele>
        <time>2013-01-03T16:17:32Z</time>
      </trkpt>
      <trkpt lat="46.35845" lon="-0.47876">
        <ele>61.677822</ele>
        <time>2013-01-03T16:17:37Z</time>
      </trkpt>
      <trkpt lat="46.3584" lon="-0.47877">
        <ele>61.677822</ele>
        <time>2013-01-03T16:17:42Z</time>
      </trkpt>
      <trkpt lat="46.35835" lon="-0.47878">
        <ele>63.51996</ele>
        <time>2013-01-03T16:17:47Z</time>
      </trkpt>
      <trkpt lat="46.35829" lon="-0.47879">
        <ele>63.51996</ele>
        <time>2013-01-03T16:17:52Z</time>
      </trkpt>
      <trkpt lat="46.35824" lon="-0.47882">
        <ele>65.4558</ele>
        <time>2013-01-03T16:17:57Z</time>
      </trkpt>
      <trkpt lat="46.3582" lon="-0.47882">
        <ele>65.4558</ele>
        <time>2013-01-03T16:18:02Z</time>
      </trkpt>
      <trkpt lat="46.35815" lon="-0.47885">
        <ele>67.04131</ele>
        <time>2013-01-03T16:18:07Z</time>
      </trkpt>
      <trkpt lat="46.3581" lon="-0.47885">
        <ele>67.04131</ele>
        <time>2013-01-03T16:18:12Z</time>
      </trkpt>
      <trkpt lat="46.35805" lon="-0.47889">
        <ele>68.47144</ele>
        <time>2013-01-03T16:18:17Z</time>
      </trkpt>
      <trkpt lat="46.358" lon="-0.47889">
        <ele>68.47144</ele>
        <time>2013-01-03T16:18:22Z</time>
      </trkpt>
      <trkpt lat="46.35795" lon="-0.4789">
        <ele>69.84088</ele>
        <time>2013-01-03T16:18:27Z</time>
      </trkpt>
      <trkpt lat="46.35792" lon="-0.4789">
        <ele>69.84088</ele>
        <time>2013-01-03T16:18:32Z</time>
      </trkpt>
      <trkpt lat="46.35786" lon="-0.4789">
        <ele>71.12234</ele>
        <time>2013-01-03T16:18:37Z</time>
      </trkpt>
      <trkpt lat="46.35781" lon="-0.47891">
        <ele>71.12234</ele>
        <time>2013-01-03T16:18:42Z</time>
      </trkpt>
      <trkpt lat="46.35776" lon="-0.47894">
        <ele>71.685646</ele>
        <time>2013-01-03T16:18:47Z</time>
      </trkpt>
      <trkpt lat="46.3577" lon="-0.47896">
        <ele>71.685646</ele>
        <time>2013-01-03T16:18:52Z</time>
      </trkpt>
      <trkpt lat="46.35765" lon="-0.47898">
        <ele>72.00104</ele>
        <time>2013-01-03T16:18:57Z</time>
      </trkpt>
      <trkpt lat="46.35764" lon="-0.479">
        <ele>72.00104</ele>
        <time>2013-01-03T16:19:02Z</time>
      </trkpt>
      <trkpt lat="46.3576" lon="-0.47902">
        <ele>72.00104</ele>
        <time>2013-01-03T16:19:07Z</time>
      </trkpt>
      <trkpt lat="46.35753" lon="-0.47904">
        <ele>71.84209</ele>
        <time>2013-01-03T16:19:12Z</time>
      </trkpt>
      <trkpt lat="46.35748" lon="-0.47906">
        <ele>71.84209</ele>
        <time>2013-01-03T16:19:17Z</time>
      </trkpt>
      <trkpt lat="46.35741" lon="-0.47906">
        <ele>71.54806</ele>
        <time>2013-01-03T16:19:22Z</time>
      </trkpt>
      <trkpt lat="46.35737" lon="-0.47907">
        <ele>71.54806</ele>
        <time>2013-01-03T16:19:27Z</time>
      </trkpt>
      <trkpt lat="46.35732" lon="-0.47907">
        <ele>71.03023</ele>
        <time>2013-01-03T16:19:32Z</time>
      </trkpt>
      <trkpt lat="46.35726" lon="-0.47906">
        <ele>71.03023</ele>
        <time>2013-01-03T16:19:37Z</time>
      </trkpt>
      <trkpt lat="46.3572" lon="-0.47906">
        <ele>71.05735</ele>
        <time>2013-01-03T16:19:42Z</time>
      </trkpt>
      <trkpt lat="46.35715" lon="-0.47909">
        <ele>71.05735</ele>
        <time>2013-01-03T16:19:47Z</time>
      </trkpt>
      <trkpt lat="46.3571" lon="-0.4791">
        <ele>71.11527</ele>
        <time>2013-01-03T16:19:52Z</time>
      </trkpt>
      <trkpt lat="46.35706" lon="-0.47912">
        <ele>71.11527</ele>
        <time>2013-01-03T16:19:57Z</time>
      </trkpt>
      <trkpt lat="46.35702" lon="-0.47916">
        <ele>70.987</ele>
        <time>2013-01-03T16:20:02Z</time>
      </trkpt>
      <trkpt lat="46.35697" lon="-0.47916">
        <ele>70.987</ele>
        <time>2013-01-03T16:20:07Z</time>
      </trkpt>
      <trkpt lat="46.35692" lon="-0.47917">
        <ele>71.12051</ele>
        <time>2013-01-03T16:20:12Z</time>
      </trkpt>
      <trkpt lat="46.35687" lon="-0.47918">
        <ele>71.12051</ele>
        <time>2013-01-03T16:20:17Z</time>
      </trkpt>
      <trkpt lat="46.35681" lon="-0.4792">
        <ele>71.33932</ele>
        <time>2013-01-03T16:20:22Z</time>
      </trkpt>
      <trkpt lat="46.35675" lon="-0.47921">
        <ele>71.33932</ele>
        <time>2013-01-03T16:20:27Z</time>
      </trkpt>
      <trkpt lat="46.3567" lon="-0.47922">
        <ele>71.52294</ele>
        <time>2013-01-03T16:20:32Z</time>
      </trkpt>
      <trkpt lat="46.35665" lon="-0.47923">
        <ele>71.52294</ele>
        <time>2013-01-03T16:20:37Z</time>
      </trkpt>
      <trkpt lat="46.3566" lon="-0.47925">
        <ele>71.73278</ele>
        <time>2013-01-03T16:20:42Z</time>
      </trkpt>
      <trkpt lat="46.35655" lon="-0.47929">
        <ele>71.73278</ele>
        <time>2013-01-03T16:20:47Z</time>
      </trkpt>
      <trkpt lat="46.35651" lon="-0.47929">
        <ele>71.66538</ele>
        <time>2013-01-03T16:20:52Z</time>
      </trkpt>
      <trkpt lat="46.35647" lon="-0.47932">
        <ele>71.66538</ele>
        <time>2013-01-03T16:20:57Z</time>
      </trkpt>
      <trkpt lat="46.35641" lon="-0.47932">
        <ele>71.55917</ele>
        <time>2013-01-03T16:21:02Z</time>
      </trkpt>
      <trkpt lat="46.35634" lon="-0.47934">
        <ele>71.55917</ele>
        <time>2013-01-03T16:21:07Z</time>
      </trkpt>
      <trkpt lat="46.35629" lon="-0.47934">
        <ele>71.67842</ele>
        <time>2013-01-03T16:21:12Z</time>
      </trkpt>
      <trkpt lat="46.35623" lon="-0.47936">
        <ele>71.67842</ele>
        <time>2013-01-03T16:21:17Z</time>
      </trkpt>
      <trkpt lat="46.35618" lon="-0.47937">
        <ele>71.60442</ele>
        <time>2013-01-03T16:21:22Z</time>
      </trkpt>
      <trkpt lat="46.35614" lon="-0.47937">
        <ele>71.60442</ele>
        <time>2013-01-03T16:21:27Z</time>
      </trkpt>
      <trkpt lat="46.3561" lon="-0.4794">
        <ele>71.43974</ele>
        <time>2013-01-03T16:21:32Z</time>
      </trkpt>
      <trkpt lat="46.35605" lon="-0.47941">
        <ele>71.43974</ele>
        <time>2013-01-03T16:21:37Z</time>
      </trkpt>
      <trkpt lat="46.356" lon="-0.47943">
        <ele>71.07791</ele>
        <time>2013-01-03T16:21:42Z</time>
      </trkpt>
      <trkpt lat="46.35594" lon="-0.47943">
        <ele>71.07791</ele>
        <time>2013-01-03T16:21:47Z</time>
      </trkpt>
      <trkpt lat="46.35589" lon="-0.47944">
        <ele>70.79547</ele>
        <time>2013-01-03T16:21:52Z</time>
      </trkpt>
      <trkpt lat="46.35585" lon="-0.47947">
        <ele>70.79547</ele>
        <time>2013-01-03T16:21:57Z</time>
      </trkpt>
      <trkpt lat="46.3558" lon="-0.4795">
        <ele>70.31522</ele>
        <time>2013-01-03T16:22:02Z</time>
      </trkpt>
      <trkpt lat="46.35575" lon="-0.47951">
        <ele>70.31522</ele>
        <time>2013-01-03T16:22:07Z</time>
      </trkpt>
      <trkpt lat="46.35571" lon="-0.47953">
        <ele>69.61142</ele>
        <time>2013-01-03T16:22:12Z</time>
      </trkpt>
      <trkpt lat="46.35565" lon="-0.47953">
        <ele>69.61142</ele>
        <time>2013-01-03T16:22:17Z</time>
      </trkpt>
      <trkpt lat="46.3556" lon="-0.47956">
        <ele>68.704025</ele>
        <time>2013-01-03T16:22:22Z</time>
      </trkpt>
      <trkpt lat="46.35555" lon="-0.47957">
        <ele>68.704025</ele>
        <time>2013-01-03T16:22:27Z</time>
      </trkpt>
      <trkpt lat="46.35549" lon="-0.47959">
        <ele>67.58324</ele>
        <time>2013-01-03T16:22:32Z</time>
      </trkpt>
      <trkpt lat="46.35547" lon="-0.47968">
        <ele>67.58324</ele>
        <time>2013-01-03T16:22:37Z</time>
      </trkpt>
      <trkpt lat="46.3555" lon="-0.47973">
        <ele>66.49992</ele>
        <time>2013-01-03T16:22:42Z</time>
      </trkpt>
      <trkpt lat="46.35552" lon="-0.47984">
        <ele>66.49992</ele>
        <time>2013-01-03T16:22:47Z</time>
      </trkpt>
      <trkpt lat="46.35555" lon="-0.47991">
        <ele>65.527824</ele>
        <time>2013-01-03T16:22:52Z</time>
      </trkpt>
      <trkpt lat="46.35559" lon="-0.47997">
        <ele>65.527824</ele>
        <time>2013-01-03T16:22:57Z</time>
      </trkpt>
      <trkpt lat="46.35561" lon="-0.48003">
        <ele>64.47549</ele>
        <time>2013-01-03T16:23:02Z</time>
      </trkpt>
      <trkpt lat="46.35564" lon="-0.4801">
        <ele>64.47549</ele>
        <time>2013-01-03T16:23:07Z</time>
      </trkpt>
      <trkpt lat="46.35568" lon="-0.48016">
        <ele>63.38184</ele>
        <time>2013-01-03T16:23:12Z</time>
      </trkpt>
      <trkpt lat="46.35557" lon="-0.48051">
        <ele>61.994747</ele>
        <time>2013-01-03T16:23:17Z</time>
      </trkpt>
      <trkpt lat="46.35559" lon="-0.48064">
        <ele>60.51366</ele>
        <time>2013-01-03T16:23:22Z</time>
      </trkpt>
      <trkpt lat="46.35566" lon="-0.48057">
        <ele>60.51366</ele>
        <time>2013-01-03T16:23:27Z</time>
      </trkpt>
      <trkpt lat="46.3557" lon="-0.48056">
        <ele>60.074684</ele>
        <time>2013-01-03T16:23:32Z</time>
      </trkpt>
      <trkpt lat="46.35576" lon="-0.48056">
        <ele>60.074684</ele>
        <time>2013-01-03T16:23:37Z</time>
      </trkpt>
      <trkpt lat="46.35583" lon="-0.48056">
        <ele>59.66664</ele>
        <time>2013-01-03T16:23:42Z</time>
      </trkpt>
      <trkpt lat="46.35588" lon="-0.48063">
        <ele>59.66664</ele>
        <time>2013-01-03T16:23:47Z</time>
      </trkpt>
      <trkpt lat="46.35593" lon="-0.48065">
        <ele>59.044186</ele>
        <time>2013-01-03T16:23:52Z</time>
      </trkpt>
      <trkpt lat="46.35596" lon="-0.48072">
        <ele>59.044186</ele>
        <time>2013-01-03T16:23:57Z</time>
      </trkpt>
      <trkpt lat="46.35601" lon="-0.48073">
        <ele>58.7731</ele>
        <time>2013-01-03T16:24:02Z</time>
      </trkpt>
      <trkpt lat="46.35606" lon="-0.48079">
        <ele>58.7731</ele>
        <time>2013-01-03T16:24:07Z</time>
      </trkpt>
      <trkpt lat="46.35607" lon="-0.48083">
        <ele>58.108334</ele>
        <time>2013-01-03T16:24:12Z</time>
      </trkpt>
      <trkpt lat="46.35609" lon="-0.48088">
        <ele>58.108334</ele>
        <time>2013-01-03T16:24:17Z</time>
      </trkpt>
      <trkpt lat="46.35614" lon="-0.48095">
        <ele>57.354942</ele>
        <time>2013-01-03T16:24:22Z</time>
      </trkpt>
      <trkpt lat="46.3562" lon="-0.48098">
        <ele>57.354942</ele>
        <time>2013-01-03T16:24:27Z</time>
      </trkpt>
      <trkpt lat="46.35624" lon="-0.48103">
        <ele>57.01189</ele>
        <time>2013-01-03T16:24:32Z</time>
      </trkpt>
      <trkpt lat="46.35628" lon="-0.48111">
        <ele>57.01189</ele>
        <time>2013-01-03T16:24:37Z</time>
      </trkpt>
      <trkpt lat="46.3563" lon="-0.48116">
        <ele>56.44499</ele>
        <time>2013-01-03T16:24:42Z</time>
      </trkpt>
      <trkpt lat="46.35636" lon="-0.48119">
        <ele>56.44499</ele>
        <time>2013-01-03T16:24:47Z</time>
      </trkpt>
      <trkpt lat="46.3564" lon="-0.48123">
        <ele>56.421814</ele>
        <time>2013-01-03T16:24:52Z</time>
      </trkpt>
      <trkpt lat="46.35646" lon="-0.48124">
        <ele>56.421814</ele>
        <time>2013-01-03T16:24:57Z</time>
      </trkpt>
      <trkpt lat="46.35651" lon="-0.48123">
        <ele>56.527885</ele>
        <time>2013-01-03T16:25:02Z</time>
      </trkpt>
      <trkpt lat="46.35656" lon="-0.48125">
        <ele>56.527885</ele>
        <time>2013-01-03T16:25:07Z</time>
      </trkpt>
      <trkpt lat="46.35662" lon="-0.48127">
        <ele>56.3643</ele>
        <time>2013-01-03T16:25:12Z</time>
      </trkpt>
      <trkpt lat="46.35667" lon="-0.48131">
        <ele>56.3643</ele>
        <time>2013-01-03T16:25:17Z</time>
      </trkpt>
      <trkpt lat="46.35669" lon="-0.48137">
        <ele>56.008877</ele>
        <time>2013-01-03T16:25:22Z</time>
      </trkpt>
      <trkpt lat="46.35674" lon="-0.48139">
        <ele>56.008877</ele>
        <time>2013-01-03T16:25:27Z</time>
      </trkpt>
      <trkpt lat="46.35676" lon="-0.48141">
        <ele>56.008877</ele>
        <time>2013-01-03T16:25:32Z</time>
      </trkpt>
      <trkpt lat="46.35684" lon="-0.48147">
        <ele>56.1971</ele>
        <time>2013-01-03T16:25:37Z</time>
      </trkpt>
      <trkpt lat="46.3569" lon="-0.48148">
        <ele>56.1971</ele>
        <time>2013-01-03T16:25:42Z</time>
      </trkpt>
      <trkpt lat="46.35693" lon="-0.48152">
        <ele>55.86509</ele>
        <time>2013-01-03T16:25:47Z</time>
      </trkpt>
      <trkpt lat="46.35697" lon="-0.48155">
        <ele>55.86509</ele>
        <time>2013-01-03T16:25:52Z</time>
      </trkpt>
      <trkpt lat="46.35702" lon="-0.48161">
        <ele>55.48402</ele>
        <time>2013-01-03T16:25:57Z</time>
      </trkpt>
      <trkpt lat="46.35706" lon="-0.4816">
        <ele>55.48402</ele>
        <time>2013-01-03T16:26:02Z</time>
      </trkpt>
      <trkpt lat="46.35709" lon="-0.48163">
        <ele>55.48402</ele>
        <time>2013-01-03T16:26:07Z</time>
      </trkpt>
      <trkpt lat="46.35712" lon="-0.4817">
        <ele>54.95733</ele>
        <time>2013-01-03T16:26:12Z</time>
      </trkpt>
      <trkpt lat="46.35719" lon="-0.48177">
        <ele>54.95733</ele>
        <time>2013-01-03T16:26:17Z</time>
      </trkpt>
      <trkpt lat="46.3572" lon="-0.48182">
        <ele>54.844395</ele>
        <time>2013-01-03T16:26:22Z</time>
      </trkpt>
      <trkpt lat="46.35722" lon="-0.4819">
        <ele>54.69131</ele>
        <time>2013-01-03T16:26:27Z</time>
      </trkpt>
      <trkpt lat="46.35725" lon="-0.48194">
        <ele>54.538227</ele>
        <time>2013-01-03T16:26:32Z</time>
      </trkpt>
      <trkpt lat="46.3573" lon="-0.48196">
        <ele>54.538227</ele>
        <time>2013-01-03T16:26:37Z</time>
      </trkpt>
      <trkpt lat="46.35736" lon="-0.48197">
        <ele>54.55774</ele>
        <time>2013-01-03T16:26:42Z</time>
      </trkpt>
      <trkpt lat="46.35741" lon="-0.482">
        <ele>54.55774</ele>
        <time>2013-01-03T16:26:47Z</time>
      </trkpt>
      <trkpt lat="46.35747" lon="-0.48201">
        <ele>54.719864</ele>
        <time>2013-01-03T16:26:52Z</time>
      </trkpt>
      <trkpt lat="46.35749" lon="-0.48204">
        <ele>54.719864</ele>
        <time>2013-01-03T16:26:57Z</time>
      </trkpt>
      <trkpt lat="46.35754" lon="-0.48206">
        <ele>54.719864</ele>
        <time>2013-01-03T16:27:02Z</time>
      </trkpt>
      <trkpt lat="46.35757" lon="-0.48209">
        <ele>54.825706</ele>
        <time>2013-01-03T16:27:07Z</time>
      </trkpt>
      <trkpt lat="46.35759" lon="-0.48212">
        <ele>54.825706</ele>
        <time>2013-01-03T16:27:12Z</time>
      </trkpt>
      <trkpt lat="46.35759" lon="-0.48212">
        <ele>54.825706</ele>
        <time>2013-01-03T16:27:17Z</time>
      </trkpt>
    </trkseg>
  </trk>
</gpx>